<?xml version="1.0" encoding="UTF-8" standalone="no" ?>
<gpx xmlns="http://www.topografix.com/GPX/1/1" xmlns:xsi="http://www.w3.org/2001/XMLSchema-instance" xsi:schemaLocation="http://www.topografix.com/GPX/1/1 http://www.topografix.com/GPX/1/1/gpx.xsd" version="1.1" creator="VisuGPX - https://www.visugpx.com">
  <metadata>
    <name>Lasserre-22-09-2022</name>
  </metadata>
  <trk>
    <name><![CDATA[T2022-09-22-11-43]]></name>
    <extensions>
      <line xmlns="http://www.topografix.com/GPX/gpx_style/0/2">
        <color>0000FF</color>
        <width>4</width>
      </line>
    </extensions>
    <trkseg>
      <trkpt lat="44.06524" lon="0.39298">
        <ele>25</ele>
        <time>2022-09-22T07:06:58Z</time>
      </trkpt>
      <trkpt lat="44.06544" lon="0.39311">
        <ele>52.7</ele>
        <time>2022-09-22T07:07:01Z</time>
      </trkpt>
      <trkpt lat="44.06551" lon="0.39309">
        <ele>44.6</ele>
        <time>2022-09-22T07:07:04Z</time>
      </trkpt>
      <trkpt lat="44.06552" lon="0.39297">
        <ele>54</ele>
        <time>2022-09-22T07:07:07Z</time>
      </trkpt>
      <trkpt lat="44.06557" lon="0.39293">
        <ele>60.1</ele>
        <time>2022-09-22T07:07:10Z</time>
      </trkpt>
      <trkpt lat="44.06553" lon="0.39294">
        <ele>72.4</ele>
        <time>2022-09-22T07:07:14Z</time>
      </trkpt>
      <trkpt lat="44.06545" lon="0.39292">
        <ele>82</ele>
        <time>2022-09-22T07:07:18Z</time>
      </trkpt>
      <trkpt lat="44.0654" lon="0.39292">
        <ele>89</ele>
        <time>2022-09-22T07:07:21Z</time>
      </trkpt>
      <trkpt lat="44.06541" lon="0.39299">
        <ele>117</ele>
        <time>2022-09-22T07:09:50Z</time>
      </trkpt>
      <trkpt lat="44.06545" lon="0.39303">
        <ele>116</ele>
        <time>2022-09-22T07:10:03Z</time>
      </trkpt>
      <trkpt lat="44.06549" lon="0.393">
        <ele>116.8</ele>
        <time>2022-09-22T07:10:11Z</time>
      </trkpt>
      <trkpt lat="44.06554" lon="0.39298">
        <ele>117.6</ele>
        <time>2022-09-22T07:10:16Z</time>
      </trkpt>
      <trkpt lat="44.06558" lon="0.39297">
        <ele>117.8</ele>
        <time>2022-09-22T07:10:20Z</time>
      </trkpt>
      <trkpt lat="44.06563" lon="0.39296">
        <ele>118.1</ele>
        <time>2022-09-22T07:10:24Z</time>
      </trkpt>
      <trkpt lat="44.06568" lon="0.39294">
        <ele>118.4</ele>
        <time>2022-09-22T07:10:28Z</time>
      </trkpt>
      <trkpt lat="44.06573" lon="0.39293">
        <ele>118.7</ele>
        <time>2022-09-22T07:10:33Z</time>
      </trkpt>
      <trkpt lat="44.06579" lon="0.39294">
        <ele>119</ele>
        <time>2022-09-22T07:10:38Z</time>
      </trkpt>
      <trkpt lat="44.06584" lon="0.39293">
        <ele>119</ele>
        <time>2022-09-22T07:10:43Z</time>
      </trkpt>
      <trkpt lat="44.06589" lon="0.39291">
        <ele>119.2</ele>
        <time>2022-09-22T07:10:47Z</time>
      </trkpt>
      <trkpt lat="44.06594" lon="0.3929">
        <ele>119.3</ele>
        <time>2022-09-22T07:10:51Z</time>
      </trkpt>
      <trkpt lat="44.066" lon="0.39288">
        <ele>119.4</ele>
        <time>2022-09-22T07:10:55Z</time>
      </trkpt>
      <trkpt lat="44.06605" lon="0.39287">
        <ele>119.7</ele>
        <time>2022-09-22T07:10:59Z</time>
      </trkpt>
      <trkpt lat="44.0661" lon="0.39285">
        <ele>120</ele>
        <time>2022-09-22T07:11:03Z</time>
      </trkpt>
      <trkpt lat="44.06615" lon="0.39284">
        <ele>120.1</ele>
        <time>2022-09-22T07:11:08Z</time>
      </trkpt>
      <trkpt lat="44.06619" lon="0.39283">
        <ele>120.3</ele>
        <time>2022-09-22T07:11:12Z</time>
      </trkpt>
      <trkpt lat="44.06624" lon="0.39282">
        <ele>120.3</ele>
        <time>2022-09-22T07:11:16Z</time>
      </trkpt>
      <trkpt lat="44.06629" lon="0.39281">
        <ele>120.4</ele>
        <time>2022-09-22T07:11:20Z</time>
      </trkpt>
      <trkpt lat="44.06634" lon="0.3928">
        <ele>120.6</ele>
        <time>2022-09-22T07:11:24Z</time>
      </trkpt>
      <trkpt lat="44.06639" lon="0.3928">
        <ele>120.9</ele>
        <time>2022-09-22T07:11:28Z</time>
      </trkpt>
      <trkpt lat="44.06644" lon="0.39278">
        <ele>121.5</ele>
        <time>2022-09-22T07:11:32Z</time>
      </trkpt>
      <trkpt lat="44.0665" lon="0.39276">
        <ele>122.4</ele>
        <time>2022-09-22T07:11:37Z</time>
      </trkpt>
      <trkpt lat="44.06654" lon="0.39274">
        <ele>122.9</ele>
        <time>2022-09-22T07:11:41Z</time>
      </trkpt>
      <trkpt lat="44.06659" lon="0.39273">
        <ele>123.3</ele>
        <time>2022-09-22T07:11:46Z</time>
      </trkpt>
      <trkpt lat="44.06664" lon="0.39272">
        <ele>123.6</ele>
        <time>2022-09-22T07:11:50Z</time>
      </trkpt>
      <trkpt lat="44.0667" lon="0.3927">
        <ele>124.8</ele>
        <time>2022-09-22T07:11:55Z</time>
      </trkpt>
      <trkpt lat="44.06674" lon="0.39268">
        <ele>125.9</ele>
        <time>2022-09-22T07:11:59Z</time>
      </trkpt>
      <trkpt lat="44.06679" lon="0.39267">
        <ele>127.3</ele>
        <time>2022-09-22T07:12:04Z</time>
      </trkpt>
      <trkpt lat="44.06684" lon="0.39267">
        <ele>128.2</ele>
        <time>2022-09-22T07:12:08Z</time>
      </trkpt>
      <trkpt lat="44.06689" lon="0.39267">
        <ele>128.6</ele>
        <time>2022-09-22T07:12:12Z</time>
      </trkpt>
      <trkpt lat="44.06694" lon="0.39266">
        <ele>128.7</ele>
        <time>2022-09-22T07:12:16Z</time>
      </trkpt>
      <trkpt lat="44.06699" lon="0.39266">
        <ele>128.5</ele>
        <time>2022-09-22T07:12:20Z</time>
      </trkpt>
      <trkpt lat="44.06704" lon="0.39265">
        <ele>128.3</ele>
        <time>2022-09-22T07:12:25Z</time>
      </trkpt>
      <trkpt lat="44.06708" lon="0.39264">
        <ele>128.3</ele>
        <time>2022-09-22T07:12:29Z</time>
      </trkpt>
      <trkpt lat="44.06714" lon="0.39263">
        <ele>128.4</ele>
        <time>2022-09-22T07:12:33Z</time>
      </trkpt>
      <trkpt lat="44.06718" lon="0.39263">
        <ele>128.7</ele>
        <time>2022-09-22T07:12:37Z</time>
      </trkpt>
      <trkpt lat="44.06723" lon="0.39263">
        <ele>129.2</ele>
        <time>2022-09-22T07:12:41Z</time>
      </trkpt>
      <trkpt lat="44.06727" lon="0.39263">
        <ele>129.7</ele>
        <time>2022-09-22T07:12:45Z</time>
      </trkpt>
      <trkpt lat="44.06733" lon="0.39264">
        <ele>130.2</ele>
        <time>2022-09-22T07:12:49Z</time>
      </trkpt>
      <trkpt lat="44.06737" lon="0.39265">
        <ele>130.5</ele>
        <time>2022-09-22T07:12:53Z</time>
      </trkpt>
      <trkpt lat="44.06742" lon="0.39266">
        <ele>130.7</ele>
        <time>2022-09-22T07:12:58Z</time>
      </trkpt>
      <trkpt lat="44.06747" lon="0.39266">
        <ele>130.9</ele>
        <time>2022-09-22T07:13:03Z</time>
      </trkpt>
      <trkpt lat="44.06752" lon="0.39267">
        <ele>131.2</ele>
        <time>2022-09-22T07:13:07Z</time>
      </trkpt>
      <trkpt lat="44.06756" lon="0.39268">
        <ele>131.6</ele>
        <time>2022-09-22T07:13:11Z</time>
      </trkpt>
      <trkpt lat="44.06761" lon="0.39269">
        <ele>132.1</ele>
        <time>2022-09-22T07:13:16Z</time>
      </trkpt>
      <trkpt lat="44.06766" lon="0.39271">
        <ele>132.4</ele>
        <time>2022-09-22T07:13:20Z</time>
      </trkpt>
      <trkpt lat="44.06772" lon="0.39272">
        <ele>133</ele>
        <time>2022-09-22T07:13:25Z</time>
      </trkpt>
      <trkpt lat="44.06777" lon="0.39272">
        <ele>133.7</ele>
        <time>2022-09-22T07:13:30Z</time>
      </trkpt>
      <trkpt lat="44.06782" lon="0.39272">
        <ele>134.5</ele>
        <time>2022-09-22T07:13:34Z</time>
      </trkpt>
      <trkpt lat="44.06787" lon="0.39273">
        <ele>135.1</ele>
        <time>2022-09-22T07:13:39Z</time>
      </trkpt>
      <trkpt lat="44.06792" lon="0.39275">
        <ele>135.5</ele>
        <time>2022-09-22T07:13:44Z</time>
      </trkpt>
      <trkpt lat="44.06797" lon="0.39276">
        <ele>135.7</ele>
        <time>2022-09-22T07:13:48Z</time>
      </trkpt>
      <trkpt lat="44.06802" lon="0.39276">
        <ele>136</ele>
        <time>2022-09-22T07:13:52Z</time>
      </trkpt>
      <trkpt lat="44.06806" lon="0.39277">
        <ele>136.2</ele>
        <time>2022-09-22T07:13:55Z</time>
      </trkpt>
      <trkpt lat="44.06811" lon="0.39279">
        <ele>136.2</ele>
        <time>2022-09-22T07:13:59Z</time>
      </trkpt>
      <trkpt lat="44.06817" lon="0.39281">
        <ele>136</ele>
        <time>2022-09-22T07:14:04Z</time>
      </trkpt>
      <trkpt lat="44.06821" lon="0.39283">
        <ele>135.5</ele>
        <time>2022-09-22T07:14:08Z</time>
      </trkpt>
      <trkpt lat="44.06825" lon="0.39286">
        <ele>134.8</ele>
        <time>2022-09-22T07:14:12Z</time>
      </trkpt>
      <trkpt lat="44.06829" lon="0.39289">
        <ele>134.1</ele>
        <time>2022-09-22T07:14:16Z</time>
      </trkpt>
      <trkpt lat="44.06834" lon="0.39293">
        <ele>133.2</ele>
        <time>2022-09-22T07:14:20Z</time>
      </trkpt>
      <trkpt lat="44.06839" lon="0.39296">
        <ele>132.1</ele>
        <time>2022-09-22T07:14:25Z</time>
      </trkpt>
      <trkpt lat="44.06844" lon="0.39298">
        <ele>131.5</ele>
        <time>2022-09-22T07:14:30Z</time>
      </trkpt>
      <trkpt lat="44.06849" lon="0.39299">
        <ele>130.9</ele>
        <time>2022-09-22T07:14:35Z</time>
      </trkpt>
      <trkpt lat="44.06854" lon="0.39298">
        <ele>130.3</ele>
        <time>2022-09-22T07:14:41Z</time>
      </trkpt>
      <trkpt lat="44.06859" lon="0.39297">
        <ele>129.7</ele>
        <time>2022-09-22T07:14:45Z</time>
      </trkpt>
      <trkpt lat="44.06863" lon="0.39295">
        <ele>129.2</ele>
        <time>2022-09-22T07:14:48Z</time>
      </trkpt>
      <trkpt lat="44.06868" lon="0.39291">
        <ele>128.5</ele>
        <time>2022-09-22T07:14:52Z</time>
      </trkpt>
      <trkpt lat="44.06873" lon="0.39287">
        <ele>127.7</ele>
        <time>2022-09-22T07:14:56Z</time>
      </trkpt>
      <trkpt lat="44.06877" lon="0.39281">
        <ele>127</ele>
        <time>2022-09-22T07:15:00Z</time>
      </trkpt>
      <trkpt lat="44.06881" lon="0.39275">
        <ele>126.5</ele>
        <time>2022-09-22T07:15:04Z</time>
      </trkpt>
      <trkpt lat="44.06884" lon="0.39271">
        <ele>126.3</ele>
        <time>2022-09-22T07:15:08Z</time>
      </trkpt>
      <trkpt lat="44.06889" lon="0.39266">
        <ele>126</ele>
        <time>2022-09-22T07:15:13Z</time>
      </trkpt>
      <trkpt lat="44.06894" lon="0.39263">
        <ele>125.7</ele>
        <time>2022-09-22T07:15:18Z</time>
      </trkpt>
      <trkpt lat="44.06898" lon="0.39262">
        <ele>125.7</ele>
        <time>2022-09-22T07:15:23Z</time>
      </trkpt>
      <trkpt lat="44.06903" lon="0.39263">
        <ele>125.6</ele>
        <time>2022-09-22T07:15:28Z</time>
      </trkpt>
      <trkpt lat="44.06908" lon="0.39266">
        <ele>125.3</ele>
        <time>2022-09-22T07:15:33Z</time>
      </trkpt>
      <trkpt lat="44.06913" lon="0.39269">
        <ele>124.7</ele>
        <time>2022-09-22T07:15:39Z</time>
      </trkpt>
      <trkpt lat="44.06918" lon="0.39272">
        <ele>123.9</ele>
        <time>2022-09-22T07:15:44Z</time>
      </trkpt>
      <trkpt lat="44.06923" lon="0.39274">
        <ele>123</ele>
        <time>2022-09-22T07:15:49Z</time>
      </trkpt>
      <trkpt lat="44.06928" lon="0.39277">
        <ele>122.1</ele>
        <time>2022-09-22T07:15:53Z</time>
      </trkpt>
      <trkpt lat="44.06932" lon="0.3928">
        <ele>121.1</ele>
        <time>2022-09-22T07:15:58Z</time>
      </trkpt>
      <trkpt lat="44.06937" lon="0.39283">
        <ele>120.3</ele>
        <time>2022-09-22T07:16:03Z</time>
      </trkpt>
      <trkpt lat="44.06942" lon="0.39287">
        <ele>119.5</ele>
        <time>2022-09-22T07:16:08Z</time>
      </trkpt>
      <trkpt lat="44.06947" lon="0.3929">
        <ele>118.9</ele>
        <time>2022-09-22T07:16:13Z</time>
      </trkpt>
      <trkpt lat="44.06952" lon="0.39292">
        <ele>118.1</ele>
        <time>2022-09-22T07:16:18Z</time>
      </trkpt>
      <trkpt lat="44.06957" lon="0.39294">
        <ele>117.6</ele>
        <time>2022-09-22T07:16:21Z</time>
      </trkpt>
      <trkpt lat="44.06963" lon="0.39296">
        <ele>117.1</ele>
        <time>2022-09-22T07:16:25Z</time>
      </trkpt>
      <trkpt lat="44.06967" lon="0.39298">
        <ele>116.8</ele>
        <time>2022-09-22T07:16:29Z</time>
      </trkpt>
      <trkpt lat="44.06972" lon="0.393">
        <ele>116.5</ele>
        <time>2022-09-22T07:16:33Z</time>
      </trkpt>
      <trkpt lat="44.06977" lon="0.39303">
        <ele>116</ele>
        <time>2022-09-22T07:16:38Z</time>
      </trkpt>
      <trkpt lat="44.06982" lon="0.39305">
        <ele>115.7</ele>
        <time>2022-09-22T07:16:42Z</time>
      </trkpt>
      <trkpt lat="44.06986" lon="0.39307">
        <ele>115.7</ele>
        <time>2022-09-22T07:16:46Z</time>
      </trkpt>
      <trkpt lat="44.06991" lon="0.3931">
        <ele>115.9</ele>
        <time>2022-09-22T07:16:50Z</time>
      </trkpt>
      <trkpt lat="44.06995" lon="0.39312">
        <ele>116.8</ele>
        <time>2022-09-22T07:16:53Z</time>
      </trkpt>
      <trkpt lat="44.07" lon="0.39314">
        <ele>117.7</ele>
        <time>2022-09-22T07:16:58Z</time>
      </trkpt>
      <trkpt lat="44.07005" lon="0.39316">
        <ele>118.2</ele>
        <time>2022-09-22T07:17:03Z</time>
      </trkpt>
      <trkpt lat="44.07011" lon="0.39317">
        <ele>118.7</ele>
        <time>2022-09-22T07:17:07Z</time>
      </trkpt>
      <trkpt lat="44.07016" lon="0.39319">
        <ele>119.1</ele>
        <time>2022-09-22T07:17:11Z</time>
      </trkpt>
      <trkpt lat="44.07021" lon="0.39322">
        <ele>118.8</ele>
        <time>2022-09-22T07:17:14Z</time>
      </trkpt>
      <trkpt lat="44.07025" lon="0.39325">
        <ele>118.2</ele>
        <time>2022-09-22T07:17:17Z</time>
      </trkpt>
      <trkpt lat="44.07029" lon="0.39329">
        <ele>117.5</ele>
        <time>2022-09-22T07:17:20Z</time>
      </trkpt>
      <trkpt lat="44.07034" lon="0.39332">
        <ele>116.4</ele>
        <time>2022-09-22T07:17:24Z</time>
      </trkpt>
      <trkpt lat="44.07038" lon="0.39336">
        <ele>115.6</ele>
        <time>2022-09-22T07:18:04Z</time>
      </trkpt>
      <trkpt lat="44.07041" lon="0.3934">
        <ele>115.6</ele>
        <time>2022-09-22T07:18:08Z</time>
      </trkpt>
      <trkpt lat="44.07045" lon="0.39346">
        <ele>115.8</ele>
        <time>2022-09-22T07:18:12Z</time>
      </trkpt>
      <trkpt lat="44.07048" lon="0.39353">
        <ele>115.3</ele>
        <time>2022-09-22T07:18:16Z</time>
      </trkpt>
      <trkpt lat="44.07049" lon="0.3936">
        <ele>114.4</ele>
        <time>2022-09-22T07:18:20Z</time>
      </trkpt>
      <trkpt lat="44.0705" lon="0.39367">
        <ele>113.5</ele>
        <time>2022-09-22T07:18:24Z</time>
      </trkpt>
      <trkpt lat="44.0705" lon="0.39374">
        <ele>111.9</ele>
        <time>2022-09-22T07:18:30Z</time>
      </trkpt>
      <trkpt lat="44.07049" lon="0.39381">
        <ele>110.8</ele>
        <time>2022-09-22T07:18:35Z</time>
      </trkpt>
      <trkpt lat="44.07047" lon="0.39387">
        <ele>110.2</ele>
        <time>2022-09-22T07:18:39Z</time>
      </trkpt>
      <trkpt lat="44.07046" lon="0.39394">
        <ele>109.2</ele>
        <time>2022-09-22T07:18:44Z</time>
      </trkpt>
      <trkpt lat="44.07045" lon="0.39401">
        <ele>108.1</ele>
        <time>2022-09-22T07:18:50Z</time>
      </trkpt>
      <trkpt lat="44.07044" lon="0.39407">
        <ele>107.5</ele>
        <time>2022-09-22T07:18:54Z</time>
      </trkpt>
      <trkpt lat="44.07043" lon="0.39413">
        <ele>107.4</ele>
        <time>2022-09-22T07:18:59Z</time>
      </trkpt>
      <trkpt lat="44.07041" lon="0.3942">
        <ele>107.8</ele>
        <time>2022-09-22T07:19:05Z</time>
      </trkpt>
      <trkpt lat="44.07039" lon="0.39427">
        <ele>108.3</ele>
        <time>2022-09-22T07:19:09Z</time>
      </trkpt>
      <trkpt lat="44.07039" lon="0.39434">
        <ele>108.9</ele>
        <time>2022-09-22T07:19:13Z</time>
      </trkpt>
      <trkpt lat="44.07039" lon="0.39441">
        <ele>109.7</ele>
        <time>2022-09-22T07:19:17Z</time>
      </trkpt>
      <trkpt lat="44.07039" lon="0.39448">
        <ele>110.6</ele>
        <time>2022-09-22T07:19:21Z</time>
      </trkpt>
      <trkpt lat="44.07039" lon="0.39455">
        <ele>111.4</ele>
        <time>2022-09-22T07:19:25Z</time>
      </trkpt>
      <trkpt lat="44.07037" lon="0.39462">
        <ele>112.2</ele>
        <time>2022-09-22T07:19:30Z</time>
      </trkpt>
      <trkpt lat="44.07037" lon="0.39469">
        <ele>112.2</ele>
        <time>2022-09-22T07:19:36Z</time>
      </trkpt>
      <trkpt lat="44.07035" lon="0.39475">
        <ele>112</ele>
        <time>2022-09-22T07:19:43Z</time>
      </trkpt>
      <trkpt lat="44.07039" lon="0.39479">
        <ele>114.9</ele>
        <time>2022-09-22T07:24:54Z</time>
      </trkpt>
      <trkpt lat="44.07044" lon="0.39481">
        <ele>114.2</ele>
        <time>2022-09-22T07:24:59Z</time>
      </trkpt>
      <trkpt lat="44.07049" lon="0.39483">
        <ele>113.2</ele>
        <time>2022-09-22T07:25:04Z</time>
      </trkpt>
      <trkpt lat="44.07054" lon="0.39485">
        <ele>112.1</ele>
        <time>2022-09-22T07:25:10Z</time>
      </trkpt>
      <trkpt lat="44.07059" lon="0.39486">
        <ele>111.6</ele>
        <time>2022-09-22T07:25:16Z</time>
      </trkpt>
      <trkpt lat="44.07064" lon="0.39489">
        <ele>110.4</ele>
        <time>2022-09-22T07:25:22Z</time>
      </trkpt>
      <trkpt lat="44.0707" lon="0.3949">
        <ele>109.4</ele>
        <time>2022-09-22T07:25:27Z</time>
      </trkpt>
      <trkpt lat="44.07075" lon="0.39492">
        <ele>108.6</ele>
        <time>2022-09-22T07:25:32Z</time>
      </trkpt>
      <trkpt lat="44.0708" lon="0.39495">
        <ele>108.2</ele>
        <time>2022-09-22T07:25:36Z</time>
      </trkpt>
      <trkpt lat="44.07085" lon="0.39497">
        <ele>107.7</ele>
        <time>2022-09-22T07:25:41Z</time>
      </trkpt>
      <trkpt lat="44.0709" lon="0.39498">
        <ele>107.3</ele>
        <time>2022-09-22T07:25:45Z</time>
      </trkpt>
      <trkpt lat="44.07095" lon="0.395">
        <ele>106.9</ele>
        <time>2022-09-22T07:25:49Z</time>
      </trkpt>
      <trkpt lat="44.071" lon="0.39501">
        <ele>106.2</ele>
        <time>2022-09-22T07:25:53Z</time>
      </trkpt>
      <trkpt lat="44.07105" lon="0.39503">
        <ele>105.3</ele>
        <time>2022-09-22T07:25:58Z</time>
      </trkpt>
      <trkpt lat="44.07109" lon="0.39505">
        <ele>104.9</ele>
        <time>2022-09-22T07:26:02Z</time>
      </trkpt>
      <trkpt lat="44.07114" lon="0.39507">
        <ele>104.6</ele>
        <time>2022-09-22T07:26:06Z</time>
      </trkpt>
      <trkpt lat="44.07119" lon="0.39508">
        <ele>104.3</ele>
        <time>2022-09-22T07:26:11Z</time>
      </trkpt>
      <trkpt lat="44.07124" lon="0.39509">
        <ele>104.1</ele>
        <time>2022-09-22T07:26:16Z</time>
      </trkpt>
      <trkpt lat="44.0713" lon="0.3951">
        <ele>104.1</ele>
        <time>2022-09-22T07:26:21Z</time>
      </trkpt>
      <trkpt lat="44.07135" lon="0.39512">
        <ele>104.2</ele>
        <time>2022-09-22T07:26:25Z</time>
      </trkpt>
      <trkpt lat="44.0714" lon="0.39512">
        <ele>104.4</ele>
        <time>2022-09-22T07:26:29Z</time>
      </trkpt>
      <trkpt lat="44.07146" lon="0.39512">
        <ele>104.3</ele>
        <time>2022-09-22T07:26:33Z</time>
      </trkpt>
      <trkpt lat="44.07151" lon="0.39512">
        <ele>104</ele>
        <time>2022-09-22T07:26:37Z</time>
      </trkpt>
      <trkpt lat="44.07156" lon="0.39512">
        <ele>103.3</ele>
        <time>2022-09-22T07:26:41Z</time>
      </trkpt>
      <trkpt lat="44.0716" lon="0.39513">
        <ele>102.7</ele>
        <time>2022-09-22T07:26:46Z</time>
      </trkpt>
      <trkpt lat="44.07166" lon="0.39513">
        <ele>102.4</ele>
        <time>2022-09-22T07:26:50Z</time>
      </trkpt>
      <trkpt lat="44.0717" lon="0.39513">
        <ele>102.2</ele>
        <time>2022-09-22T07:26:53Z</time>
      </trkpt>
      <trkpt lat="44.07176" lon="0.39512">
        <ele>102.1</ele>
        <time>2022-09-22T07:26:58Z</time>
      </trkpt>
      <trkpt lat="44.0718" lon="0.39512">
        <ele>101.8</ele>
        <time>2022-09-22T07:27:03Z</time>
      </trkpt>
      <trkpt lat="44.07185" lon="0.39511">
        <ele>101.2</ele>
        <time>2022-09-22T07:27:08Z</time>
      </trkpt>
      <trkpt lat="44.0719" lon="0.39511">
        <ele>100.2</ele>
        <time>2022-09-22T07:27:13Z</time>
      </trkpt>
      <trkpt lat="44.07195" lon="0.3951">
        <ele>99.4</ele>
        <time>2022-09-22T07:27:17Z</time>
      </trkpt>
      <trkpt lat="44.072" lon="0.39509">
        <ele>98.7</ele>
        <time>2022-09-22T07:27:21Z</time>
      </trkpt>
      <trkpt lat="44.07205" lon="0.3951">
        <ele>98.2</ele>
        <time>2022-09-22T07:27:25Z</time>
      </trkpt>
      <trkpt lat="44.0721" lon="0.3951">
        <ele>97.4</ele>
        <time>2022-09-22T07:27:29Z</time>
      </trkpt>
      <trkpt lat="44.07214" lon="0.3951">
        <ele>96.5</ele>
        <time>2022-09-22T07:27:33Z</time>
      </trkpt>
      <trkpt lat="44.0722" lon="0.39509">
        <ele>96.1</ele>
        <time>2022-09-22T07:27:38Z</time>
      </trkpt>
      <trkpt lat="44.07225" lon="0.39508">
        <ele>95.8</ele>
        <time>2022-09-22T07:27:43Z</time>
      </trkpt>
      <trkpt lat="44.0723" lon="0.39507">
        <ele>95.1</ele>
        <time>2022-09-22T07:27:48Z</time>
      </trkpt>
      <trkpt lat="44.07236" lon="0.39507">
        <ele>94.7</ele>
        <time>2022-09-22T07:27:53Z</time>
      </trkpt>
      <trkpt lat="44.07241" lon="0.39506">
        <ele>94.3</ele>
        <time>2022-09-22T07:27:58Z</time>
      </trkpt>
      <trkpt lat="44.07246" lon="0.39505">
        <ele>93.7</ele>
        <time>2022-09-22T07:28:03Z</time>
      </trkpt>
      <trkpt lat="44.07252" lon="0.39504">
        <ele>93.2</ele>
        <time>2022-09-22T07:28:08Z</time>
      </trkpt>
      <trkpt lat="44.07257" lon="0.39503">
        <ele>92.7</ele>
        <time>2022-09-22T07:28:12Z</time>
      </trkpt>
      <trkpt lat="44.07262" lon="0.39502">
        <ele>92.5</ele>
        <time>2022-09-22T07:28:15Z</time>
      </trkpt>
      <trkpt lat="44.07267" lon="0.39502">
        <ele>92.5</ele>
        <time>2022-09-22T07:28:18Z</time>
      </trkpt>
      <trkpt lat="44.07272" lon="0.39501">
        <ele>92.7</ele>
        <time>2022-09-22T07:28:22Z</time>
      </trkpt>
      <trkpt lat="44.07277" lon="0.39502">
        <ele>93.1</ele>
        <time>2022-09-22T07:28:26Z</time>
      </trkpt>
      <trkpt lat="44.07282" lon="0.39502">
        <ele>93.5</ele>
        <time>2022-09-22T07:28:31Z</time>
      </trkpt>
      <trkpt lat="44.07287" lon="0.39501">
        <ele>93.7</ele>
        <time>2022-09-22T07:28:34Z</time>
      </trkpt>
      <trkpt lat="44.07292" lon="0.395">
        <ele>94.3</ele>
        <time>2022-09-22T07:28:38Z</time>
      </trkpt>
      <trkpt lat="44.07298" lon="0.39499">
        <ele>94.6</ele>
        <time>2022-09-22T07:28:44Z</time>
      </trkpt>
      <trkpt lat="44.07303" lon="0.39499">
        <ele>94.2</ele>
        <time>2022-09-22T07:28:50Z</time>
      </trkpt>
      <trkpt lat="44.07308" lon="0.39499">
        <ele>93.4</ele>
        <time>2022-09-22T07:28:56Z</time>
      </trkpt>
      <trkpt lat="44.07312" lon="0.39498">
        <ele>92.6</ele>
        <time>2022-09-22T07:29:03Z</time>
      </trkpt>
      <trkpt lat="44.07317" lon="0.39497">
        <ele>92.3</ele>
        <time>2022-09-22T07:29:09Z</time>
      </trkpt>
      <trkpt lat="44.07322" lon="0.39496">
        <ele>92</ele>
        <time>2022-09-22T07:29:14Z</time>
      </trkpt>
      <trkpt lat="44.07327" lon="0.39495">
        <ele>91.5</ele>
        <time>2022-09-22T07:29:19Z</time>
      </trkpt>
      <trkpt lat="44.07332" lon="0.39493">
        <ele>90.8</ele>
        <time>2022-09-22T07:29:24Z</time>
      </trkpt>
      <trkpt lat="44.07337" lon="0.39492">
        <ele>90.3</ele>
        <time>2022-09-22T07:29:28Z</time>
      </trkpt>
      <trkpt lat="44.07342" lon="0.39489">
        <ele>90.1</ele>
        <time>2022-09-22T07:29:32Z</time>
      </trkpt>
      <trkpt lat="44.07347" lon="0.39486">
        <ele>89.7</ele>
        <time>2022-09-22T07:29:37Z</time>
      </trkpt>
      <trkpt lat="44.07352" lon="0.39483">
        <ele>89.4</ele>
        <time>2022-09-22T07:29:42Z</time>
      </trkpt>
      <trkpt lat="44.07357" lon="0.39481">
        <ele>89.4</ele>
        <time>2022-09-22T07:29:46Z</time>
      </trkpt>
      <trkpt lat="44.07362" lon="0.39478">
        <ele>89.4</ele>
        <time>2022-09-22T07:29:51Z</time>
      </trkpt>
      <trkpt lat="44.07367" lon="0.39476">
        <ele>89.2</ele>
        <time>2022-09-22T07:29:55Z</time>
      </trkpt>
      <trkpt lat="44.07372" lon="0.39475">
        <ele>89.1</ele>
        <time>2022-09-22T07:30:00Z</time>
      </trkpt>
      <trkpt lat="44.07378" lon="0.39473">
        <ele>89.5</ele>
        <time>2022-09-22T07:30:04Z</time>
      </trkpt>
      <trkpt lat="44.07383" lon="0.3947">
        <ele>89.9</ele>
        <time>2022-09-22T07:30:08Z</time>
      </trkpt>
      <trkpt lat="44.07387" lon="0.39467">
        <ele>90.4</ele>
        <time>2022-09-22T07:30:11Z</time>
      </trkpt>
      <trkpt lat="44.07391" lon="0.39465">
        <ele>90.7</ele>
        <time>2022-09-22T07:30:14Z</time>
      </trkpt>
      <trkpt lat="44.07396" lon="0.39464">
        <ele>91.1</ele>
        <time>2022-09-22T07:30:18Z</time>
      </trkpt>
      <trkpt lat="44.07401" lon="0.39462">
        <ele>91.3</ele>
        <time>2022-09-22T07:30:23Z</time>
      </trkpt>
      <trkpt lat="44.07406" lon="0.39462">
        <ele>90.9</ele>
        <time>2022-09-22T07:30:28Z</time>
      </trkpt>
      <trkpt lat="44.0741" lon="0.3946">
        <ele>89.8</ele>
        <time>2022-09-22T07:30:32Z</time>
      </trkpt>
      <trkpt lat="44.07414" lon="0.39458">
        <ele>88.9</ele>
        <time>2022-09-22T07:30:36Z</time>
      </trkpt>
      <trkpt lat="44.0742" lon="0.39457">
        <ele>87.8</ele>
        <time>2022-09-22T07:30:41Z</time>
      </trkpt>
      <trkpt lat="44.07424" lon="0.39462">
        <ele>87.5</ele>
        <time>2022-09-22T07:30:45Z</time>
      </trkpt>
      <trkpt lat="44.07426" lon="0.39469">
        <ele>87.1</ele>
        <time>2022-09-22T07:30:50Z</time>
      </trkpt>
      <trkpt lat="44.07424" lon="0.39476">
        <ele>86.5</ele>
        <time>2022-09-22T07:30:55Z</time>
      </trkpt>
      <trkpt lat="44.07424" lon="0.39483">
        <ele>86.1</ele>
        <time>2022-09-22T07:30:58Z</time>
      </trkpt>
      <trkpt lat="44.07424" lon="0.39491">
        <ele>84.7</ele>
        <time>2022-09-22T07:31:02Z</time>
      </trkpt>
      <trkpt lat="44.07425" lon="0.39497">
        <ele>82.8</ele>
        <time>2022-09-22T07:31:07Z</time>
      </trkpt>
      <trkpt lat="44.07426" lon="0.39504">
        <ele>82</ele>
        <time>2022-09-22T07:31:12Z</time>
      </trkpt>
      <trkpt lat="44.07426" lon="0.39511">
        <ele>81.2</ele>
        <time>2022-09-22T07:31:16Z</time>
      </trkpt>
      <trkpt lat="44.07426" lon="0.39518">
        <ele>80.2</ele>
        <time>2022-09-22T07:31:20Z</time>
      </trkpt>
      <trkpt lat="44.07427" lon="0.39526">
        <ele>79.1</ele>
        <time>2022-09-22T07:31:24Z</time>
      </trkpt>
      <trkpt lat="44.07427" lon="0.39533">
        <ele>78</ele>
        <time>2022-09-22T07:31:28Z</time>
      </trkpt>
      <trkpt lat="44.07429" lon="0.39539">
        <ele>77.2</ele>
        <time>2022-09-22T07:31:33Z</time>
      </trkpt>
      <trkpt lat="44.07433" lon="0.39544">
        <ele>76.4</ele>
        <time>2022-09-22T07:31:42Z</time>
      </trkpt>
      <trkpt lat="44.07437" lon="0.39547">
        <ele>75.9</ele>
        <time>2022-09-22T07:31:47Z</time>
      </trkpt>
      <trkpt lat="44.07442" lon="0.3955">
        <ele>75.5</ele>
        <time>2022-09-22T07:31:51Z</time>
      </trkpt>
      <trkpt lat="44.07447" lon="0.39551">
        <ele>74.8</ele>
        <time>2022-09-22T07:31:56Z</time>
      </trkpt>
      <trkpt lat="44.07452" lon="0.39552">
        <ele>74.1</ele>
        <time>2022-09-22T07:32:01Z</time>
      </trkpt>
      <trkpt lat="44.07458" lon="0.39554">
        <ele>73.8</ele>
        <time>2022-09-22T07:32:05Z</time>
      </trkpt>
      <trkpt lat="44.07464" lon="0.39556">
        <ele>73.8</ele>
        <time>2022-09-22T07:32:09Z</time>
      </trkpt>
      <trkpt lat="44.07468" lon="0.39558">
        <ele>74.1</ele>
        <time>2022-09-22T07:32:12Z</time>
      </trkpt>
      <trkpt lat="44.07473" lon="0.39561">
        <ele>74</ele>
        <time>2022-09-22T07:32:16Z</time>
      </trkpt>
      <trkpt lat="44.07479" lon="0.39562">
        <ele>74</ele>
        <time>2022-09-22T07:32:21Z</time>
      </trkpt>
      <trkpt lat="44.07483" lon="0.39563">
        <ele>74.8</ele>
        <time>2022-09-22T07:32:27Z</time>
      </trkpt>
      <trkpt lat="44.07488" lon="0.39563">
        <ele>75.5</ele>
        <time>2022-09-22T07:32:30Z</time>
      </trkpt>
      <trkpt lat="44.07493" lon="0.39562">
        <ele>76.2</ele>
        <time>2022-09-22T07:32:33Z</time>
      </trkpt>
      <trkpt lat="44.07498" lon="0.39563">
        <ele>77.4</ele>
        <time>2022-09-22T07:32:37Z</time>
      </trkpt>
      <trkpt lat="44.07503" lon="0.39563">
        <ele>78.7</ele>
        <time>2022-09-22T07:32:42Z</time>
      </trkpt>
      <trkpt lat="44.07508" lon="0.39565">
        <ele>79.2</ele>
        <time>2022-09-22T07:32:46Z</time>
      </trkpt>
      <trkpt lat="44.07514" lon="0.39565">
        <ele>79.3</ele>
        <time>2022-09-22T07:32:50Z</time>
      </trkpt>
      <trkpt lat="44.07518" lon="0.39565">
        <ele>79.4</ele>
        <time>2022-09-22T07:32:54Z</time>
      </trkpt>
      <trkpt lat="44.07523" lon="0.39569">
        <ele>80.1</ele>
        <time>2022-09-22T07:33:01Z</time>
      </trkpt>
      <trkpt lat="44.07527" lon="0.39574">
        <ele>80.9</ele>
        <time>2022-09-22T07:33:06Z</time>
      </trkpt>
      <trkpt lat="44.0753" lon="0.39581">
        <ele>81.5</ele>
        <time>2022-09-22T07:33:11Z</time>
      </trkpt>
      <trkpt lat="44.07532" lon="0.39588">
        <ele>81.6</ele>
        <time>2022-09-22T07:33:15Z</time>
      </trkpt>
      <trkpt lat="44.07533" lon="0.39594">
        <ele>81.7</ele>
        <time>2022-09-22T07:33:18Z</time>
      </trkpt>
      <trkpt lat="44.07536" lon="0.396">
        <ele>81.5</ele>
        <time>2022-09-22T07:33:22Z</time>
      </trkpt>
      <trkpt lat="44.07538" lon="0.39606">
        <ele>81.8</ele>
        <time>2022-09-22T07:33:27Z</time>
      </trkpt>
      <trkpt lat="44.07541" lon="0.39612">
        <ele>81.6</ele>
        <time>2022-09-22T07:33:32Z</time>
      </trkpt>
      <trkpt lat="44.07545" lon="0.39616">
        <ele>81</ele>
        <time>2022-09-22T07:33:39Z</time>
      </trkpt>
      <trkpt lat="44.07548" lon="0.39622">
        <ele>80.6</ele>
        <time>2022-09-22T07:33:49Z</time>
      </trkpt>
      <trkpt lat="44.07553" lon="0.39624">
        <ele>78.1</ele>
        <time>2022-09-22T07:33:57Z</time>
      </trkpt>
      <trkpt lat="44.07557" lon="0.39628">
        <ele>76.9</ele>
        <time>2022-09-22T07:34:02Z</time>
      </trkpt>
      <trkpt lat="44.07557" lon="0.39634">
        <ele>76.6</ele>
        <time>2022-09-22T07:34:06Z</time>
      </trkpt>
      <trkpt lat="44.07558" lon="0.3964">
        <ele>77.1</ele>
        <time>2022-09-22T07:34:12Z</time>
      </trkpt>
      <trkpt lat="44.07558" lon="0.39647">
        <ele>77.5</ele>
        <time>2022-09-22T07:34:17Z</time>
      </trkpt>
      <trkpt lat="44.07559" lon="0.39655">
        <ele>78.1</ele>
        <time>2022-09-22T07:34:21Z</time>
      </trkpt>
      <trkpt lat="44.07558" lon="0.39662">
        <ele>78.4</ele>
        <time>2022-09-22T07:34:26Z</time>
      </trkpt>
      <trkpt lat="44.07556" lon="0.39668">
        <ele>78.6</ele>
        <time>2022-09-22T07:34:31Z</time>
      </trkpt>
      <trkpt lat="44.07553" lon="0.39674">
        <ele>78.7</ele>
        <time>2022-09-22T07:34:35Z</time>
      </trkpt>
      <trkpt lat="44.0755" lon="0.3968">
        <ele>78.9</ele>
        <time>2022-09-22T07:34:40Z</time>
      </trkpt>
      <trkpt lat="44.07549" lon="0.39687">
        <ele>79.3</ele>
        <time>2022-09-22T07:34:45Z</time>
      </trkpt>
      <trkpt lat="44.07549" lon="0.39693">
        <ele>79.7</ele>
        <time>2022-09-22T07:34:49Z</time>
      </trkpt>
      <trkpt lat="44.07551" lon="0.397">
        <ele>79.2</ele>
        <time>2022-09-22T07:34:55Z</time>
      </trkpt>
      <trkpt lat="44.07556" lon="0.397">
        <ele>78.3</ele>
        <time>2022-09-22T07:35:03Z</time>
      </trkpt>
      <trkpt lat="44.07561" lon="0.39699">
        <ele>78.1</ele>
        <time>2022-09-22T07:35:08Z</time>
      </trkpt>
      <trkpt lat="44.07566" lon="0.397">
        <ele>77.8</ele>
        <time>2022-09-22T07:35:13Z</time>
      </trkpt>
      <trkpt lat="44.07571" lon="0.397">
        <ele>77.8</ele>
        <time>2022-09-22T07:35:18Z</time>
      </trkpt>
      <trkpt lat="44.07576" lon="0.397">
        <ele>78.1</ele>
        <time>2022-09-22T07:35:23Z</time>
      </trkpt>
      <trkpt lat="44.0758" lon="0.397">
        <ele>78.7</ele>
        <time>2022-09-22T07:35:27Z</time>
      </trkpt>
      <trkpt lat="44.07585" lon="0.39701">
        <ele>78.9</ele>
        <time>2022-09-22T07:35:31Z</time>
      </trkpt>
      <trkpt lat="44.0759" lon="0.39703">
        <ele>78.7</ele>
        <time>2022-09-22T07:35:35Z</time>
      </trkpt>
      <trkpt lat="44.07596" lon="0.39704">
        <ele>79</ele>
        <time>2022-09-22T07:35:39Z</time>
      </trkpt>
      <trkpt lat="44.07601" lon="0.39705">
        <ele>79.5</ele>
        <time>2022-09-22T07:35:44Z</time>
      </trkpt>
      <trkpt lat="44.07606" lon="0.39706">
        <ele>79.6</ele>
        <time>2022-09-22T07:35:48Z</time>
      </trkpt>
      <trkpt lat="44.07611" lon="0.39706">
        <ele>79.7</ele>
        <time>2022-09-22T07:35:52Z</time>
      </trkpt>
      <trkpt lat="44.07616" lon="0.39706">
        <ele>80.1</ele>
        <time>2022-09-22T07:35:58Z</time>
      </trkpt>
      <trkpt lat="44.07621" lon="0.39707">
        <ele>80.5</ele>
        <time>2022-09-22T07:36:02Z</time>
      </trkpt>
      <trkpt lat="44.07627" lon="0.39708">
        <ele>80.7</ele>
        <time>2022-09-22T07:36:06Z</time>
      </trkpt>
      <trkpt lat="44.07632" lon="0.39709">
        <ele>80.7</ele>
        <time>2022-09-22T07:36:09Z</time>
      </trkpt>
      <trkpt lat="44.07636" lon="0.3971">
        <ele>80.9</ele>
        <time>2022-09-22T07:36:14Z</time>
      </trkpt>
      <trkpt lat="44.07642" lon="0.39712">
        <ele>81.4</ele>
        <time>2022-09-22T07:36:20Z</time>
      </trkpt>
      <trkpt lat="44.07647" lon="0.39713">
        <ele>82.1</ele>
        <time>2022-09-22T07:36:25Z</time>
      </trkpt>
      <trkpt lat="44.07652" lon="0.39713">
        <ele>83.3</ele>
        <time>2022-09-22T07:36:32Z</time>
      </trkpt>
      <trkpt lat="44.07656" lon="0.39715">
        <ele>84.2</ele>
        <time>2022-09-22T07:36:38Z</time>
      </trkpt>
      <trkpt lat="44.07661" lon="0.39715">
        <ele>85.6</ele>
        <time>2022-09-22T07:36:45Z</time>
      </trkpt>
      <trkpt lat="44.07666" lon="0.39716">
        <ele>86.4</ele>
        <time>2022-09-22T07:36:49Z</time>
      </trkpt>
      <trkpt lat="44.0767" lon="0.39717">
        <ele>87.1</ele>
        <time>2022-09-22T07:36:52Z</time>
      </trkpt>
      <trkpt lat="44.07675" lon="0.39717">
        <ele>87.7</ele>
        <time>2022-09-22T07:36:56Z</time>
      </trkpt>
      <trkpt lat="44.0768" lon="0.39716">
        <ele>89.1</ele>
        <time>2022-09-22T07:37:03Z</time>
      </trkpt>
      <trkpt lat="44.07685" lon="0.39718">
        <ele>90.1</ele>
        <time>2022-09-22T07:37:09Z</time>
      </trkpt>
      <trkpt lat="44.0769" lon="0.39719">
        <ele>90.8</ele>
        <time>2022-09-22T07:37:13Z</time>
      </trkpt>
      <trkpt lat="44.07695" lon="0.39721">
        <ele>91.6</ele>
        <time>2022-09-22T07:37:16Z</time>
      </trkpt>
      <trkpt lat="44.07699" lon="0.39724">
        <ele>92.2</ele>
        <time>2022-09-22T07:37:20Z</time>
      </trkpt>
      <trkpt lat="44.07704" lon="0.39724">
        <ele>92.7</ele>
        <time>2022-09-22T07:37:26Z</time>
      </trkpt>
      <trkpt lat="44.07709" lon="0.39725">
        <ele>92.6</ele>
        <time>2022-09-22T07:37:31Z</time>
      </trkpt>
      <trkpt lat="44.07714" lon="0.39726">
        <ele>93.1</ele>
        <time>2022-09-22T07:37:36Z</time>
      </trkpt>
      <trkpt lat="44.07718" lon="0.39726">
        <ele>93.7</ele>
        <time>2022-09-22T07:37:41Z</time>
      </trkpt>
      <trkpt lat="44.07723" lon="0.39727">
        <ele>94.8</ele>
        <time>2022-09-22T07:37:49Z</time>
      </trkpt>
      <trkpt lat="44.07727" lon="0.39728">
        <ele>96.8</ele>
        <time>2022-09-22T07:37:57Z</time>
      </trkpt>
      <trkpt lat="44.07735" lon="0.39727">
        <ele>100.4</ele>
        <time>2022-09-22T07:39:49Z</time>
      </trkpt>
      <trkpt lat="44.07739" lon="0.39731">
        <ele>101.5</ele>
        <time>2022-09-22T07:39:54Z</time>
      </trkpt>
      <trkpt lat="44.07735" lon="0.39732">
        <ele>102.3</ele>
        <time>2022-09-22T07:40:13Z</time>
      </trkpt>
      <trkpt lat="44.07739" lon="0.39732">
        <ele>102.1</ele>
        <time>2022-09-22T07:41:01Z</time>
      </trkpt>
      <trkpt lat="44.07745" lon="0.39733">
        <ele>98.8</ele>
        <time>2022-09-22T07:41:44Z</time>
      </trkpt>
      <trkpt lat="44.07747" lon="0.39739">
        <ele>98.6</ele>
        <time>2022-09-22T07:42:00Z</time>
      </trkpt>
      <trkpt lat="44.0774" lon="0.39738">
        <ele>102</ele>
        <time>2022-09-22T07:42:27Z</time>
      </trkpt>
      <trkpt lat="44.07736" lon="0.39735">
        <ele>102.3</ele>
        <time>2022-09-22T07:42:30Z</time>
      </trkpt>
      <trkpt lat="44.07732" lon="0.39731">
        <ele>102.4</ele>
        <time>2022-09-22T07:42:35Z</time>
      </trkpt>
      <trkpt lat="44.07736" lon="0.39734">
        <ele>107.8</ele>
        <time>2022-09-22T07:43:25Z</time>
      </trkpt>
      <trkpt lat="44.07739" lon="0.39739">
        <ele>107.6</ele>
        <time>2022-09-22T07:43:38Z</time>
      </trkpt>
      <trkpt lat="44.07735" lon="0.39735">
        <ele>106.7</ele>
        <time>2022-09-22T07:43:54Z</time>
      </trkpt>
      <trkpt lat="44.07736" lon="0.39729">
        <ele>106.7</ele>
        <time>2022-09-22T07:43:59Z</time>
      </trkpt>
      <trkpt lat="44.07733" lon="0.39724">
        <ele>102.2</ele>
        <time>2022-09-22T07:44:49Z</time>
      </trkpt>
      <trkpt lat="44.07728" lon="0.39725">
        <ele>103.5</ele>
        <time>2022-09-22T07:45:10Z</time>
      </trkpt>
      <trkpt lat="44.07732" lon="0.39721">
        <ele>105.2</ele>
        <time>2022-09-22T07:45:27Z</time>
      </trkpt>
      <trkpt lat="44.07733" lon="0.39728">
        <ele>105.3</ele>
        <time>2022-09-22T07:45:48Z</time>
      </trkpt>
      <trkpt lat="44.07735" lon="0.39734">
        <ele>103.6</ele>
        <time>2022-09-22T07:46:58Z</time>
      </trkpt>
      <trkpt lat="44.07737" lon="0.39728">
        <ele>100.5</ele>
        <time>2022-09-22T07:47:19Z</time>
      </trkpt>
      <trkpt lat="44.0774" lon="0.39723">
        <ele>100.6</ele>
        <time>2022-09-22T07:47:24Z</time>
      </trkpt>
      <trkpt lat="44.07742" lon="0.39717">
        <ele>100.7</ele>
        <time>2022-09-22T07:47:29Z</time>
      </trkpt>
      <trkpt lat="44.07742" lon="0.3971">
        <ele>100.9</ele>
        <time>2022-09-22T07:47:34Z</time>
      </trkpt>
      <trkpt lat="44.07742" lon="0.39703">
        <ele>101.4</ele>
        <time>2022-09-22T07:47:40Z</time>
      </trkpt>
      <trkpt lat="44.07741" lon="0.39696">
        <ele>101.9</ele>
        <time>2022-09-22T07:47:46Z</time>
      </trkpt>
      <trkpt lat="44.0774" lon="0.39689">
        <ele>102.5</ele>
        <time>2022-09-22T07:47:50Z</time>
      </trkpt>
      <trkpt lat="44.0774" lon="0.39682">
        <ele>103.2</ele>
        <time>2022-09-22T07:47:54Z</time>
      </trkpt>
      <trkpt lat="44.07739" lon="0.39674">
        <ele>103.5</ele>
        <time>2022-09-22T07:47:58Z</time>
      </trkpt>
      <trkpt lat="44.07738" lon="0.39668">
        <ele>103.6</ele>
        <time>2022-09-22T07:48:02Z</time>
      </trkpt>
      <trkpt lat="44.07736" lon="0.39661">
        <ele>103.4</ele>
        <time>2022-09-22T07:48:07Z</time>
      </trkpt>
      <trkpt lat="44.07735" lon="0.39655">
        <ele>103.2</ele>
        <time>2022-09-22T07:48:12Z</time>
      </trkpt>
      <trkpt lat="44.07734" lon="0.39648">
        <ele>102.8</ele>
        <time>2022-09-22T07:48:18Z</time>
      </trkpt>
      <trkpt lat="44.07734" lon="0.39641">
        <ele>102.5</ele>
        <time>2022-09-22T07:48:23Z</time>
      </trkpt>
      <trkpt lat="44.07733" lon="0.39635">
        <ele>102.5</ele>
        <time>2022-09-22T07:48:27Z</time>
      </trkpt>
      <trkpt lat="44.07732" lon="0.39628">
        <ele>102.4</ele>
        <time>2022-09-22T07:48:30Z</time>
      </trkpt>
      <trkpt lat="44.07732" lon="0.39622">
        <ele>102.5</ele>
        <time>2022-09-22T07:48:34Z</time>
      </trkpt>
      <trkpt lat="44.07732" lon="0.39615">
        <ele>102.5</ele>
        <time>2022-09-22T07:48:39Z</time>
      </trkpt>
      <trkpt lat="44.07732" lon="0.39608">
        <ele>102.3</ele>
        <time>2022-09-22T07:48:43Z</time>
      </trkpt>
      <trkpt lat="44.07733" lon="0.39601">
        <ele>102.6</ele>
        <time>2022-09-22T07:48:47Z</time>
      </trkpt>
      <trkpt lat="44.07733" lon="0.39594">
        <ele>103.9</ele>
        <time>2022-09-22T07:48:52Z</time>
      </trkpt>
      <trkpt lat="44.07733" lon="0.39587">
        <ele>105.1</ele>
        <time>2022-09-22T07:48:56Z</time>
      </trkpt>
      <trkpt lat="44.07733" lon="0.3958">
        <ele>105.9</ele>
        <time>2022-09-22T07:48:59Z</time>
      </trkpt>
      <trkpt lat="44.07734" lon="0.39572">
        <ele>107.5</ele>
        <time>2022-09-22T07:49:03Z</time>
      </trkpt>
      <trkpt lat="44.07734" lon="0.39565">
        <ele>109.1</ele>
        <time>2022-09-22T07:49:08Z</time>
      </trkpt>
      <trkpt lat="44.07735" lon="0.39558">
        <ele>110.7</ele>
        <time>2022-09-22T07:49:15Z</time>
      </trkpt>
      <trkpt lat="44.07733" lon="0.39552">
        <ele>112.1</ele>
        <time>2022-09-22T07:49:22Z</time>
      </trkpt>
      <trkpt lat="44.07731" lon="0.39546">
        <ele>111.8</ele>
        <time>2022-09-22T07:49:25Z</time>
      </trkpt>
      <trkpt lat="44.07732" lon="0.39538">
        <ele>111.9</ele>
        <time>2022-09-22T07:49:28Z</time>
      </trkpt>
      <trkpt lat="44.07734" lon="0.3953">
        <ele>110.9</ele>
        <time>2022-09-22T07:49:34Z</time>
      </trkpt>
      <trkpt lat="44.07738" lon="0.39524">
        <ele>110.1</ele>
        <time>2022-09-22T07:49:38Z</time>
      </trkpt>
      <trkpt lat="44.0774" lon="0.39518">
        <ele>110.4</ele>
        <time>2022-09-22T07:49:42Z</time>
      </trkpt>
      <trkpt lat="44.07744" lon="0.39514">
        <ele>110.2</ele>
        <time>2022-09-22T07:49:46Z</time>
      </trkpt>
      <trkpt lat="44.07747" lon="0.39509">
        <ele>110.4</ele>
        <time>2022-09-22T07:49:49Z</time>
      </trkpt>
      <trkpt lat="44.07752" lon="0.39505">
        <ele>111</ele>
        <time>2022-09-22T07:49:53Z</time>
      </trkpt>
      <trkpt lat="44.07758" lon="0.39504">
        <ele>111.7</ele>
        <time>2022-09-22T07:49:57Z</time>
      </trkpt>
      <trkpt lat="44.07762" lon="0.39505">
        <ele>112.1</ele>
        <time>2022-09-22T07:50:01Z</time>
      </trkpt>
      <trkpt lat="44.07766" lon="0.39508">
        <ele>112.8</ele>
        <time>2022-09-22T07:50:06Z</time>
      </trkpt>
      <trkpt lat="44.07771" lon="0.39512">
        <ele>113.2</ele>
        <time>2022-09-22T07:50:11Z</time>
      </trkpt>
      <trkpt lat="44.07775" lon="0.39514">
        <ele>113.7</ele>
        <time>2022-09-22T07:50:16Z</time>
      </trkpt>
      <trkpt lat="44.0778" lon="0.39515">
        <ele>113.5</ele>
        <time>2022-09-22T07:50:21Z</time>
      </trkpt>
      <trkpt lat="44.07785" lon="0.39515">
        <ele>112.9</ele>
        <time>2022-09-22T07:50:25Z</time>
      </trkpt>
      <trkpt lat="44.07789" lon="0.39517">
        <ele>112.5</ele>
        <time>2022-09-22T07:50:29Z</time>
      </trkpt>
      <trkpt lat="44.07794" lon="0.39519">
        <ele>112</ele>
        <time>2022-09-22T07:50:34Z</time>
      </trkpt>
      <trkpt lat="44.07799" lon="0.3952">
        <ele>111.9</ele>
        <time>2022-09-22T07:50:39Z</time>
      </trkpt>
      <trkpt lat="44.07804" lon="0.3952">
        <ele>111.7</ele>
        <time>2022-09-22T07:50:43Z</time>
      </trkpt>
      <trkpt lat="44.07809" lon="0.39523">
        <ele>111.7</ele>
        <time>2022-09-22T07:50:48Z</time>
      </trkpt>
      <trkpt lat="44.07814" lon="0.39525">
        <ele>111.9</ele>
        <time>2022-09-22T07:50:53Z</time>
      </trkpt>
      <trkpt lat="44.07818" lon="0.39526">
        <ele>111.9</ele>
        <time>2022-09-22T07:50:57Z</time>
      </trkpt>
      <trkpt lat="44.07824" lon="0.39526">
        <ele>111.7</ele>
        <time>2022-09-22T07:51:01Z</time>
      </trkpt>
      <trkpt lat="44.07829" lon="0.39527">
        <ele>111.3</ele>
        <time>2022-09-22T07:51:06Z</time>
      </trkpt>
      <trkpt lat="44.07834" lon="0.39528">
        <ele>111.1</ele>
        <time>2022-09-22T07:51:11Z</time>
      </trkpt>
      <trkpt lat="44.07838" lon="0.39532">
        <ele>112</ele>
        <time>2022-09-22T07:51:15Z</time>
      </trkpt>
      <trkpt lat="44.07844" lon="0.39534">
        <ele>113.5</ele>
        <time>2022-09-22T07:51:20Z</time>
      </trkpt>
      <trkpt lat="44.07849" lon="0.39536">
        <ele>114.4</ele>
        <time>2022-09-22T07:51:24Z</time>
      </trkpt>
      <trkpt lat="44.07853" lon="0.39537">
        <ele>115</ele>
        <time>2022-09-22T07:51:27Z</time>
      </trkpt>
      <trkpt lat="44.07858" lon="0.39538">
        <ele>115.5</ele>
        <time>2022-09-22T07:51:31Z</time>
      </trkpt>
      <trkpt lat="44.07863" lon="0.39539">
        <ele>115.6</ele>
        <time>2022-09-22T07:51:36Z</time>
      </trkpt>
      <trkpt lat="44.07868" lon="0.39541">
        <ele>115.4</ele>
        <time>2022-09-22T07:51:41Z</time>
      </trkpt>
      <trkpt lat="44.07873" lon="0.39541">
        <ele>114.8</ele>
        <time>2022-09-22T07:51:45Z</time>
      </trkpt>
      <trkpt lat="44.07878" lon="0.39542">
        <ele>114.3</ele>
        <time>2022-09-22T07:51:49Z</time>
      </trkpt>
      <trkpt lat="44.07884" lon="0.39542">
        <ele>114</ele>
        <time>2022-09-22T07:51:53Z</time>
      </trkpt>
      <trkpt lat="44.07889" lon="0.39544">
        <ele>114.6</ele>
        <time>2022-09-22T07:51:58Z</time>
      </trkpt>
      <trkpt lat="44.07893" lon="0.39546">
        <ele>115</ele>
        <time>2022-09-22T07:52:02Z</time>
      </trkpt>
      <trkpt lat="44.07898" lon="0.39548">
        <ele>115.1</ele>
        <time>2022-09-22T07:52:06Z</time>
      </trkpt>
      <trkpt lat="44.07903" lon="0.39551">
        <ele>115.2</ele>
        <time>2022-09-22T07:52:10Z</time>
      </trkpt>
      <trkpt lat="44.07907" lon="0.39552">
        <ele>115.3</ele>
        <time>2022-09-22T07:52:14Z</time>
      </trkpt>
      <trkpt lat="44.07913" lon="0.39554">
        <ele>115.1</ele>
        <time>2022-09-22T07:52:18Z</time>
      </trkpt>
      <trkpt lat="44.07917" lon="0.39555">
        <ele>114.8</ele>
        <time>2022-09-22T07:52:21Z</time>
      </trkpt>
      <trkpt lat="44.07923" lon="0.39558">
        <ele>114.6</ele>
        <time>2022-09-22T07:52:25Z</time>
      </trkpt>
      <trkpt lat="44.07927" lon="0.39561">
        <ele>114.4</ele>
        <time>2022-09-22T07:52:30Z</time>
      </trkpt>
      <trkpt lat="44.0793" lon="0.39565">
        <ele>114</ele>
        <time>2022-09-22T07:52:35Z</time>
      </trkpt>
      <trkpt lat="44.07934" lon="0.3957">
        <ele>112.8</ele>
        <time>2022-09-22T07:52:40Z</time>
      </trkpt>
      <trkpt lat="44.07939" lon="0.39574">
        <ele>111.6</ele>
        <time>2022-09-22T07:52:45Z</time>
      </trkpt>
      <trkpt lat="44.07943" lon="0.39577">
        <ele>110.4</ele>
        <time>2022-09-22T07:52:50Z</time>
      </trkpt>
      <trkpt lat="44.07948" lon="0.39581">
        <ele>109.4</ele>
        <time>2022-09-22T07:52:54Z</time>
      </trkpt>
      <trkpt lat="44.07952" lon="0.39585">
        <ele>109</ele>
        <time>2022-09-22T07:52:58Z</time>
      </trkpt>
      <trkpt lat="44.07956" lon="0.3959">
        <ele>109.2</ele>
        <time>2022-09-22T07:53:02Z</time>
      </trkpt>
      <trkpt lat="44.07961" lon="0.39594">
        <ele>109.9</ele>
        <time>2022-09-22T07:53:06Z</time>
      </trkpt>
      <trkpt lat="44.07966" lon="0.39597">
        <ele>110.6</ele>
        <time>2022-09-22T07:53:10Z</time>
      </trkpt>
      <trkpt lat="44.07971" lon="0.39601">
        <ele>111.5</ele>
        <time>2022-09-22T07:53:14Z</time>
      </trkpt>
      <trkpt lat="44.07976" lon="0.39604">
        <ele>112.5</ele>
        <time>2022-09-22T07:53:18Z</time>
      </trkpt>
      <trkpt lat="44.07981" lon="0.39607">
        <ele>113.1</ele>
        <time>2022-09-22T07:53:22Z</time>
      </trkpt>
      <trkpt lat="44.07985" lon="0.3961">
        <ele>113.4</ele>
        <time>2022-09-22T07:53:25Z</time>
      </trkpt>
      <trkpt lat="44.0799" lon="0.39613">
        <ele>113.4</ele>
        <time>2022-09-22T07:53:29Z</time>
      </trkpt>
      <trkpt lat="44.07995" lon="0.39616">
        <ele>113.1</ele>
        <time>2022-09-22T07:53:33Z</time>
      </trkpt>
      <trkpt lat="44.07999" lon="0.39618">
        <ele>112.7</ele>
        <time>2022-09-22T07:53:37Z</time>
      </trkpt>
      <trkpt lat="44.08004" lon="0.39621">
        <ele>112</ele>
        <time>2022-09-22T07:53:41Z</time>
      </trkpt>
      <trkpt lat="44.08008" lon="0.39625">
        <ele>111.3</ele>
        <time>2022-09-22T07:53:45Z</time>
      </trkpt>
      <trkpt lat="44.08013" lon="0.39627">
        <ele>110.7</ele>
        <time>2022-09-22T07:53:49Z</time>
      </trkpt>
      <trkpt lat="44.08018" lon="0.3963">
        <ele>110.5</ele>
        <time>2022-09-22T07:53:54Z</time>
      </trkpt>
      <trkpt lat="44.08022" lon="0.39631">
        <ele>110.6</ele>
        <time>2022-09-22T07:53:59Z</time>
      </trkpt>
      <trkpt lat="44.08027" lon="0.39633">
        <ele>110.6</ele>
        <time>2022-09-22T07:54:03Z</time>
      </trkpt>
      <trkpt lat="44.08032" lon="0.39635">
        <ele>110.9</ele>
        <time>2022-09-22T07:54:07Z</time>
      </trkpt>
      <trkpt lat="44.08036" lon="0.39639">
        <ele>110.8</ele>
        <time>2022-09-22T07:54:11Z</time>
      </trkpt>
      <trkpt lat="44.08041" lon="0.39643">
        <ele>110.5</ele>
        <time>2022-09-22T07:54:16Z</time>
      </trkpt>
      <trkpt lat="44.08043" lon="0.39649">
        <ele>109.8</ele>
        <time>2022-09-22T07:54:21Z</time>
      </trkpt>
      <trkpt lat="44.08043" lon="0.39657">
        <ele>109.5</ele>
        <time>2022-09-22T07:54:25Z</time>
      </trkpt>
      <trkpt lat="44.08042" lon="0.39663">
        <ele>109.5</ele>
        <time>2022-09-22T07:54:28Z</time>
      </trkpt>
      <trkpt lat="44.08041" lon="0.3967">
        <ele>109.4</ele>
        <time>2022-09-22T07:54:32Z</time>
      </trkpt>
      <trkpt lat="44.08039" lon="0.39677">
        <ele>108.9</ele>
        <time>2022-09-22T07:54:38Z</time>
      </trkpt>
      <trkpt lat="44.08036" lon="0.39682">
        <ele>108.8</ele>
        <time>2022-09-22T07:54:42Z</time>
      </trkpt>
      <trkpt lat="44.08033" lon="0.39688">
        <ele>108.5</ele>
        <time>2022-09-22T07:54:47Z</time>
      </trkpt>
      <trkpt lat="44.08031" lon="0.39694">
        <ele>108.9</ele>
        <time>2022-09-22T07:54:53Z</time>
      </trkpt>
      <trkpt lat="44.08029" lon="0.39699">
        <ele>109.2</ele>
        <time>2022-09-22T07:54:56Z</time>
      </trkpt>
      <trkpt lat="44.08028" lon="0.39705">
        <ele>109.6</ele>
        <time>2022-09-22T07:54:59Z</time>
      </trkpt>
      <trkpt lat="44.08025" lon="0.39712">
        <ele>110.2</ele>
        <time>2022-09-22T07:55:04Z</time>
      </trkpt>
      <trkpt lat="44.08022" lon="0.39719">
        <ele>111.2</ele>
        <time>2022-09-22T07:55:08Z</time>
      </trkpt>
      <trkpt lat="44.0802" lon="0.39727">
        <ele>112.5</ele>
        <time>2022-09-22T07:55:12Z</time>
      </trkpt>
      <trkpt lat="44.08017" lon="0.39733">
        <ele>113.7</ele>
        <time>2022-09-22T07:55:16Z</time>
      </trkpt>
      <trkpt lat="44.08014" lon="0.39739">
        <ele>114.4</ele>
        <time>2022-09-22T07:55:20Z</time>
      </trkpt>
      <trkpt lat="44.08012" lon="0.39745">
        <ele>115.3</ele>
        <time>2022-09-22T07:55:24Z</time>
      </trkpt>
      <trkpt lat="44.08008" lon="0.39751">
        <ele>116.3</ele>
        <time>2022-09-22T07:55:29Z</time>
      </trkpt>
      <trkpt lat="44.08005" lon="0.39756">
        <ele>117.4</ele>
        <time>2022-09-22T07:55:33Z</time>
      </trkpt>
      <trkpt lat="44.08002" lon="0.39761">
        <ele>118.1</ele>
        <time>2022-09-22T07:55:37Z</time>
      </trkpt>
      <trkpt lat="44.07998" lon="0.39766">
        <ele>118.2</ele>
        <time>2022-09-22T07:55:41Z</time>
      </trkpt>
      <trkpt lat="44.07994" lon="0.3977">
        <ele>118.1</ele>
        <time>2022-09-22T07:55:45Z</time>
      </trkpt>
      <trkpt lat="44.0799" lon="0.39775">
        <ele>117.8</ele>
        <time>2022-09-22T07:55:49Z</time>
      </trkpt>
      <trkpt lat="44.07987" lon="0.39779">
        <ele>117.3</ele>
        <time>2022-09-22T07:55:53Z</time>
      </trkpt>
      <trkpt lat="44.07983" lon="0.39784">
        <ele>117.5</ele>
        <time>2022-09-22T07:55:58Z</time>
      </trkpt>
      <trkpt lat="44.07979" lon="0.39787">
        <ele>118</ele>
        <time>2022-09-22T07:56:03Z</time>
      </trkpt>
      <trkpt lat="44.07974" lon="0.39792">
        <ele>117.9</ele>
        <time>2022-09-22T07:56:08Z</time>
      </trkpt>
      <trkpt lat="44.07969" lon="0.39796">
        <ele>117.5</ele>
        <time>2022-09-22T07:56:12Z</time>
      </trkpt>
      <trkpt lat="44.07966" lon="0.39801">
        <ele>116.7</ele>
        <time>2022-09-22T07:56:17Z</time>
      </trkpt>
      <trkpt lat="44.07962" lon="0.39806">
        <ele>116.1</ele>
        <time>2022-09-22T07:56:21Z</time>
      </trkpt>
      <trkpt lat="44.07959" lon="0.39811">
        <ele>116.3</ele>
        <time>2022-09-22T07:56:26Z</time>
      </trkpt>
      <trkpt lat="44.07955" lon="0.39816">
        <ele>117.1</ele>
        <time>2022-09-22T07:56:31Z</time>
      </trkpt>
      <trkpt lat="44.07952" lon="0.39821">
        <ele>117.6</ele>
        <time>2022-09-22T07:56:36Z</time>
      </trkpt>
      <trkpt lat="44.07948" lon="0.39827">
        <ele>118.1</ele>
        <time>2022-09-22T07:56:40Z</time>
      </trkpt>
      <trkpt lat="44.07945" lon="0.39832">
        <ele>118.4</ele>
        <time>2022-09-22T07:56:44Z</time>
      </trkpt>
      <trkpt lat="44.07942" lon="0.39838">
        <ele>118.6</ele>
        <time>2022-09-22T07:56:48Z</time>
      </trkpt>
      <trkpt lat="44.07939" lon="0.39845">
        <ele>118.7</ele>
        <time>2022-09-22T07:56:52Z</time>
      </trkpt>
      <trkpt lat="44.07936" lon="0.39851">
        <ele>118.8</ele>
        <time>2022-09-22T07:56:56Z</time>
      </trkpt>
      <trkpt lat="44.07932" lon="0.39855">
        <ele>118.6</ele>
        <time>2022-09-22T07:57:00Z</time>
      </trkpt>
      <trkpt lat="44.07928" lon="0.39859">
        <ele>118.8</ele>
        <time>2022-09-22T07:57:05Z</time>
      </trkpt>
      <trkpt lat="44.07925" lon="0.39864">
        <ele>118.8</ele>
        <time>2022-09-22T07:57:09Z</time>
      </trkpt>
      <trkpt lat="44.07923" lon="0.3987">
        <ele>119.1</ele>
        <time>2022-09-22T07:57:13Z</time>
      </trkpt>
      <trkpt lat="44.07921" lon="0.39876">
        <ele>119.2</ele>
        <time>2022-09-22T07:57:16Z</time>
      </trkpt>
      <trkpt lat="44.07919" lon="0.39882">
        <ele>119.3</ele>
        <time>2022-09-22T07:57:19Z</time>
      </trkpt>
      <trkpt lat="44.07916" lon="0.39887">
        <ele>119.8</ele>
        <time>2022-09-22T07:57:23Z</time>
      </trkpt>
      <trkpt lat="44.07912" lon="0.39894">
        <ele>120.3</ele>
        <time>2022-09-22T07:57:27Z</time>
      </trkpt>
      <trkpt lat="44.07909" lon="0.39899">
        <ele>120.6</ele>
        <time>2022-09-22T07:57:31Z</time>
      </trkpt>
      <trkpt lat="44.07906" lon="0.39905">
        <ele>120.7</ele>
        <time>2022-09-22T07:57:35Z</time>
      </trkpt>
      <trkpt lat="44.07904" lon="0.39911">
        <ele>121</ele>
        <time>2022-09-22T07:57:39Z</time>
      </trkpt>
      <trkpt lat="44.07902" lon="0.39918">
        <ele>121.5</ele>
        <time>2022-09-22T07:57:43Z</time>
      </trkpt>
      <trkpt lat="44.07899" lon="0.39925">
        <ele>122</ele>
        <time>2022-09-22T07:57:48Z</time>
      </trkpt>
      <trkpt lat="44.07897" lon="0.3993">
        <ele>122</ele>
        <time>2022-09-22T07:57:52Z</time>
      </trkpt>
      <trkpt lat="44.07894" lon="0.39936">
        <ele>121.7</ele>
        <time>2022-09-22T07:57:57Z</time>
      </trkpt>
      <trkpt lat="44.07892" lon="0.39942">
        <ele>121.4</ele>
        <time>2022-09-22T07:58:01Z</time>
      </trkpt>
      <trkpt lat="44.0789" lon="0.39948">
        <ele>121.3</ele>
        <time>2022-09-22T07:58:05Z</time>
      </trkpt>
      <trkpt lat="44.07889" lon="0.39955">
        <ele>121.2</ele>
        <time>2022-09-22T07:58:10Z</time>
      </trkpt>
      <trkpt lat="44.07887" lon="0.39962">
        <ele>121.5</ele>
        <time>2022-09-22T07:58:15Z</time>
      </trkpt>
      <trkpt lat="44.07885" lon="0.39969">
        <ele>121.7</ele>
        <time>2022-09-22T07:58:19Z</time>
      </trkpt>
      <trkpt lat="44.07883" lon="0.39975">
        <ele>121.7</ele>
        <time>2022-09-22T07:58:23Z</time>
      </trkpt>
      <trkpt lat="44.07881" lon="0.39982">
        <ele>121.6</ele>
        <time>2022-09-22T07:58:27Z</time>
      </trkpt>
      <trkpt lat="44.07879" lon="0.39988">
        <ele>121.7</ele>
        <time>2022-09-22T07:58:31Z</time>
      </trkpt>
      <trkpt lat="44.07877" lon="0.39994">
        <ele>121.6</ele>
        <time>2022-09-22T07:58:35Z</time>
      </trkpt>
      <trkpt lat="44.07876" lon="0.4">
        <ele>121.6</ele>
        <time>2022-09-22T07:58:39Z</time>
      </trkpt>
      <trkpt lat="44.07874" lon="0.40006">
        <ele>121.6</ele>
        <time>2022-09-22T07:58:44Z</time>
      </trkpt>
      <trkpt lat="44.07872" lon="0.40013">
        <ele>121.8</ele>
        <time>2022-09-22T07:58:49Z</time>
      </trkpt>
      <trkpt lat="44.07871" lon="0.4002">
        <ele>122.5</ele>
        <time>2022-09-22T07:58:54Z</time>
      </trkpt>
      <trkpt lat="44.0787" lon="0.40026">
        <ele>123.2</ele>
        <time>2022-09-22T07:59:00Z</time>
      </trkpt>
      <trkpt lat="44.07868" lon="0.40032">
        <ele>124.6</ele>
        <time>2022-09-22T08:00:05Z</time>
      </trkpt>
      <trkpt lat="44.07872" lon="0.40034">
        <ele>125.3</ele>
        <time>2022-09-22T08:01:51Z</time>
      </trkpt>
      <trkpt lat="44.07869" lon="0.40029">
        <ele>124.6</ele>
        <time>2022-09-22T08:03:44Z</time>
      </trkpt>
      <trkpt lat="44.07872" lon="0.40033">
        <ele>125.7</ele>
        <time>2022-09-22T08:05:45Z</time>
      </trkpt>
      <trkpt lat="44.07868" lon="0.40036">
        <ele>125.3</ele>
        <time>2022-09-22T08:06:39Z</time>
      </trkpt>
      <trkpt lat="44.07863" lon="0.40036">
        <ele>125</ele>
        <time>2022-09-22T08:06:48Z</time>
      </trkpt>
      <trkpt lat="44.07858" lon="0.40038">
        <ele>124.9</ele>
        <time>2022-09-22T08:06:53Z</time>
      </trkpt>
      <trkpt lat="44.07853" lon="0.40037">
        <ele>125</ele>
        <time>2022-09-22T08:06:58Z</time>
      </trkpt>
      <trkpt lat="44.07848" lon="0.40035">
        <ele>124.6</ele>
        <time>2022-09-22T08:07:03Z</time>
      </trkpt>
      <trkpt lat="44.07843" lon="0.40033">
        <ele>124</ele>
        <time>2022-09-22T08:07:08Z</time>
      </trkpt>
      <trkpt lat="44.07839" lon="0.40032">
        <ele>123.4</ele>
        <time>2022-09-22T08:07:12Z</time>
      </trkpt>
      <trkpt lat="44.07834" lon="0.40031">
        <ele>123.1</ele>
        <time>2022-09-22T08:07:16Z</time>
      </trkpt>
      <trkpt lat="44.07829" lon="0.40029">
        <ele>122.7</ele>
        <time>2022-09-22T08:07:21Z</time>
      </trkpt>
      <trkpt lat="44.07824" lon="0.40029">
        <ele>122.4</ele>
        <time>2022-09-22T08:07:25Z</time>
      </trkpt>
      <trkpt lat="44.07818" lon="0.40028">
        <ele>122</ele>
        <time>2022-09-22T08:07:30Z</time>
      </trkpt>
      <trkpt lat="44.07813" lon="0.40028">
        <ele>121.7</ele>
        <time>2022-09-22T08:07:34Z</time>
      </trkpt>
      <trkpt lat="44.07808" lon="0.40026">
        <ele>121.4</ele>
        <time>2022-09-22T08:07:39Z</time>
      </trkpt>
      <trkpt lat="44.07803" lon="0.40024">
        <ele>120.9</ele>
        <time>2022-09-22T08:07:43Z</time>
      </trkpt>
      <trkpt lat="44.07798" lon="0.40022">
        <ele>120.5</ele>
        <time>2022-09-22T08:07:48Z</time>
      </trkpt>
      <trkpt lat="44.07793" lon="0.4002">
        <ele>120.3</ele>
        <time>2022-09-22T08:07:53Z</time>
      </trkpt>
      <trkpt lat="44.07788" lon="0.4002">
        <ele>120.5</ele>
        <time>2022-09-22T08:07:57Z</time>
      </trkpt>
      <trkpt lat="44.07783" lon="0.4002">
        <ele>120.5</ele>
        <time>2022-09-22T08:08:01Z</time>
      </trkpt>
      <trkpt lat="44.07778" lon="0.40016">
        <ele>119.7</ele>
        <time>2022-09-22T08:08:07Z</time>
      </trkpt>
      <trkpt lat="44.07773" lon="0.40014">
        <ele>119</ele>
        <time>2022-09-22T08:08:12Z</time>
      </trkpt>
      <trkpt lat="44.07769" lon="0.40013">
        <ele>118</ele>
        <time>2022-09-22T08:08:16Z</time>
      </trkpt>
      <trkpt lat="44.07764" lon="0.40012">
        <ele>116.8</ele>
        <time>2022-09-22T08:08:20Z</time>
      </trkpt>
      <trkpt lat="44.07758" lon="0.40011">
        <ele>115.1</ele>
        <time>2022-09-22T08:08:25Z</time>
      </trkpt>
      <trkpt lat="44.07754" lon="0.4001">
        <ele>113.9</ele>
        <time>2022-09-22T08:08:29Z</time>
      </trkpt>
      <trkpt lat="44.07749" lon="0.40007">
        <ele>112.8</ele>
        <time>2022-09-22T08:08:33Z</time>
      </trkpt>
      <trkpt lat="44.07745" lon="0.40005">
        <ele>112.4</ele>
        <time>2022-09-22T08:08:37Z</time>
      </trkpt>
      <trkpt lat="44.0774" lon="0.40004">
        <ele>111.9</ele>
        <time>2022-09-22T08:08:41Z</time>
      </trkpt>
      <trkpt lat="44.07735" lon="0.40005">
        <ele>111.4</ele>
        <time>2022-09-22T08:08:45Z</time>
      </trkpt>
      <trkpt lat="44.0773" lon="0.40004">
        <ele>111</ele>
        <time>2022-09-22T08:08:50Z</time>
      </trkpt>
      <trkpt lat="44.07726" lon="0.40002">
        <ele>111.2</ele>
        <time>2022-09-22T08:08:54Z</time>
      </trkpt>
      <trkpt lat="44.0772" lon="0.40001">
        <ele>111.8</ele>
        <time>2022-09-22T08:08:59Z</time>
      </trkpt>
      <trkpt lat="44.07716" lon="0.4">
        <ele>112.6</ele>
        <time>2022-09-22T08:09:03Z</time>
      </trkpt>
      <trkpt lat="44.07711" lon="0.39997">
        <ele>113.1</ele>
        <time>2022-09-22T08:09:08Z</time>
      </trkpt>
      <trkpt lat="44.07706" lon="0.39997">
        <ele>112.9</ele>
        <time>2022-09-22T08:09:13Z</time>
      </trkpt>
      <trkpt lat="44.07703" lon="0.40002">
        <ele>112.7</ele>
        <time>2022-09-22T08:09:17Z</time>
      </trkpt>
      <trkpt lat="44.07701" lon="0.40008">
        <ele>112</ele>
        <time>2022-09-22T08:09:22Z</time>
      </trkpt>
      <trkpt lat="44.077" lon="0.40015">
        <ele>110.7</ele>
        <time>2022-09-22T08:09:27Z</time>
      </trkpt>
      <trkpt lat="44.07701" lon="0.40022">
        <ele>109.2</ele>
        <time>2022-09-22T08:09:32Z</time>
      </trkpt>
      <trkpt lat="44.07702" lon="0.40029">
        <ele>108.8</ele>
        <time>2022-09-22T08:09:37Z</time>
      </trkpt>
      <trkpt lat="44.07705" lon="0.40034">
        <ele>108.6</ele>
        <time>2022-09-22T08:09:42Z</time>
      </trkpt>
      <trkpt lat="44.07709" lon="0.40037">
        <ele>108.4</ele>
        <time>2022-09-22T08:09:47Z</time>
      </trkpt>
      <trkpt lat="44.07712" lon="0.40041">
        <ele>108.6</ele>
        <time>2022-09-22T08:09:55Z</time>
      </trkpt>
      <trkpt lat="44.07717" lon="0.40045">
        <ele>107.9</ele>
        <time>2022-09-22T08:10:12Z</time>
      </trkpt>
      <trkpt lat="44.07718" lon="0.40052">
        <ele>107.5</ele>
        <time>2022-09-22T08:10:18Z</time>
      </trkpt>
      <trkpt lat="44.07716" lon="0.40059">
        <ele>107.5</ele>
        <time>2022-09-22T08:10:25Z</time>
      </trkpt>
      <trkpt lat="44.07715" lon="0.40065">
        <ele>107.9</ele>
        <time>2022-09-22T08:10:30Z</time>
      </trkpt>
      <trkpt lat="44.07714" lon="0.40072">
        <ele>108.6</ele>
        <time>2022-09-22T08:10:36Z</time>
      </trkpt>
      <trkpt lat="44.07712" lon="0.40078">
        <ele>109</ele>
        <time>2022-09-22T08:10:42Z</time>
      </trkpt>
      <trkpt lat="44.07709" lon="0.40084">
        <ele>109.1</ele>
        <time>2022-09-22T08:10:46Z</time>
      </trkpt>
      <trkpt lat="44.07707" lon="0.4009">
        <ele>109.3</ele>
        <time>2022-09-22T08:10:49Z</time>
      </trkpt>
      <trkpt lat="44.07706" lon="0.40096">
        <ele>109.5</ele>
        <time>2022-09-22T08:10:52Z</time>
      </trkpt>
      <trkpt lat="44.07704" lon="0.40103">
        <ele>109.5</ele>
        <time>2022-09-22T08:10:56Z</time>
      </trkpt>
      <trkpt lat="44.07703" lon="0.40109">
        <ele>108.9</ele>
        <time>2022-09-22T08:11:01Z</time>
      </trkpt>
      <trkpt lat="44.07701" lon="0.40116">
        <ele>108</ele>
        <time>2022-09-22T08:11:07Z</time>
      </trkpt>
      <trkpt lat="44.077" lon="0.40123">
        <ele>107.4</ele>
        <time>2022-09-22T08:11:12Z</time>
      </trkpt>
      <trkpt lat="44.07699" lon="0.40129">
        <ele>107</ele>
        <time>2022-09-22T08:11:18Z</time>
      </trkpt>
      <trkpt lat="44.07699" lon="0.40136">
        <ele>106.3</ele>
        <time>2022-09-22T08:11:24Z</time>
      </trkpt>
      <trkpt lat="44.07697" lon="0.40142">
        <ele>105.4</ele>
        <time>2022-09-22T08:11:29Z</time>
      </trkpt>
      <trkpt lat="44.07695" lon="0.40149">
        <ele>104.6</ele>
        <time>2022-09-22T08:11:33Z</time>
      </trkpt>
      <trkpt lat="44.07692" lon="0.40156">
        <ele>103.8</ele>
        <time>2022-09-22T08:11:37Z</time>
      </trkpt>
      <trkpt lat="44.0769" lon="0.40162">
        <ele>103.4</ele>
        <time>2022-09-22T08:11:41Z</time>
      </trkpt>
      <trkpt lat="44.07686" lon="0.40167">
        <ele>103.4</ele>
        <time>2022-09-22T08:11:45Z</time>
      </trkpt>
      <trkpt lat="44.07684" lon="0.40172">
        <ele>103.8</ele>
        <time>2022-09-22T08:11:48Z</time>
      </trkpt>
      <trkpt lat="44.0768" lon="0.40178">
        <ele>104.8</ele>
        <time>2022-09-22T08:11:52Z</time>
      </trkpt>
      <trkpt lat="44.07679" lon="0.40184">
        <ele>106.3</ele>
        <time>2022-09-22T08:11:58Z</time>
      </trkpt>
      <trkpt lat="44.07678" lon="0.4019">
        <ele>107.2</ele>
        <time>2022-09-22T08:12:03Z</time>
      </trkpt>
      <trkpt lat="44.07676" lon="0.40197">
        <ele>107.7</ele>
        <time>2022-09-22T08:12:08Z</time>
      </trkpt>
      <trkpt lat="44.07675" lon="0.40204">
        <ele>108.6</ele>
        <time>2022-09-22T08:12:13Z</time>
      </trkpt>
      <trkpt lat="44.07673" lon="0.4021">
        <ele>109.5</ele>
        <time>2022-09-22T08:12:17Z</time>
      </trkpt>
      <trkpt lat="44.07671" lon="0.40216">
        <ele>110.4</ele>
        <time>2022-09-22T08:12:21Z</time>
      </trkpt>
      <trkpt lat="44.0767" lon="0.40223">
        <ele>110.8</ele>
        <time>2022-09-22T08:12:25Z</time>
      </trkpt>
      <trkpt lat="44.07668" lon="0.4023">
        <ele>110.9</ele>
        <time>2022-09-22T08:12:29Z</time>
      </trkpt>
      <trkpt lat="44.07666" lon="0.40236">
        <ele>111</ele>
        <time>2022-09-22T08:12:32Z</time>
      </trkpt>
      <trkpt lat="44.07664" lon="0.40243">
        <ele>111</ele>
        <time>2022-09-22T08:12:35Z</time>
      </trkpt>
      <trkpt lat="44.07663" lon="0.4025">
        <ele>111.3</ele>
        <time>2022-09-22T08:12:39Z</time>
      </trkpt>
      <trkpt lat="44.07661" lon="0.40256">
        <ele>111.4</ele>
        <time>2022-09-22T08:12:45Z</time>
      </trkpt>
      <trkpt lat="44.07659" lon="0.40262">
        <ele>110.7</ele>
        <time>2022-09-22T08:12:51Z</time>
      </trkpt>
      <trkpt lat="44.07658" lon="0.40269">
        <ele>110.3</ele>
        <time>2022-09-22T08:12:55Z</time>
      </trkpt>
      <trkpt lat="44.07657" lon="0.40276">
        <ele>109.8</ele>
        <time>2022-09-22T08:13:00Z</time>
      </trkpt>
      <trkpt lat="44.07655" lon="0.40284">
        <ele>109.1</ele>
        <time>2022-09-22T08:13:05Z</time>
      </trkpt>
      <trkpt lat="44.07652" lon="0.40289">
        <ele>108.4</ele>
        <time>2022-09-22T08:13:09Z</time>
      </trkpt>
      <trkpt lat="44.0765" lon="0.40295">
        <ele>107.7</ele>
        <time>2022-09-22T08:13:12Z</time>
      </trkpt>
      <trkpt lat="44.07647" lon="0.40302">
        <ele>106.9</ele>
        <time>2022-09-22T08:13:15Z</time>
      </trkpt>
      <trkpt lat="44.07646" lon="0.40308">
        <ele>105.7</ele>
        <time>2022-09-22T08:13:20Z</time>
      </trkpt>
      <trkpt lat="44.07645" lon="0.40315">
        <ele>105.5</ele>
        <time>2022-09-22T08:13:24Z</time>
      </trkpt>
      <trkpt lat="44.07644" lon="0.40322">
        <ele>105.6</ele>
        <time>2022-09-22T08:13:28Z</time>
      </trkpt>
      <trkpt lat="44.0764" lon="0.40326">
        <ele>106.3</ele>
        <time>2022-09-22T08:13:36Z</time>
      </trkpt>
      <trkpt lat="44.07636" lon="0.40332">
        <ele>106.8</ele>
        <time>2022-09-22T08:13:40Z</time>
      </trkpt>
      <trkpt lat="44.07632" lon="0.40336">
        <ele>107.3</ele>
        <time>2022-09-22T08:13:43Z</time>
      </trkpt>
      <trkpt lat="44.07629" lon="0.40341">
        <ele>108.1</ele>
        <time>2022-09-22T08:13:46Z</time>
      </trkpt>
      <trkpt lat="44.07625" lon="0.40346">
        <ele>108.8</ele>
        <time>2022-09-22T08:13:50Z</time>
      </trkpt>
      <trkpt lat="44.07621" lon="0.40351">
        <ele>109.6</ele>
        <time>2022-09-22T08:13:54Z</time>
      </trkpt>
      <trkpt lat="44.07618" lon="0.40356">
        <ele>110.2</ele>
        <time>2022-09-22T08:13:58Z</time>
      </trkpt>
      <trkpt lat="44.07614" lon="0.4036">
        <ele>110.4</ele>
        <time>2022-09-22T08:14:03Z</time>
      </trkpt>
      <trkpt lat="44.07611" lon="0.40366">
        <ele>110.4</ele>
        <time>2022-09-22T08:14:09Z</time>
      </trkpt>
      <trkpt lat="44.07607" lon="0.4037">
        <ele>110.1</ele>
        <time>2022-09-22T08:14:14Z</time>
      </trkpt>
      <trkpt lat="44.07603" lon="0.40376">
        <ele>109.3</ele>
        <time>2022-09-22T08:14:19Z</time>
      </trkpt>
      <trkpt lat="44.07599" lon="0.40381">
        <ele>108.5</ele>
        <time>2022-09-22T08:14:23Z</time>
      </trkpt>
      <trkpt lat="44.07596" lon="0.40387">
        <ele>107.6</ele>
        <time>2022-09-22T08:14:28Z</time>
      </trkpt>
      <trkpt lat="44.07593" lon="0.40391">
        <ele>107</ele>
        <time>2022-09-22T08:14:32Z</time>
      </trkpt>
      <trkpt lat="44.0759" lon="0.40396">
        <ele>106.1</ele>
        <time>2022-09-22T08:14:36Z</time>
      </trkpt>
      <trkpt lat="44.07588" lon="0.40404">
        <ele>105.6</ele>
        <time>2022-09-22T08:14:40Z</time>
      </trkpt>
      <trkpt lat="44.07586" lon="0.4041">
        <ele>105.5</ele>
        <time>2022-09-22T08:14:45Z</time>
      </trkpt>
      <trkpt lat="44.07585" lon="0.40418">
        <ele>105.7</ele>
        <time>2022-09-22T08:14:50Z</time>
      </trkpt>
      <trkpt lat="44.07584" lon="0.40424">
        <ele>106.2</ele>
        <time>2022-09-22T08:14:54Z</time>
      </trkpt>
      <trkpt lat="44.07584" lon="0.4043">
        <ele>106.6</ele>
        <time>2022-09-22T08:14:58Z</time>
      </trkpt>
      <trkpt lat="44.07582" lon="0.40437">
        <ele>107.2</ele>
        <time>2022-09-22T08:15:02Z</time>
      </trkpt>
      <trkpt lat="44.07582" lon="0.40444">
        <ele>107.5</ele>
        <time>2022-09-22T08:15:06Z</time>
      </trkpt>
      <trkpt lat="44.07581" lon="0.40452">
        <ele>108</ele>
        <time>2022-09-22T08:15:10Z</time>
      </trkpt>
      <trkpt lat="44.0758" lon="0.40459">
        <ele>108.5</ele>
        <time>2022-09-22T08:15:14Z</time>
      </trkpt>
      <trkpt lat="44.0758" lon="0.40465">
        <ele>109.2</ele>
        <time>2022-09-22T08:15:19Z</time>
      </trkpt>
      <trkpt lat="44.07579" lon="0.40472">
        <ele>109.3</ele>
        <time>2022-09-22T08:15:23Z</time>
      </trkpt>
      <trkpt lat="44.07578" lon="0.40479">
        <ele>109.4</ele>
        <time>2022-09-22T08:15:27Z</time>
      </trkpt>
      <trkpt lat="44.07577" lon="0.40487">
        <ele>109.4</ele>
        <time>2022-09-22T08:15:31Z</time>
      </trkpt>
      <trkpt lat="44.07576" lon="0.40493">
        <ele>109.9</ele>
        <time>2022-09-22T08:15:35Z</time>
      </trkpt>
      <trkpt lat="44.07574" lon="0.405">
        <ele>111</ele>
        <time>2022-09-22T08:15:41Z</time>
      </trkpt>
      <trkpt lat="44.07571" lon="0.40506">
        <ele>110.4</ele>
        <time>2022-09-22T08:15:47Z</time>
      </trkpt>
      <trkpt lat="44.07569" lon="0.40512">
        <ele>109.3</ele>
        <time>2022-09-22T08:15:51Z</time>
      </trkpt>
      <trkpt lat="44.07566" lon="0.40518">
        <ele>108.2</ele>
        <time>2022-09-22T08:15:55Z</time>
      </trkpt>
      <trkpt lat="44.07563" lon="0.40524">
        <ele>107.4</ele>
        <time>2022-09-22T08:15:59Z</time>
      </trkpt>
      <trkpt lat="44.0756" lon="0.4053">
        <ele>106.6</ele>
        <time>2022-09-22T08:16:04Z</time>
      </trkpt>
      <trkpt lat="44.07557" lon="0.40535">
        <ele>106</ele>
        <time>2022-09-22T08:16:09Z</time>
      </trkpt>
      <trkpt lat="44.07554" lon="0.40541">
        <ele>105.7</ele>
        <time>2022-09-22T08:16:14Z</time>
      </trkpt>
      <trkpt lat="44.07551" lon="0.40548">
        <ele>105.1</ele>
        <time>2022-09-22T08:16:19Z</time>
      </trkpt>
      <trkpt lat="44.0755" lon="0.40554">
        <ele>103.2</ele>
        <time>2022-09-22T08:16:25Z</time>
      </trkpt>
      <trkpt lat="44.07547" lon="0.4056">
        <ele>100.7</ele>
        <time>2022-09-22T08:16:33Z</time>
      </trkpt>
      <trkpt lat="44.07545" lon="0.40566">
        <ele>99.3</ele>
        <time>2022-09-22T08:16:39Z</time>
      </trkpt>
      <trkpt lat="44.07542" lon="0.40572">
        <ele>98</ele>
        <time>2022-09-22T08:16:45Z</time>
      </trkpt>
      <trkpt lat="44.07539" lon="0.40577">
        <ele>97.2</ele>
        <time>2022-09-22T08:16:50Z</time>
      </trkpt>
      <trkpt lat="44.07536" lon="0.40583">
        <ele>96.5</ele>
        <time>2022-09-22T08:16:54Z</time>
      </trkpt>
      <trkpt lat="44.07533" lon="0.40589">
        <ele>95.7</ele>
        <time>2022-09-22T08:16:59Z</time>
      </trkpt>
      <trkpt lat="44.07531" lon="0.40594">
        <ele>94.7</ele>
        <time>2022-09-22T08:17:05Z</time>
      </trkpt>
      <trkpt lat="44.07527" lon="0.406">
        <ele>94</ele>
        <time>2022-09-22T08:17:10Z</time>
      </trkpt>
      <trkpt lat="44.07525" lon="0.40606">
        <ele>93.3</ele>
        <time>2022-09-22T08:17:15Z</time>
      </trkpt>
      <trkpt lat="44.07523" lon="0.40612">
        <ele>92.8</ele>
        <time>2022-09-22T08:17:18Z</time>
      </trkpt>
      <trkpt lat="44.0752" lon="0.40618">
        <ele>92.1</ele>
        <time>2022-09-22T08:17:22Z</time>
      </trkpt>
      <trkpt lat="44.07516" lon="0.40624">
        <ele>91.2</ele>
        <time>2022-09-22T08:17:27Z</time>
      </trkpt>
      <trkpt lat="44.07514" lon="0.4063">
        <ele>90.7</ele>
        <time>2022-09-22T08:17:31Z</time>
      </trkpt>
      <trkpt lat="44.07511" lon="0.40636">
        <ele>90.2</ele>
        <time>2022-09-22T08:17:35Z</time>
      </trkpt>
      <trkpt lat="44.07509" lon="0.40642">
        <ele>89.9</ele>
        <time>2022-09-22T08:17:39Z</time>
      </trkpt>
      <trkpt lat="44.07506" lon="0.40649">
        <ele>89.8</ele>
        <time>2022-09-22T08:17:44Z</time>
      </trkpt>
      <trkpt lat="44.07504" lon="0.40655">
        <ele>89.6</ele>
        <time>2022-09-22T08:17:48Z</time>
      </trkpt>
      <trkpt lat="44.07503" lon="0.40661">
        <ele>89.4</ele>
        <time>2022-09-22T08:17:52Z</time>
      </trkpt>
      <trkpt lat="44.07501" lon="0.40668">
        <ele>89.1</ele>
        <time>2022-09-22T08:17:56Z</time>
      </trkpt>
      <trkpt lat="44.075" lon="0.40674">
        <ele>89.1</ele>
        <time>2022-09-22T08:18:00Z</time>
      </trkpt>
      <trkpt lat="44.07498" lon="0.40681">
        <ele>89.3</ele>
        <time>2022-09-22T08:18:05Z</time>
      </trkpt>
      <trkpt lat="44.07497" lon="0.40687">
        <ele>89.3</ele>
        <time>2022-09-22T08:18:09Z</time>
      </trkpt>
      <trkpt lat="44.07495" lon="0.40694">
        <ele>89.9</ele>
        <time>2022-09-22T08:18:14Z</time>
      </trkpt>
      <trkpt lat="44.07494" lon="0.40701">
        <ele>90.9</ele>
        <time>2022-09-22T08:18:19Z</time>
      </trkpt>
      <trkpt lat="44.07492" lon="0.40707">
        <ele>91.5</ele>
        <time>2022-09-22T08:18:24Z</time>
      </trkpt>
      <trkpt lat="44.07491" lon="0.40714">
        <ele>92</ele>
        <time>2022-09-22T08:18:29Z</time>
      </trkpt>
      <trkpt lat="44.0749" lon="0.40721">
        <ele>92.6</ele>
        <time>2022-09-22T08:18:34Z</time>
      </trkpt>
      <trkpt lat="44.07488" lon="0.40728">
        <ele>93.6</ele>
        <time>2022-09-22T08:18:39Z</time>
      </trkpt>
      <trkpt lat="44.07486" lon="0.40735">
        <ele>95</ele>
        <time>2022-09-22T08:18:45Z</time>
      </trkpt>
      <trkpt lat="44.07485" lon="0.40741">
        <ele>96.3</ele>
        <time>2022-09-22T08:18:51Z</time>
      </trkpt>
      <trkpt lat="44.07485" lon="0.40748">
        <ele>97.5</ele>
        <time>2022-09-22T08:18:58Z</time>
      </trkpt>
      <trkpt lat="44.07484" lon="0.40755">
        <ele>98.2</ele>
        <time>2022-09-22T08:19:03Z</time>
      </trkpt>
      <trkpt lat="44.07483" lon="0.40761">
        <ele>99</ele>
        <time>2022-09-22T08:19:08Z</time>
      </trkpt>
      <trkpt lat="44.07483" lon="0.40767">
        <ele>98.8</ele>
        <time>2022-09-22T08:19:15Z</time>
      </trkpt>
      <trkpt lat="44.07482" lon="0.40775">
        <ele>98.3</ele>
        <time>2022-09-22T08:19:21Z</time>
      </trkpt>
      <trkpt lat="44.07481" lon="0.40782">
        <ele>97.9</ele>
        <time>2022-09-22T08:19:26Z</time>
      </trkpt>
      <trkpt lat="44.0748" lon="0.40789">
        <ele>97.2</ele>
        <time>2022-09-22T08:19:31Z</time>
      </trkpt>
      <trkpt lat="44.07478" lon="0.40795">
        <ele>96.5</ele>
        <time>2022-09-22T08:19:38Z</time>
      </trkpt>
      <trkpt lat="44.07476" lon="0.40801">
        <ele>95.9</ele>
        <time>2022-09-22T08:19:44Z</time>
      </trkpt>
      <trkpt lat="44.07476" lon="0.40808">
        <ele>95.5</ele>
        <time>2022-09-22T08:19:51Z</time>
      </trkpt>
      <trkpt lat="44.07473" lon="0.40814">
        <ele>95.3</ele>
        <time>2022-09-22T08:19:56Z</time>
      </trkpt>
      <trkpt lat="44.07471" lon="0.4082">
        <ele>95.3</ele>
        <time>2022-09-22T08:20:00Z</time>
      </trkpt>
      <trkpt lat="44.07468" lon="0.40826">
        <ele>95.1</ele>
        <time>2022-09-22T08:20:04Z</time>
      </trkpt>
      <trkpt lat="44.07465" lon="0.40831">
        <ele>95.1</ele>
        <time>2022-09-22T08:20:07Z</time>
      </trkpt>
      <trkpt lat="44.07462" lon="0.40836">
        <ele>95</ele>
        <time>2022-09-22T08:20:11Z</time>
      </trkpt>
      <trkpt lat="44.07459" lon="0.40842">
        <ele>95.2</ele>
        <time>2022-09-22T08:20:17Z</time>
      </trkpt>
      <trkpt lat="44.07455" lon="0.40848">
        <ele>95.7</ele>
        <time>2022-09-22T08:20:21Z</time>
      </trkpt>
      <trkpt lat="44.07452" lon="0.40854">
        <ele>96.5</ele>
        <time>2022-09-22T08:20:25Z</time>
      </trkpt>
      <trkpt lat="44.07449" lon="0.4086">
        <ele>97.2</ele>
        <time>2022-09-22T08:20:29Z</time>
      </trkpt>
      <trkpt lat="44.07446" lon="0.40865">
        <ele>97.7</ele>
        <time>2022-09-22T08:20:33Z</time>
      </trkpt>
      <trkpt lat="44.07442" lon="0.40871">
        <ele>98</ele>
        <time>2022-09-22T08:20:37Z</time>
      </trkpt>
      <trkpt lat="44.07439" lon="0.40876">
        <ele>98.3</ele>
        <time>2022-09-22T08:20:41Z</time>
      </trkpt>
      <trkpt lat="44.07436" lon="0.40881">
        <ele>98.6</ele>
        <time>2022-09-22T08:20:47Z</time>
      </trkpt>
      <trkpt lat="44.07432" lon="0.40887">
        <ele>98.6</ele>
        <time>2022-09-22T08:20:52Z</time>
      </trkpt>
      <trkpt lat="44.07428" lon="0.40893">
        <ele>98.7</ele>
        <time>2022-09-22T08:20:56Z</time>
      </trkpt>
      <trkpt lat="44.07424" lon="0.40898">
        <ele>98.6</ele>
        <time>2022-09-22T08:21:00Z</time>
      </trkpt>
      <trkpt lat="44.0742" lon="0.40903">
        <ele>98.6</ele>
        <time>2022-09-22T08:21:05Z</time>
      </trkpt>
      <trkpt lat="44.07417" lon="0.40909">
        <ele>98.2</ele>
        <time>2022-09-22T08:21:10Z</time>
      </trkpt>
      <trkpt lat="44.07414" lon="0.40915">
        <ele>98.1</ele>
        <time>2022-09-22T08:21:15Z</time>
      </trkpt>
      <trkpt lat="44.07412" lon="0.40921">
        <ele>98.2</ele>
        <time>2022-09-22T08:21:19Z</time>
      </trkpt>
      <trkpt lat="44.07409" lon="0.40928">
        <ele>98.1</ele>
        <time>2022-09-22T08:21:24Z</time>
      </trkpt>
      <trkpt lat="44.07406" lon="0.40934">
        <ele>97.9</ele>
        <time>2022-09-22T08:21:29Z</time>
      </trkpt>
      <trkpt lat="44.07404" lon="0.40939">
        <ele>97.4</ele>
        <time>2022-09-22T08:21:35Z</time>
      </trkpt>
      <trkpt lat="44.07402" lon="0.40946">
        <ele>96.9</ele>
        <time>2022-09-22T08:21:40Z</time>
      </trkpt>
      <trkpt lat="44.07399" lon="0.40952">
        <ele>96.7</ele>
        <time>2022-09-22T08:21:44Z</time>
      </trkpt>
      <trkpt lat="44.07397" lon="0.40958">
        <ele>96.5</ele>
        <time>2022-09-22T08:21:48Z</time>
      </trkpt>
      <trkpt lat="44.07394" lon="0.40963">
        <ele>96.4</ele>
        <time>2022-09-22T08:21:52Z</time>
      </trkpt>
      <trkpt lat="44.07391" lon="0.4097">
        <ele>96.7</ele>
        <time>2022-09-22T08:21:57Z</time>
      </trkpt>
      <trkpt lat="44.07389" lon="0.40977">
        <ele>96.8</ele>
        <time>2022-09-22T08:22:01Z</time>
      </trkpt>
      <trkpt lat="44.07386" lon="0.40983">
        <ele>97</ele>
        <time>2022-09-22T08:22:05Z</time>
      </trkpt>
      <trkpt lat="44.07383" lon="0.40988">
        <ele>96.9</ele>
        <time>2022-09-22T08:22:09Z</time>
      </trkpt>
      <trkpt lat="44.0738" lon="0.40994">
        <ele>96.9</ele>
        <time>2022-09-22T08:22:13Z</time>
      </trkpt>
      <trkpt lat="44.07376" lon="0.40999">
        <ele>97.1</ele>
        <time>2022-09-22T08:22:18Z</time>
      </trkpt>
      <trkpt lat="44.07372" lon="0.41005">
        <ele>97</ele>
        <time>2022-09-22T08:22:23Z</time>
      </trkpt>
      <trkpt lat="44.07368" lon="0.41011">
        <ele>97.1</ele>
        <time>2022-09-22T08:22:27Z</time>
      </trkpt>
      <trkpt lat="44.07365" lon="0.41017">
        <ele>97.5</ele>
        <time>2022-09-22T08:22:31Z</time>
      </trkpt>
      <trkpt lat="44.07361" lon="0.41022">
        <ele>98.1</ele>
        <time>2022-09-22T08:22:35Z</time>
      </trkpt>
      <trkpt lat="44.07358" lon="0.41027">
        <ele>98.7</ele>
        <time>2022-09-22T08:22:40Z</time>
      </trkpt>
      <trkpt lat="44.07354" lon="0.41031">
        <ele>99.1</ele>
        <time>2022-09-22T08:22:44Z</time>
      </trkpt>
      <trkpt lat="44.07351" lon="0.41036">
        <ele>99.3</ele>
        <time>2022-09-22T08:22:48Z</time>
      </trkpt>
      <trkpt lat="44.07346" lon="0.41039">
        <ele>98.9</ele>
        <time>2022-09-22T08:22:53Z</time>
      </trkpt>
      <trkpt lat="44.07341" lon="0.41041">
        <ele>98.5</ele>
        <time>2022-09-22T08:22:57Z</time>
      </trkpt>
      <trkpt lat="44.07337" lon="0.41046">
        <ele>98.1</ele>
        <time>2022-09-22T08:23:01Z</time>
      </trkpt>
      <trkpt lat="44.07333" lon="0.4105">
        <ele>97.9</ele>
        <time>2022-09-22T08:23:05Z</time>
      </trkpt>
      <trkpt lat="44.07328" lon="0.41053">
        <ele>98.3</ele>
        <time>2022-09-22T08:23:10Z</time>
      </trkpt>
      <trkpt lat="44.07324" lon="0.41056">
        <ele>98.3</ele>
        <time>2022-09-22T08:23:17Z</time>
      </trkpt>
      <trkpt lat="44.07319" lon="0.41058">
        <ele>98</ele>
        <time>2022-09-22T08:23:22Z</time>
      </trkpt>
      <trkpt lat="44.07315" lon="0.41062">
        <ele>98</ele>
        <time>2022-09-22T08:23:26Z</time>
      </trkpt>
      <trkpt lat="44.0731" lon="0.41066">
        <ele>97.4</ele>
        <time>2022-09-22T08:23:32Z</time>
      </trkpt>
      <trkpt lat="44.07306" lon="0.41069">
        <ele>96.8</ele>
        <time>2022-09-22T08:23:36Z</time>
      </trkpt>
      <trkpt lat="44.07301" lon="0.41072">
        <ele>95.4</ele>
        <time>2022-09-22T08:23:43Z</time>
      </trkpt>
      <trkpt lat="44.07297" lon="0.41075">
        <ele>94.8</ele>
        <time>2022-09-22T08:23:48Z</time>
      </trkpt>
      <trkpt lat="44.07292" lon="0.41078">
        <ele>94.3</ele>
        <time>2022-09-22T08:23:52Z</time>
      </trkpt>
      <trkpt lat="44.07287" lon="0.41079">
        <ele>93.6</ele>
        <time>2022-09-22T08:23:56Z</time>
      </trkpt>
      <trkpt lat="44.07283" lon="0.41083">
        <ele>93.8</ele>
        <time>2022-09-22T08:24:01Z</time>
      </trkpt>
      <trkpt lat="44.07279" lon="0.41089">
        <ele>93.8</ele>
        <time>2022-09-22T08:24:06Z</time>
      </trkpt>
      <trkpt lat="44.07276" lon="0.41094">
        <ele>94.2</ele>
        <time>2022-09-22T08:24:11Z</time>
      </trkpt>
      <trkpt lat="44.07273" lon="0.41099">
        <ele>94.7</ele>
        <time>2022-09-22T08:24:15Z</time>
      </trkpt>
      <trkpt lat="44.07268" lon="0.41101">
        <ele>95.3</ele>
        <time>2022-09-22T08:24:19Z</time>
      </trkpt>
      <trkpt lat="44.07264" lon="0.41106">
        <ele>96.7</ele>
        <time>2022-09-22T08:24:24Z</time>
      </trkpt>
      <trkpt lat="44.0726" lon="0.4111">
        <ele>98</ele>
        <time>2022-09-22T08:24:28Z</time>
      </trkpt>
      <trkpt lat="44.07257" lon="0.41115">
        <ele>99</ele>
        <time>2022-09-22T08:24:31Z</time>
      </trkpt>
      <trkpt lat="44.07253" lon="0.41119">
        <ele>100</ele>
        <time>2022-09-22T08:24:35Z</time>
      </trkpt>
      <trkpt lat="44.07247" lon="0.41123">
        <ele>101.4</ele>
        <time>2022-09-22T08:24:46Z</time>
      </trkpt>
      <trkpt lat="44.07242" lon="0.41127">
        <ele>103.5</ele>
        <time>2022-09-22T08:24:50Z</time>
      </trkpt>
      <trkpt lat="44.07238" lon="0.41131">
        <ele>105.5</ele>
        <time>2022-09-22T08:24:54Z</time>
      </trkpt>
      <trkpt lat="44.07236" lon="0.41137">
        <ele>106.9</ele>
        <time>2022-09-22T08:25:04Z</time>
      </trkpt>
      <trkpt lat="44.07233" lon="0.41142">
        <ele>108.8</ele>
        <time>2022-09-22T08:26:13Z</time>
      </trkpt>
      <trkpt lat="44.07228" lon="0.4114">
        <ele>109.5</ele>
        <time>2022-09-22T08:26:23Z</time>
      </trkpt>
      <trkpt lat="44.07233" lon="0.41139">
        <ele>106.2</ele>
        <time>2022-09-22T08:28:28Z</time>
      </trkpt>
      <trkpt lat="44.07234" lon="0.41145">
        <ele>104.7</ele>
        <time>2022-09-22T08:32:40Z</time>
      </trkpt>
      <trkpt lat="44.0723" lon="0.41148">
        <ele>103.8</ele>
        <time>2022-09-22T08:34:43Z</time>
      </trkpt>
      <trkpt lat="44.07228" lon="0.41154">
        <ele>103.8</ele>
        <time>2022-09-22T08:34:51Z</time>
      </trkpt>
      <trkpt lat="44.07226" lon="0.41159">
        <ele>104.2</ele>
        <time>2022-09-22T08:34:56Z</time>
      </trkpt>
      <trkpt lat="44.07222" lon="0.41164">
        <ele>104.8</ele>
        <time>2022-09-22T08:35:01Z</time>
      </trkpt>
      <trkpt lat="44.0722" lon="0.4117">
        <ele>105</ele>
        <time>2022-09-22T08:35:06Z</time>
      </trkpt>
      <trkpt lat="44.07218" lon="0.41176">
        <ele>104.7</ele>
        <time>2022-09-22T08:35:11Z</time>
      </trkpt>
      <trkpt lat="44.07216" lon="0.41182">
        <ele>104.1</ele>
        <time>2022-09-22T08:35:17Z</time>
      </trkpt>
      <trkpt lat="44.07214" lon="0.41188">
        <ele>103.9</ele>
        <time>2022-09-22T08:35:21Z</time>
      </trkpt>
      <trkpt lat="44.07212" lon="0.41194">
        <ele>103.9</ele>
        <time>2022-09-22T08:35:25Z</time>
      </trkpt>
      <trkpt lat="44.07209" lon="0.41201">
        <ele>104.2</ele>
        <time>2022-09-22T08:35:30Z</time>
      </trkpt>
      <trkpt lat="44.07207" lon="0.41207">
        <ele>103.9</ele>
        <time>2022-09-22T08:35:36Z</time>
      </trkpt>
      <trkpt lat="44.07204" lon="0.41213">
        <ele>103.6</ele>
        <time>2022-09-22T08:35:41Z</time>
      </trkpt>
      <trkpt lat="44.07201" lon="0.41218">
        <ele>103.7</ele>
        <time>2022-09-22T08:35:45Z</time>
      </trkpt>
      <trkpt lat="44.07198" lon="0.41224">
        <ele>103.6</ele>
        <time>2022-09-22T08:35:50Z</time>
      </trkpt>
      <trkpt lat="44.07195" lon="0.41229">
        <ele>103.8</ele>
        <time>2022-09-22T08:35:54Z</time>
      </trkpt>
      <trkpt lat="44.07192" lon="0.41234">
        <ele>104.1</ele>
        <time>2022-09-22T08:35:58Z</time>
      </trkpt>
      <trkpt lat="44.07189" lon="0.4124">
        <ele>104.5</ele>
        <time>2022-09-22T08:36:03Z</time>
      </trkpt>
      <trkpt lat="44.07186" lon="0.41246">
        <ele>104.7</ele>
        <time>2022-09-22T08:36:07Z</time>
      </trkpt>
      <trkpt lat="44.07183" lon="0.41251">
        <ele>104.6</ele>
        <time>2022-09-22T08:36:12Z</time>
      </trkpt>
      <trkpt lat="44.0718" lon="0.41258">
        <ele>105.3</ele>
        <time>2022-09-22T08:36:17Z</time>
      </trkpt>
      <trkpt lat="44.07177" lon="0.41264">
        <ele>106</ele>
        <time>2022-09-22T08:36:21Z</time>
      </trkpt>
      <trkpt lat="44.07175" lon="0.4127">
        <ele>106.4</ele>
        <time>2022-09-22T08:36:24Z</time>
      </trkpt>
      <trkpt lat="44.07173" lon="0.41276">
        <ele>106.8</ele>
        <time>2022-09-22T08:36:28Z</time>
      </trkpt>
      <trkpt lat="44.0717" lon="0.41282">
        <ele>107</ele>
        <time>2022-09-22T08:36:32Z</time>
      </trkpt>
      <trkpt lat="44.07168" lon="0.41288">
        <ele>107</ele>
        <time>2022-09-22T08:36:36Z</time>
      </trkpt>
      <trkpt lat="44.07167" lon="0.41294">
        <ele>107.4</ele>
        <time>2022-09-22T08:36:41Z</time>
      </trkpt>
      <trkpt lat="44.07164" lon="0.41299">
        <ele>107.4</ele>
        <time>2022-09-22T08:36:47Z</time>
      </trkpt>
      <trkpt lat="44.0716" lon="0.41305">
        <ele>107.9</ele>
        <time>2022-09-22T08:36:54Z</time>
      </trkpt>
      <trkpt lat="44.07158" lon="0.41311">
        <ele>108</ele>
        <time>2022-09-22T08:36:58Z</time>
      </trkpt>
      <trkpt lat="44.07156" lon="0.41318">
        <ele>106.9</ele>
        <time>2022-09-22T08:37:04Z</time>
      </trkpt>
      <trkpt lat="44.07155" lon="0.41325">
        <ele>106</ele>
        <time>2022-09-22T08:37:10Z</time>
      </trkpt>
      <trkpt lat="44.07153" lon="0.41332">
        <ele>104.5</ele>
        <time>2022-09-22T08:37:15Z</time>
      </trkpt>
      <trkpt lat="44.07152" lon="0.41338">
        <ele>103.8</ele>
        <time>2022-09-22T08:37:18Z</time>
      </trkpt>
      <trkpt lat="44.0715" lon="0.41345">
        <ele>103.3</ele>
        <time>2022-09-22T08:37:21Z</time>
      </trkpt>
      <trkpt lat="44.07148" lon="0.41351">
        <ele>102.9</ele>
        <time>2022-09-22T08:37:25Z</time>
      </trkpt>
      <trkpt lat="44.07145" lon="0.41357">
        <ele>102.5</ele>
        <time>2022-09-22T08:37:29Z</time>
      </trkpt>
      <trkpt lat="44.07143" lon="0.41364">
        <ele>102.2</ele>
        <time>2022-09-22T08:37:33Z</time>
      </trkpt>
      <trkpt lat="44.07141" lon="0.41369">
        <ele>102.2</ele>
        <time>2022-09-22T08:37:37Z</time>
      </trkpt>
      <trkpt lat="44.07139" lon="0.41375">
        <ele>102.2</ele>
        <time>2022-09-22T08:37:41Z</time>
      </trkpt>
      <trkpt lat="44.07136" lon="0.41381">
        <ele>102.7</ele>
        <time>2022-09-22T08:37:45Z</time>
      </trkpt>
      <trkpt lat="44.07133" lon="0.41387">
        <ele>102.8</ele>
        <time>2022-09-22T08:37:49Z</time>
      </trkpt>
      <trkpt lat="44.07131" lon="0.41392">
        <ele>103.2</ele>
        <time>2022-09-22T08:37:53Z</time>
      </trkpt>
      <trkpt lat="44.07128" lon="0.41398">
        <ele>103.7</ele>
        <time>2022-09-22T08:37:58Z</time>
      </trkpt>
      <trkpt lat="44.07124" lon="0.41403">
        <ele>104.6</ele>
        <time>2022-09-22T08:38:03Z</time>
      </trkpt>
      <trkpt lat="44.07121" lon="0.41408">
        <ele>105.2</ele>
        <time>2022-09-22T08:38:08Z</time>
      </trkpt>
      <trkpt lat="44.07118" lon="0.41413">
        <ele>105.2</ele>
        <time>2022-09-22T08:38:13Z</time>
      </trkpt>
      <trkpt lat="44.07115" lon="0.41419">
        <ele>105.4</ele>
        <time>2022-09-22T08:38:18Z</time>
      </trkpt>
      <trkpt lat="44.07112" lon="0.41425">
        <ele>105.7</ele>
        <time>2022-09-22T08:38:22Z</time>
      </trkpt>
      <trkpt lat="44.07109" lon="0.4143">
        <ele>106</ele>
        <time>2022-09-22T08:38:27Z</time>
      </trkpt>
      <trkpt lat="44.07106" lon="0.41436">
        <ele>105</ele>
        <time>2022-09-22T08:38:35Z</time>
      </trkpt>
      <trkpt lat="44.07103" lon="0.41442">
        <ele>104.5</ele>
        <time>2022-09-22T08:38:39Z</time>
      </trkpt>
      <trkpt lat="44.071" lon="0.41448">
        <ele>104.4</ele>
        <time>2022-09-22T08:38:43Z</time>
      </trkpt>
      <trkpt lat="44.07098" lon="0.41454">
        <ele>104.1</ele>
        <time>2022-09-22T08:38:46Z</time>
      </trkpt>
      <trkpt lat="44.07096" lon="0.41461">
        <ele>103.9</ele>
        <time>2022-09-22T08:38:50Z</time>
      </trkpt>
      <trkpt lat="44.07094" lon="0.41467">
        <ele>103.7</ele>
        <time>2022-09-22T08:38:53Z</time>
      </trkpt>
      <trkpt lat="44.07092" lon="0.41473">
        <ele>103.6</ele>
        <time>2022-09-22T08:38:57Z</time>
      </trkpt>
      <trkpt lat="44.07089" lon="0.41478">
        <ele>103.8</ele>
        <time>2022-09-22T08:39:00Z</time>
      </trkpt>
      <trkpt lat="44.07088" lon="0.41485">
        <ele>104</ele>
        <time>2022-09-22T08:39:04Z</time>
      </trkpt>
      <trkpt lat="44.07086" lon="0.41491">
        <ele>104.3</ele>
        <time>2022-09-22T08:39:09Z</time>
      </trkpt>
      <trkpt lat="44.07084" lon="0.41498">
        <ele>104.7</ele>
        <time>2022-09-22T08:39:14Z</time>
      </trkpt>
      <trkpt lat="44.07082" lon="0.41504">
        <ele>105.1</ele>
        <time>2022-09-22T08:39:18Z</time>
      </trkpt>
      <trkpt lat="44.07079" lon="0.41509">
        <ele>105.5</ele>
        <time>2022-09-22T08:39:22Z</time>
      </trkpt>
      <trkpt lat="44.07077" lon="0.41515">
        <ele>106</ele>
        <time>2022-09-22T08:39:26Z</time>
      </trkpt>
      <trkpt lat="44.07074" lon="0.4152">
        <ele>106.3</ele>
        <time>2022-09-22T08:39:31Z</time>
      </trkpt>
      <trkpt lat="44.07071" lon="0.41526">
        <ele>105.5</ele>
        <time>2022-09-22T08:39:37Z</time>
      </trkpt>
      <trkpt lat="44.07068" lon="0.41533">
        <ele>105.2</ele>
        <time>2022-09-22T08:39:40Z</time>
      </trkpt>
      <trkpt lat="44.07066" lon="0.4154">
        <ele>104.9</ele>
        <time>2022-09-22T08:39:43Z</time>
      </trkpt>
      <trkpt lat="44.07064" lon="0.41546">
        <ele>104.8</ele>
        <time>2022-09-22T08:39:46Z</time>
      </trkpt>
      <trkpt lat="44.07062" lon="0.41553">
        <ele>104.8</ele>
        <time>2022-09-22T08:39:50Z</time>
      </trkpt>
      <trkpt lat="44.07061" lon="0.4156">
        <ele>104.5</ele>
        <time>2022-09-22T08:39:54Z</time>
      </trkpt>
      <trkpt lat="44.07058" lon="0.41565">
        <ele>103.8</ele>
        <time>2022-09-22T08:39:59Z</time>
      </trkpt>
      <trkpt lat="44.07057" lon="0.41573">
        <ele>103.4</ele>
        <time>2022-09-22T08:40:04Z</time>
      </trkpt>
      <trkpt lat="44.07055" lon="0.4158">
        <ele>103.2</ele>
        <time>2022-09-22T08:40:09Z</time>
      </trkpt>
      <trkpt lat="44.07052" lon="0.41587">
        <ele>102.9</ele>
        <time>2022-09-22T08:40:14Z</time>
      </trkpt>
      <trkpt lat="44.07049" lon="0.41593">
        <ele>102.9</ele>
        <time>2022-09-22T08:40:18Z</time>
      </trkpt>
      <trkpt lat="44.07045" lon="0.416">
        <ele>102.6</ele>
        <time>2022-09-22T08:40:22Z</time>
      </trkpt>
      <trkpt lat="44.07042" lon="0.41605">
        <ele>102.2</ele>
        <time>2022-09-22T08:40:26Z</time>
      </trkpt>
      <trkpt lat="44.07039" lon="0.41611">
        <ele>102.3</ele>
        <time>2022-09-22T08:40:32Z</time>
      </trkpt>
      <trkpt lat="44.07037" lon="0.41617">
        <ele>102</ele>
        <time>2022-09-22T08:40:38Z</time>
      </trkpt>
      <trkpt lat="44.07033" lon="0.41622">
        <ele>101.4</ele>
        <time>2022-09-22T08:40:43Z</time>
      </trkpt>
      <trkpt lat="44.0703" lon="0.41627">
        <ele>100.6</ele>
        <time>2022-09-22T08:40:47Z</time>
      </trkpt>
      <trkpt lat="44.07027" lon="0.41633">
        <ele>99.7</ele>
        <time>2022-09-22T08:40:51Z</time>
      </trkpt>
      <trkpt lat="44.07024" lon="0.41638">
        <ele>98.8</ele>
        <time>2022-09-22T08:40:56Z</time>
      </trkpt>
      <trkpt lat="44.0702" lon="0.41644">
        <ele>97.8</ele>
        <time>2022-09-22T08:41:01Z</time>
      </trkpt>
      <trkpt lat="44.07017" lon="0.41648">
        <ele>97.4</ele>
        <time>2022-09-22T08:41:05Z</time>
      </trkpt>
      <trkpt lat="44.07013" lon="0.41653">
        <ele>97.2</ele>
        <time>2022-09-22T08:41:09Z</time>
      </trkpt>
      <trkpt lat="44.07009" lon="0.41658">
        <ele>97</ele>
        <time>2022-09-22T08:41:13Z</time>
      </trkpt>
      <trkpt lat="44.07005" lon="0.41663">
        <ele>96.6</ele>
        <time>2022-09-22T08:41:16Z</time>
      </trkpt>
      <trkpt lat="44.07001" lon="0.41666">
        <ele>96.3</ele>
        <time>2022-09-22T08:41:19Z</time>
      </trkpt>
      <trkpt lat="44.06997" lon="0.41669">
        <ele>96.3</ele>
        <time>2022-09-22T08:41:22Z</time>
      </trkpt>
      <trkpt lat="44.06993" lon="0.41673">
        <ele>96.9</ele>
        <time>2022-09-22T08:41:26Z</time>
      </trkpt>
      <trkpt lat="44.06989" lon="0.41679">
        <ele>97.9</ele>
        <time>2022-09-22T08:41:31Z</time>
      </trkpt>
      <trkpt lat="44.06985" lon="0.41684">
        <ele>98.6</ele>
        <time>2022-09-22T08:41:34Z</time>
      </trkpt>
      <trkpt lat="44.06981" lon="0.41689">
        <ele>99.1</ele>
        <time>2022-09-22T08:41:38Z</time>
      </trkpt>
      <trkpt lat="44.06978" lon="0.41693">
        <ele>98.6</ele>
        <time>2022-09-22T08:41:43Z</time>
      </trkpt>
      <trkpt lat="44.06973" lon="0.41696">
        <ele>98.3</ele>
        <time>2022-09-22T08:41:51Z</time>
      </trkpt>
      <trkpt lat="44.0697" lon="0.41702">
        <ele>98.7</ele>
        <time>2022-09-22T08:41:55Z</time>
      </trkpt>
      <trkpt lat="44.06968" lon="0.41708">
        <ele>98.9</ele>
        <time>2022-09-22T08:41:59Z</time>
      </trkpt>
      <trkpt lat="44.06964" lon="0.41713">
        <ele>99.1</ele>
        <time>2022-09-22T08:42:03Z</time>
      </trkpt>
      <trkpt lat="44.06961" lon="0.41718">
        <ele>100</ele>
        <time>2022-09-22T08:42:08Z</time>
      </trkpt>
      <trkpt lat="44.06957" lon="0.41723">
        <ele>101.5</ele>
        <time>2022-09-22T08:42:13Z</time>
      </trkpt>
      <trkpt lat="44.06953" lon="0.41727">
        <ele>102.6</ele>
        <time>2022-09-22T08:42:18Z</time>
      </trkpt>
      <trkpt lat="44.0695" lon="0.41731">
        <ele>103.3</ele>
        <time>2022-09-22T08:42:22Z</time>
      </trkpt>
      <trkpt lat="44.06946" lon="0.41735">
        <ele>104</ele>
        <time>2022-09-22T08:42:26Z</time>
      </trkpt>
      <trkpt lat="44.06942" lon="0.4174">
        <ele>104.7</ele>
        <time>2022-09-22T08:42:31Z</time>
      </trkpt>
      <trkpt lat="44.06937" lon="0.41743">
        <ele>105.6</ele>
        <time>2022-09-22T08:42:36Z</time>
      </trkpt>
      <trkpt lat="44.06933" lon="0.41747">
        <ele>106</ele>
        <time>2022-09-22T08:42:42Z</time>
      </trkpt>
      <trkpt lat="44.0693" lon="0.41751">
        <ele>106.2</ele>
        <time>2022-09-22T08:42:46Z</time>
      </trkpt>
      <trkpt lat="44.06925" lon="0.41756">
        <ele>106.6</ele>
        <time>2022-09-22T08:42:51Z</time>
      </trkpt>
      <trkpt lat="44.06922" lon="0.4176">
        <ele>107.1</ele>
        <time>2022-09-22T08:42:55Z</time>
      </trkpt>
      <trkpt lat="44.06918" lon="0.41765">
        <ele>107.7</ele>
        <time>2022-09-22T08:42:59Z</time>
      </trkpt>
      <trkpt lat="44.06914" lon="0.4177">
        <ele>108.8</ele>
        <time>2022-09-22T08:43:04Z</time>
      </trkpt>
      <trkpt lat="44.06911" lon="0.41775">
        <ele>109.3</ele>
        <time>2022-09-22T08:43:08Z</time>
      </trkpt>
      <trkpt lat="44.06907" lon="0.4178">
        <ele>109.2</ele>
        <time>2022-09-22T08:43:13Z</time>
      </trkpt>
      <trkpt lat="44.06905" lon="0.41785">
        <ele>108.9</ele>
        <time>2022-09-22T08:43:18Z</time>
      </trkpt>
      <trkpt lat="44.06902" lon="0.41792">
        <ele>108.6</ele>
        <time>2022-09-22T08:43:24Z</time>
      </trkpt>
      <trkpt lat="44.069" lon="0.41798">
        <ele>108.3</ele>
        <time>2022-09-22T08:43:29Z</time>
      </trkpt>
      <trkpt lat="44.06898" lon="0.41805">
        <ele>108.1</ele>
        <time>2022-09-22T08:43:34Z</time>
      </trkpt>
      <trkpt lat="44.06895" lon="0.41811">
        <ele>108.2</ele>
        <time>2022-09-22T08:43:38Z</time>
      </trkpt>
      <trkpt lat="44.06893" lon="0.41818">
        <ele>108.4</ele>
        <time>2022-09-22T08:43:42Z</time>
      </trkpt>
      <trkpt lat="44.0689" lon="0.41824">
        <ele>108.5</ele>
        <time>2022-09-22T08:43:46Z</time>
      </trkpt>
      <trkpt lat="44.06887" lon="0.4183">
        <ele>108.9</ele>
        <time>2022-09-22T08:43:50Z</time>
      </trkpt>
      <trkpt lat="44.06883" lon="0.41835">
        <ele>109.7</ele>
        <time>2022-09-22T08:43:55Z</time>
      </trkpt>
      <trkpt lat="44.0688" lon="0.41842">
        <ele>110.8</ele>
        <time>2022-09-22T08:44:00Z</time>
      </trkpt>
      <trkpt lat="44.06876" lon="0.41846">
        <ele>111.9</ele>
        <time>2022-09-22T08:44:05Z</time>
      </trkpt>
      <trkpt lat="44.06872" lon="0.41851">
        <ele>112.8</ele>
        <time>2022-09-22T08:44:10Z</time>
      </trkpt>
      <trkpt lat="44.06869" lon="0.41856">
        <ele>113.6</ele>
        <time>2022-09-22T08:44:15Z</time>
      </trkpt>
      <trkpt lat="44.06865" lon="0.41862">
        <ele>114.1</ele>
        <time>2022-09-22T08:44:20Z</time>
      </trkpt>
      <trkpt lat="44.06862" lon="0.41868">
        <ele>114.3</ele>
        <time>2022-09-22T08:44:25Z</time>
      </trkpt>
      <trkpt lat="44.06858" lon="0.41873">
        <ele>114.5</ele>
        <time>2022-09-22T08:44:31Z</time>
      </trkpt>
      <trkpt lat="44.06854" lon="0.41877">
        <ele>114.1</ele>
        <time>2022-09-22T08:44:36Z</time>
      </trkpt>
      <trkpt lat="44.0685" lon="0.41882">
        <ele>113.3</ele>
        <time>2022-09-22T08:44:41Z</time>
      </trkpt>
      <trkpt lat="44.06847" lon="0.41886">
        <ele>112.9</ele>
        <time>2022-09-22T08:44:45Z</time>
      </trkpt>
      <trkpt lat="44.06843" lon="0.4189">
        <ele>112.6</ele>
        <time>2022-09-22T08:44:49Z</time>
      </trkpt>
      <trkpt lat="44.06839" lon="0.41895">
        <ele>112.6</ele>
        <time>2022-09-22T08:44:54Z</time>
      </trkpt>
      <trkpt lat="44.06835" lon="0.419">
        <ele>112.7</ele>
        <time>2022-09-22T08:44:59Z</time>
      </trkpt>
      <trkpt lat="44.06831" lon="0.41904">
        <ele>112.5</ele>
        <time>2022-09-22T08:45:03Z</time>
      </trkpt>
      <trkpt lat="44.06828" lon="0.4191">
        <ele>112.4</ele>
        <time>2022-09-22T08:45:08Z</time>
      </trkpt>
      <trkpt lat="44.06825" lon="0.41915">
        <ele>112.2</ele>
        <time>2022-09-22T08:45:13Z</time>
      </trkpt>
      <trkpt lat="44.06821" lon="0.41921">
        <ele>112.1</ele>
        <time>2022-09-22T08:45:17Z</time>
      </trkpt>
      <trkpt lat="44.06818" lon="0.41925">
        <ele>112.1</ele>
        <time>2022-09-22T08:45:22Z</time>
      </trkpt>
      <trkpt lat="44.06814" lon="0.4193">
        <ele>112</ele>
        <time>2022-09-22T08:45:27Z</time>
      </trkpt>
      <trkpt lat="44.0681" lon="0.41934">
        <ele>112.1</ele>
        <time>2022-09-22T08:45:31Z</time>
      </trkpt>
      <trkpt lat="44.06806" lon="0.41939">
        <ele>112.4</ele>
        <time>2022-09-22T08:45:35Z</time>
      </trkpt>
      <trkpt lat="44.06803" lon="0.41943">
        <ele>112.7</ele>
        <time>2022-09-22T08:45:39Z</time>
      </trkpt>
      <trkpt lat="44.068" lon="0.41949">
        <ele>113</ele>
        <time>2022-09-22T08:45:43Z</time>
      </trkpt>
      <trkpt lat="44.06797" lon="0.41955">
        <ele>113.3</ele>
        <time>2022-09-22T08:45:47Z</time>
      </trkpt>
      <trkpt lat="44.06794" lon="0.4196">
        <ele>113.6</ele>
        <time>2022-09-22T08:45:51Z</time>
      </trkpt>
      <trkpt lat="44.0679" lon="0.41965">
        <ele>113.8</ele>
        <time>2022-09-22T08:45:57Z</time>
      </trkpt>
      <trkpt lat="44.06786" lon="0.4197">
        <ele>113.8</ele>
        <time>2022-09-22T08:46:02Z</time>
      </trkpt>
      <trkpt lat="44.06782" lon="0.41974">
        <ele>113.6</ele>
        <time>2022-09-22T08:46:06Z</time>
      </trkpt>
      <trkpt lat="44.06778" lon="0.41977">
        <ele>113.8</ele>
        <time>2022-09-22T08:46:11Z</time>
      </trkpt>
      <trkpt lat="44.06773" lon="0.41979">
        <ele>114</ele>
        <time>2022-09-22T08:46:16Z</time>
      </trkpt>
      <trkpt lat="44.06768" lon="0.4198">
        <ele>114.6</ele>
        <time>2022-09-22T08:46:21Z</time>
      </trkpt>
      <trkpt lat="44.06764" lon="0.41979">
        <ele>115.1</ele>
        <time>2022-09-22T08:46:26Z</time>
      </trkpt>
      <trkpt lat="44.06758" lon="0.41978">
        <ele>115.6</ele>
        <time>2022-09-22T08:46:30Z</time>
      </trkpt>
      <trkpt lat="44.06753" lon="0.41977">
        <ele>116</ele>
        <time>2022-09-22T08:46:34Z</time>
      </trkpt>
      <trkpt lat="44.06748" lon="0.41976">
        <ele>116.4</ele>
        <time>2022-09-22T08:46:38Z</time>
      </trkpt>
      <trkpt lat="44.06743" lon="0.41975">
        <ele>116.8</ele>
        <time>2022-09-22T08:46:42Z</time>
      </trkpt>
      <trkpt lat="44.06738" lon="0.41974">
        <ele>117.1</ele>
        <time>2022-09-22T08:46:46Z</time>
      </trkpt>
      <trkpt lat="44.06733" lon="0.41971">
        <ele>117.2</ele>
        <time>2022-09-22T08:46:51Z</time>
      </trkpt>
      <trkpt lat="44.06728" lon="0.4197">
        <ele>117.3</ele>
        <time>2022-09-22T08:46:56Z</time>
      </trkpt>
      <trkpt lat="44.06724" lon="0.41966">
        <ele>117.2</ele>
        <time>2022-09-22T08:47:02Z</time>
      </trkpt>
      <trkpt lat="44.06719" lon="0.41964">
        <ele>116.6</ele>
        <time>2022-09-22T08:47:07Z</time>
      </trkpt>
      <trkpt lat="44.06714" lon="0.41964">
        <ele>116.1</ele>
        <time>2022-09-22T08:47:11Z</time>
      </trkpt>
      <trkpt lat="44.06709" lon="0.41964">
        <ele>115.8</ele>
        <time>2022-09-22T08:47:15Z</time>
      </trkpt>
      <trkpt lat="44.06704" lon="0.41963">
        <ele>115.7</ele>
        <time>2022-09-22T08:47:19Z</time>
      </trkpt>
      <trkpt lat="44.06699" lon="0.41961">
        <ele>115.8</ele>
        <time>2022-09-22T08:47:24Z</time>
      </trkpt>
      <trkpt lat="44.06694" lon="0.41959">
        <ele>116.1</ele>
        <time>2022-09-22T08:47:28Z</time>
      </trkpt>
      <trkpt lat="44.06688" lon="0.41957">
        <ele>116.5</ele>
        <time>2022-09-22T08:47:33Z</time>
      </trkpt>
      <trkpt lat="44.06683" lon="0.41955">
        <ele>117.2</ele>
        <time>2022-09-22T08:47:38Z</time>
      </trkpt>
      <trkpt lat="44.06679" lon="0.41954">
        <ele>117.7</ele>
        <time>2022-09-22T08:47:42Z</time>
      </trkpt>
      <trkpt lat="44.06674" lon="0.41952">
        <ele>118</ele>
        <time>2022-09-22T08:47:46Z</time>
      </trkpt>
      <trkpt lat="44.06669" lon="0.41951">
        <ele>118.5</ele>
        <time>2022-09-22T08:47:51Z</time>
      </trkpt>
      <trkpt lat="44.06664" lon="0.4195">
        <ele>119.1</ele>
        <time>2022-09-22T08:47:56Z</time>
      </trkpt>
      <trkpt lat="44.0666" lon="0.41948">
        <ele>119.8</ele>
        <time>2022-09-22T08:48:01Z</time>
      </trkpt>
      <trkpt lat="44.06654" lon="0.41947">
        <ele>120.7</ele>
        <time>2022-09-22T08:48:06Z</time>
      </trkpt>
      <trkpt lat="44.0665" lon="0.41946">
        <ele>121.3</ele>
        <time>2022-09-22T08:48:11Z</time>
      </trkpt>
      <trkpt lat="44.06645" lon="0.41944">
        <ele>121.8</ele>
        <time>2022-09-22T08:48:17Z</time>
      </trkpt>
      <trkpt lat="44.0664" lon="0.41942">
        <ele>122.2</ele>
        <time>2022-09-22T08:48:22Z</time>
      </trkpt>
      <trkpt lat="44.06636" lon="0.41938">
        <ele>122.3</ele>
        <time>2022-09-22T08:48:27Z</time>
      </trkpt>
      <trkpt lat="44.06635" lon="0.4193">
        <ele>122.4</ele>
        <time>2022-09-22T08:48:32Z</time>
      </trkpt>
      <trkpt lat="44.06634" lon="0.41924">
        <ele>122.5</ele>
        <time>2022-09-22T08:48:36Z</time>
      </trkpt>
      <trkpt lat="44.06634" lon="0.41917">
        <ele>122.8</ele>
        <time>2022-09-22T08:48:41Z</time>
      </trkpt>
      <trkpt lat="44.06633" lon="0.4191">
        <ele>123.4</ele>
        <time>2022-09-22T08:48:46Z</time>
      </trkpt>
      <trkpt lat="44.06633" lon="0.41903">
        <ele>123.8</ele>
        <time>2022-09-22T08:48:50Z</time>
      </trkpt>
      <trkpt lat="44.06634" lon="0.41897">
        <ele>124.1</ele>
        <time>2022-09-22T08:48:54Z</time>
      </trkpt>
      <trkpt lat="44.06634" lon="0.41891">
        <ele>124.3</ele>
        <time>2022-09-22T08:48:58Z</time>
      </trkpt>
      <trkpt lat="44.06635" lon="0.41883">
        <ele>124.6</ele>
        <time>2022-09-22T08:49:02Z</time>
      </trkpt>
      <trkpt lat="44.06635" lon="0.41877">
        <ele>124.6</ele>
        <time>2022-09-22T08:49:06Z</time>
      </trkpt>
      <trkpt lat="44.06635" lon="0.4187">
        <ele>124.5</ele>
        <time>2022-09-22T08:49:10Z</time>
      </trkpt>
      <trkpt lat="44.06634" lon="0.41863">
        <ele>124.1</ele>
        <time>2022-09-22T08:49:14Z</time>
      </trkpt>
      <trkpt lat="44.06633" lon="0.41857">
        <ele>123.6</ele>
        <time>2022-09-22T08:49:19Z</time>
      </trkpt>
      <trkpt lat="44.06632" lon="0.4185">
        <ele>123.3</ele>
        <time>2022-09-22T08:49:27Z</time>
      </trkpt>
      <trkpt lat="44.06632" lon="0.41844">
        <ele>123.1</ele>
        <time>2022-09-22T08:49:34Z</time>
      </trkpt>
      <trkpt lat="44.06632" lon="0.41836">
        <ele>122.8</ele>
        <time>2022-09-22T08:49:39Z</time>
      </trkpt>
      <trkpt lat="44.06631" lon="0.4183">
        <ele>122.9</ele>
        <time>2022-09-22T08:49:44Z</time>
      </trkpt>
      <trkpt lat="44.06628" lon="0.41826">
        <ele>123</ele>
        <time>2022-09-22T08:49:48Z</time>
      </trkpt>
      <trkpt lat="44.06628" lon="0.41832">
        <ele>121.9</ele>
        <time>2022-09-22T08:50:30Z</time>
      </trkpt>
      <trkpt lat="44.06631" lon="0.41838">
        <ele>121.6</ele>
        <time>2022-09-22T08:50:41Z</time>
      </trkpt>
      <trkpt lat="44.06627" lon="0.41842">
        <ele>123.8</ele>
        <time>2022-09-22T08:51:31Z</time>
      </trkpt>
      <trkpt lat="44.0663" lon="0.41847">
        <ele>124.4</ele>
        <time>2022-09-22T08:51:37Z</time>
      </trkpt>
      <trkpt lat="44.06627" lon="0.41851">
        <ele>124.5</ele>
        <time>2022-09-22T08:56:42Z</time>
      </trkpt>
      <trkpt lat="44.06632" lon="0.41851">
        <ele>124.1</ele>
        <time>2022-09-22T08:57:45Z</time>
      </trkpt>
      <trkpt lat="44.06629" lon="0.41846">
        <ele>126.5</ele>
        <time>2022-09-22T08:58:29Z</time>
      </trkpt>
      <trkpt lat="44.06627" lon="0.41852">
        <ele>126.1</ele>
        <time>2022-09-22T08:59:05Z</time>
      </trkpt>
      <trkpt lat="44.06627" lon="0.41845">
        <ele>126</ele>
        <time>2022-09-22T09:00:08Z</time>
      </trkpt>
      <trkpt lat="44.06627" lon="0.41838">
        <ele>126.1</ele>
        <time>2022-09-22T09:00:14Z</time>
      </trkpt>
      <trkpt lat="44.0663" lon="0.41831">
        <ele>125.4</ele>
        <time>2022-09-22T09:00:19Z</time>
      </trkpt>
      <trkpt lat="44.0663" lon="0.41824">
        <ele>125.2</ele>
        <time>2022-09-22T09:00:24Z</time>
      </trkpt>
      <trkpt lat="44.06628" lon="0.41818">
        <ele>125.4</ele>
        <time>2022-09-22T09:00:29Z</time>
      </trkpt>
      <trkpt lat="44.06626" lon="0.41812">
        <ele>125.3</ele>
        <time>2022-09-22T09:00:33Z</time>
      </trkpt>
      <trkpt lat="44.06625" lon="0.41805">
        <ele>125</ele>
        <time>2022-09-22T09:00:37Z</time>
      </trkpt>
      <trkpt lat="44.06625" lon="0.41798">
        <ele>124.8</ele>
        <time>2022-09-22T09:00:42Z</time>
      </trkpt>
      <trkpt lat="44.06624" lon="0.41792">
        <ele>124.9</ele>
        <time>2022-09-22T09:00:46Z</time>
      </trkpt>
      <trkpt lat="44.06622" lon="0.41786">
        <ele>124.5</ele>
        <time>2022-09-22T09:00:51Z</time>
      </trkpt>
      <trkpt lat="44.06621" lon="0.41779">
        <ele>124.1</ele>
        <time>2022-09-22T09:00:56Z</time>
      </trkpt>
      <trkpt lat="44.06622" lon="0.41772">
        <ele>124.8</ele>
        <time>2022-09-22T09:01:01Z</time>
      </trkpt>
      <trkpt lat="44.06623" lon="0.41765">
        <ele>125.4</ele>
        <time>2022-09-22T09:01:05Z</time>
      </trkpt>
      <trkpt lat="44.06624" lon="0.41758">
        <ele>125.8</ele>
        <time>2022-09-22T09:01:09Z</time>
      </trkpt>
      <trkpt lat="44.06623" lon="0.41751">
        <ele>126</ele>
        <time>2022-09-22T09:01:13Z</time>
      </trkpt>
      <trkpt lat="44.06625" lon="0.41744">
        <ele>126</ele>
        <time>2022-09-22T09:01:17Z</time>
      </trkpt>
      <trkpt lat="44.06626" lon="0.41738">
        <ele>125.8</ele>
        <time>2022-09-22T09:01:21Z</time>
      </trkpt>
      <trkpt lat="44.06627" lon="0.41731">
        <ele>125.9</ele>
        <time>2022-09-22T09:01:25Z</time>
      </trkpt>
      <trkpt lat="44.0663" lon="0.41725">
        <ele>125.9</ele>
        <time>2022-09-22T09:01:28Z</time>
      </trkpt>
      <trkpt lat="44.06632" lon="0.41719">
        <ele>126</ele>
        <time>2022-09-22T09:01:32Z</time>
      </trkpt>
      <trkpt lat="44.06634" lon="0.41712">
        <ele>126</ele>
        <time>2022-09-22T09:01:37Z</time>
      </trkpt>
      <trkpt lat="44.06636" lon="0.41705">
        <ele>126.1</ele>
        <time>2022-09-22T09:01:41Z</time>
      </trkpt>
      <trkpt lat="44.06639" lon="0.417">
        <ele>126</ele>
        <time>2022-09-22T09:01:46Z</time>
      </trkpt>
      <trkpt lat="44.06641" lon="0.41693">
        <ele>125.5</ele>
        <time>2022-09-22T09:01:51Z</time>
      </trkpt>
      <trkpt lat="44.06643" lon="0.41687">
        <ele>125.3</ele>
        <time>2022-09-22T09:01:55Z</time>
      </trkpt>
      <trkpt lat="44.06645" lon="0.41681">
        <ele>125.2</ele>
        <time>2022-09-22T09:01:59Z</time>
      </trkpt>
      <trkpt lat="44.06646" lon="0.41674">
        <ele>124.6</ele>
        <time>2022-09-22T09:02:03Z</time>
      </trkpt>
      <trkpt lat="44.06648" lon="0.41669">
        <ele>123.6</ele>
        <time>2022-09-22T09:02:07Z</time>
      </trkpt>
      <trkpt lat="44.0665" lon="0.41662">
        <ele>122.7</ele>
        <time>2022-09-22T09:02:11Z</time>
      </trkpt>
      <trkpt lat="44.06651" lon="0.41655">
        <ele>121.9</ele>
        <time>2022-09-22T09:02:16Z</time>
      </trkpt>
      <trkpt lat="44.06652" lon="0.41649">
        <ele>121.8</ele>
        <time>2022-09-22T09:02:20Z</time>
      </trkpt>
      <trkpt lat="44.06654" lon="0.41643">
        <ele>121.7</ele>
        <time>2022-09-22T09:02:24Z</time>
      </trkpt>
      <trkpt lat="44.06657" lon="0.41636">
        <ele>121.3</ele>
        <time>2022-09-22T09:02:28Z</time>
      </trkpt>
      <trkpt lat="44.06659" lon="0.41629">
        <ele>121.1</ele>
        <time>2022-09-22T09:02:32Z</time>
      </trkpt>
      <trkpt lat="44.06661" lon="0.41622">
        <ele>121.1</ele>
        <time>2022-09-22T09:02:36Z</time>
      </trkpt>
      <trkpt lat="44.06663" lon="0.41617">
        <ele>121.4</ele>
        <time>2022-09-22T09:02:40Z</time>
      </trkpt>
      <trkpt lat="44.06666" lon="0.41611">
        <ele>121.6</ele>
        <time>2022-09-22T09:02:44Z</time>
      </trkpt>
      <trkpt lat="44.06668" lon="0.41604">
        <ele>122</ele>
        <time>2022-09-22T09:02:49Z</time>
      </trkpt>
      <trkpt lat="44.0667" lon="0.41598">
        <ele>122.2</ele>
        <time>2022-09-22T09:02:53Z</time>
      </trkpt>
      <trkpt lat="44.06673" lon="0.41592">
        <ele>122.4</ele>
        <time>2022-09-22T09:02:58Z</time>
      </trkpt>
      <trkpt lat="44.06675" lon="0.41584">
        <ele>122.9</ele>
        <time>2022-09-22T09:03:02Z</time>
      </trkpt>
      <trkpt lat="44.06676" lon="0.41578">
        <ele>123.3</ele>
        <time>2022-09-22T09:03:06Z</time>
      </trkpt>
      <trkpt lat="44.06676" lon="0.41572">
        <ele>123.3</ele>
        <time>2022-09-22T09:03:11Z</time>
      </trkpt>
      <trkpt lat="44.06677" lon="0.41565">
        <ele>123.4</ele>
        <time>2022-09-22T09:03:15Z</time>
      </trkpt>
      <trkpt lat="44.06678" lon="0.41558">
        <ele>123.3</ele>
        <time>2022-09-22T09:03:20Z</time>
      </trkpt>
      <trkpt lat="44.06679" lon="0.41551">
        <ele>122.7</ele>
        <time>2022-09-22T09:03:25Z</time>
      </trkpt>
      <trkpt lat="44.06681" lon="0.41544">
        <ele>122.8</ele>
        <time>2022-09-22T09:03:29Z</time>
      </trkpt>
      <trkpt lat="44.06684" lon="0.41538">
        <ele>123</ele>
        <time>2022-09-22T09:03:33Z</time>
      </trkpt>
      <trkpt lat="44.06685" lon="0.41532">
        <ele>123.2</ele>
        <time>2022-09-22T09:03:36Z</time>
      </trkpt>
      <trkpt lat="44.06686" lon="0.41525">
        <ele>122.7</ele>
        <time>2022-09-22T09:03:40Z</time>
      </trkpt>
      <trkpt lat="44.06687" lon="0.4152">
        <ele>122</ele>
        <time>2022-09-22T09:03:44Z</time>
      </trkpt>
      <trkpt lat="44.06688" lon="0.41513">
        <ele>121.1</ele>
        <time>2022-09-22T09:03:49Z</time>
      </trkpt>
      <trkpt lat="44.06689" lon="0.41505">
        <ele>120.6</ele>
        <time>2022-09-22T09:03:54Z</time>
      </trkpt>
      <trkpt lat="44.06691" lon="0.41498">
        <ele>120.1</ele>
        <time>2022-09-22T09:03:59Z</time>
      </trkpt>
      <trkpt lat="44.06692" lon="0.41491">
        <ele>119.4</ele>
        <time>2022-09-22T09:04:03Z</time>
      </trkpt>
      <trkpt lat="44.06694" lon="0.41484">
        <ele>118.2</ele>
        <time>2022-09-22T09:04:08Z</time>
      </trkpt>
      <trkpt lat="44.06696" lon="0.41476">
        <ele>117.2</ele>
        <time>2022-09-22T09:04:13Z</time>
      </trkpt>
      <trkpt lat="44.06698" lon="0.4147">
        <ele>116.5</ele>
        <time>2022-09-22T09:04:17Z</time>
      </trkpt>
      <trkpt lat="44.06702" lon="0.41466">
        <ele>116.2</ele>
        <time>2022-09-22T09:04:22Z</time>
      </trkpt>
      <trkpt lat="44.06704" lon="0.41459">
        <ele>116</ele>
        <time>2022-09-22T09:04:27Z</time>
      </trkpt>
      <trkpt lat="44.06707" lon="0.41454">
        <ele>116.1</ele>
        <time>2022-09-22T09:04:31Z</time>
      </trkpt>
      <trkpt lat="44.06711" lon="0.41449">
        <ele>116.4</ele>
        <time>2022-09-22T09:04:35Z</time>
      </trkpt>
      <trkpt lat="44.06713" lon="0.41443">
        <ele>116.9</ele>
        <time>2022-09-22T09:04:39Z</time>
      </trkpt>
      <trkpt lat="44.06716" lon="0.41438">
        <ele>117.2</ele>
        <time>2022-09-22T09:04:43Z</time>
      </trkpt>
      <trkpt lat="44.06718" lon="0.41432">
        <ele>117.2</ele>
        <time>2022-09-22T09:04:47Z</time>
      </trkpt>
      <trkpt lat="44.06721" lon="0.41427">
        <ele>117.1</ele>
        <time>2022-09-22T09:04:51Z</time>
      </trkpt>
      <trkpt lat="44.06725" lon="0.41422">
        <ele>117.2</ele>
        <time>2022-09-22T09:04:56Z</time>
      </trkpt>
      <trkpt lat="44.06727" lon="0.41415">
        <ele>117.4</ele>
        <time>2022-09-22T09:05:00Z</time>
      </trkpt>
      <trkpt lat="44.0673" lon="0.4141">
        <ele>117.9</ele>
        <time>2022-09-22T09:05:04Z</time>
      </trkpt>
      <trkpt lat="44.06733" lon="0.41405">
        <ele>118.1</ele>
        <time>2022-09-22T09:05:08Z</time>
      </trkpt>
      <trkpt lat="44.06736" lon="0.414">
        <ele>117.9</ele>
        <time>2022-09-22T09:05:12Z</time>
      </trkpt>
      <trkpt lat="44.06739" lon="0.41394">
        <ele>117.2</ele>
        <time>2022-09-22T09:05:17Z</time>
      </trkpt>
      <trkpt lat="44.06741" lon="0.41388">
        <ele>116.3</ele>
        <time>2022-09-22T09:05:21Z</time>
      </trkpt>
      <trkpt lat="44.06745" lon="0.41382">
        <ele>115.5</ele>
        <time>2022-09-22T09:05:26Z</time>
      </trkpt>
      <trkpt lat="44.06747" lon="0.41376">
        <ele>115.2</ele>
        <time>2022-09-22T09:05:30Z</time>
      </trkpt>
      <trkpt lat="44.06749" lon="0.4137">
        <ele>115.2</ele>
        <time>2022-09-22T09:05:34Z</time>
      </trkpt>
      <trkpt lat="44.06751" lon="0.41364">
        <ele>115.3</ele>
        <time>2022-09-22T09:05:38Z</time>
      </trkpt>
      <trkpt lat="44.06754" lon="0.41358">
        <ele>114.9</ele>
        <time>2022-09-22T09:05:42Z</time>
      </trkpt>
      <trkpt lat="44.06757" lon="0.41353">
        <ele>114.6</ele>
        <time>2022-09-22T09:05:46Z</time>
      </trkpt>
      <trkpt lat="44.06759" lon="0.41348">
        <ele>113.9</ele>
        <time>2022-09-22T09:05:54Z</time>
      </trkpt>
      <trkpt lat="44.06761" lon="0.41341">
        <ele>113.8</ele>
        <time>2022-09-22T09:05:59Z</time>
      </trkpt>
      <trkpt lat="44.06762" lon="0.41334">
        <ele>113.2</ele>
        <time>2022-09-22T09:06:03Z</time>
      </trkpt>
      <trkpt lat="44.06764" lon="0.41326">
        <ele>111.8</ele>
        <time>2022-09-22T09:06:07Z</time>
      </trkpt>
      <trkpt lat="44.06767" lon="0.4132">
        <ele>109.9</ele>
        <time>2022-09-22T09:06:11Z</time>
      </trkpt>
      <trkpt lat="44.0677" lon="0.41315">
        <ele>108.5</ele>
        <time>2022-09-22T09:06:15Z</time>
      </trkpt>
      <trkpt lat="44.06773" lon="0.41309">
        <ele>108.2</ele>
        <time>2022-09-22T09:06:19Z</time>
      </trkpt>
      <trkpt lat="44.06775" lon="0.41302">
        <ele>107.8</ele>
        <time>2022-09-22T09:06:23Z</time>
      </trkpt>
      <trkpt lat="44.06777" lon="0.41296">
        <ele>107.6</ele>
        <time>2022-09-22T09:06:27Z</time>
      </trkpt>
      <trkpt lat="44.06778" lon="0.41289">
        <ele>107.2</ele>
        <time>2022-09-22T09:06:32Z</time>
      </trkpt>
      <trkpt lat="44.06781" lon="0.41284">
        <ele>106.8</ele>
        <time>2022-09-22T09:06:37Z</time>
      </trkpt>
      <trkpt lat="44.06783" lon="0.41277">
        <ele>107</ele>
        <time>2022-09-22T09:06:41Z</time>
      </trkpt>
      <trkpt lat="44.06786" lon="0.41272">
        <ele>106.9</ele>
        <time>2022-09-22T09:06:46Z</time>
      </trkpt>
      <trkpt lat="44.06788" lon="0.41265">
        <ele>105.9</ele>
        <time>2022-09-22T09:06:52Z</time>
      </trkpt>
      <trkpt lat="44.06788" lon="0.41258">
        <ele>105.4</ele>
        <time>2022-09-22T09:06:57Z</time>
      </trkpt>
      <trkpt lat="44.06787" lon="0.41251">
        <ele>104.8</ele>
        <time>2022-09-22T09:07:03Z</time>
      </trkpt>
      <trkpt lat="44.06787" lon="0.41244">
        <ele>104.1</ele>
        <time>2022-09-22T09:07:08Z</time>
      </trkpt>
      <trkpt lat="44.06785" lon="0.41238">
        <ele>103.6</ele>
        <time>2022-09-22T09:07:13Z</time>
      </trkpt>
      <trkpt lat="44.06781" lon="0.41235">
        <ele>102.9</ele>
        <time>2022-09-22T09:07:18Z</time>
      </trkpt>
      <trkpt lat="44.06776" lon="0.41235">
        <ele>101.3</ele>
        <time>2022-09-22T09:07:26Z</time>
      </trkpt>
      <trkpt lat="44.06771" lon="0.41231">
        <ele>100.4</ele>
        <time>2022-09-22T09:07:31Z</time>
      </trkpt>
      <trkpt lat="44.06769" lon="0.41225">
        <ele>99.6</ele>
        <time>2022-09-22T09:07:35Z</time>
      </trkpt>
      <trkpt lat="44.06767" lon="0.41219">
        <ele>99.1</ele>
        <time>2022-09-22T09:07:39Z</time>
      </trkpt>
      <trkpt lat="44.06764" lon="0.41212">
        <ele>98</ele>
        <time>2022-09-22T09:07:44Z</time>
      </trkpt>
      <trkpt lat="44.06762" lon="0.41206">
        <ele>97</ele>
        <time>2022-09-22T09:07:48Z</time>
      </trkpt>
      <trkpt lat="44.06761" lon="0.412">
        <ele>96.4</ele>
        <time>2022-09-22T09:07:52Z</time>
      </trkpt>
      <trkpt lat="44.06757" lon="0.41196">
        <ele>95.8</ele>
        <time>2022-09-22T09:07:57Z</time>
      </trkpt>
      <trkpt lat="44.06752" lon="0.41193">
        <ele>95.5</ele>
        <time>2022-09-22T09:08:02Z</time>
      </trkpt>
      <trkpt lat="44.06749" lon="0.41187">
        <ele>96.4</ele>
        <time>2022-09-22T09:08:07Z</time>
      </trkpt>
      <trkpt lat="44.06747" lon="0.4118">
        <ele>97.8</ele>
        <time>2022-09-22T09:08:12Z</time>
      </trkpt>
      <trkpt lat="44.06745" lon="0.41174">
        <ele>98.8</ele>
        <time>2022-09-22T09:08:16Z</time>
      </trkpt>
      <trkpt lat="44.06742" lon="0.41168">
        <ele>99.7</ele>
        <time>2022-09-22T09:08:21Z</time>
      </trkpt>
      <trkpt lat="44.0674" lon="0.41163">
        <ele>100.2</ele>
        <time>2022-09-22T09:08:25Z</time>
      </trkpt>
      <trkpt lat="44.06737" lon="0.41157">
        <ele>100.7</ele>
        <time>2022-09-22T09:08:29Z</time>
      </trkpt>
      <trkpt lat="44.06735" lon="0.4115">
        <ele>101.5</ele>
        <time>2022-09-22T09:08:34Z</time>
      </trkpt>
      <trkpt lat="44.06732" lon="0.41144">
        <ele>102.3</ele>
        <time>2022-09-22T09:08:38Z</time>
      </trkpt>
      <trkpt lat="44.0673" lon="0.41139">
        <ele>103.1</ele>
        <time>2022-09-22T09:08:42Z</time>
      </trkpt>
      <trkpt lat="44.06728" lon="0.41132">
        <ele>104.1</ele>
        <time>2022-09-22T09:08:48Z</time>
      </trkpt>
      <trkpt lat="44.06726" lon="0.41126">
        <ele>104</ele>
        <time>2022-09-22T09:08:54Z</time>
      </trkpt>
      <trkpt lat="44.06724" lon="0.4112">
        <ele>103.9</ele>
        <time>2022-09-22T09:08:59Z</time>
      </trkpt>
      <trkpt lat="44.06721" lon="0.41114">
        <ele>103.7</ele>
        <time>2022-09-22T09:09:04Z</time>
      </trkpt>
      <trkpt lat="44.06719" lon="0.41108">
        <ele>103.6</ele>
        <time>2022-09-22T09:09:07Z</time>
      </trkpt>
      <trkpt lat="44.06719" lon="0.41101">
        <ele>103.4</ele>
        <time>2022-09-22T09:09:13Z</time>
      </trkpt>
      <trkpt lat="44.06718" lon="0.41095">
        <ele>104.6</ele>
        <time>2022-09-22T09:09:22Z</time>
      </trkpt>
      <trkpt lat="44.06715" lon="0.41089">
        <ele>104.3</ele>
        <time>2022-09-22T09:09:26Z</time>
      </trkpt>
      <trkpt lat="44.06713" lon="0.41083">
        <ele>104.2</ele>
        <time>2022-09-22T09:09:29Z</time>
      </trkpt>
      <trkpt lat="44.06711" lon="0.41076">
        <ele>104.2</ele>
        <time>2022-09-22T09:09:33Z</time>
      </trkpt>
      <trkpt lat="44.06709" lon="0.41071">
        <ele>105</ele>
        <time>2022-09-22T09:09:38Z</time>
      </trkpt>
      <trkpt lat="44.06707" lon="0.41065">
        <ele>106.1</ele>
        <time>2022-09-22T09:09:43Z</time>
      </trkpt>
      <trkpt lat="44.06707" lon="0.41058">
        <ele>106.9</ele>
        <time>2022-09-22T09:09:48Z</time>
      </trkpt>
      <trkpt lat="44.06706" lon="0.41051">
        <ele>107</ele>
        <time>2022-09-22T09:09:53Z</time>
      </trkpt>
      <trkpt lat="44.06706" lon="0.41045">
        <ele>107.5</ele>
        <time>2022-09-22T09:09:57Z</time>
      </trkpt>
      <trkpt lat="44.06704" lon="0.41038">
        <ele>108.1</ele>
        <time>2022-09-22T09:10:01Z</time>
      </trkpt>
      <trkpt lat="44.06701" lon="0.41032">
        <ele>108.8</ele>
        <time>2022-09-22T09:10:05Z</time>
      </trkpt>
      <trkpt lat="44.06698" lon="0.41027">
        <ele>109.2</ele>
        <time>2022-09-22T09:10:09Z</time>
      </trkpt>
      <trkpt lat="44.06696" lon="0.41022">
        <ele>109.4</ele>
        <time>2022-09-22T09:10:13Z</time>
      </trkpt>
      <trkpt lat="44.06696" lon="0.41015">
        <ele>110.1</ele>
        <time>2022-09-22T09:10:17Z</time>
      </trkpt>
      <trkpt lat="44.06697" lon="0.41009">
        <ele>110.7</ele>
        <time>2022-09-22T09:10:21Z</time>
      </trkpt>
      <trkpt lat="44.06696" lon="0.41001">
        <ele>111.6</ele>
        <time>2022-09-22T09:10:27Z</time>
      </trkpt>
      <trkpt lat="44.06696" lon="0.40995">
        <ele>112.3</ele>
        <time>2022-09-22T09:10:32Z</time>
      </trkpt>
      <trkpt lat="44.06694" lon="0.40988">
        <ele>113.1</ele>
        <time>2022-09-22T09:10:37Z</time>
      </trkpt>
      <trkpt lat="44.06693" lon="0.40982">
        <ele>113.8</ele>
        <time>2022-09-22T09:10:42Z</time>
      </trkpt>
      <trkpt lat="44.06692" lon="0.40975">
        <ele>114.6</ele>
        <time>2022-09-22T09:10:47Z</time>
      </trkpt>
      <trkpt lat="44.06692" lon="0.40968">
        <ele>115.5</ele>
        <time>2022-09-22T09:10:52Z</time>
      </trkpt>
      <trkpt lat="44.06691" lon="0.40962">
        <ele>116.7</ele>
        <time>2022-09-22T09:10:58Z</time>
      </trkpt>
      <trkpt lat="44.06688" lon="0.40956">
        <ele>117.6</ele>
        <time>2022-09-22T09:11:03Z</time>
      </trkpt>
      <trkpt lat="44.06687" lon="0.40949">
        <ele>117.9</ele>
        <time>2022-09-22T09:11:07Z</time>
      </trkpt>
      <trkpt lat="44.06686" lon="0.40943">
        <ele>118.1</ele>
        <time>2022-09-22T09:11:11Z</time>
      </trkpt>
      <trkpt lat="44.06685" lon="0.40936">
        <ele>118</ele>
        <time>2022-09-22T09:11:16Z</time>
      </trkpt>
      <trkpt lat="44.06684" lon="0.40929">
        <ele>118.4</ele>
        <time>2022-09-22T09:11:20Z</time>
      </trkpt>
      <trkpt lat="44.06684" lon="0.40922">
        <ele>119.6</ele>
        <time>2022-09-22T09:11:26Z</time>
      </trkpt>
      <trkpt lat="44.06683" lon="0.40916">
        <ele>120.3</ele>
        <time>2022-09-22T09:11:30Z</time>
      </trkpt>
      <trkpt lat="44.06682" lon="0.40908">
        <ele>120.7</ele>
        <time>2022-09-22T09:11:35Z</time>
      </trkpt>
      <trkpt lat="44.0668" lon="0.40902">
        <ele>121</ele>
        <time>2022-09-22T09:11:41Z</time>
      </trkpt>
      <trkpt lat="44.06678" lon="0.40896">
        <ele>121.1</ele>
        <time>2022-09-22T09:11:47Z</time>
      </trkpt>
      <trkpt lat="44.06678" lon="0.4089">
        <ele>121.3</ele>
        <time>2022-09-22T09:11:52Z</time>
      </trkpt>
      <trkpt lat="44.06675" lon="0.40884">
        <ele>121.5</ele>
        <time>2022-09-22T09:11:57Z</time>
      </trkpt>
      <trkpt lat="44.06673" lon="0.40877">
        <ele>122.1</ele>
        <time>2022-09-22T09:12:03Z</time>
      </trkpt>
      <trkpt lat="44.06672" lon="0.40871">
        <ele>122</ele>
        <time>2022-09-22T09:12:09Z</time>
      </trkpt>
      <trkpt lat="44.06671" lon="0.40864">
        <ele>121.8</ele>
        <time>2022-09-22T09:12:14Z</time>
      </trkpt>
      <trkpt lat="44.0667" lon="0.40856">
        <ele>121.9</ele>
        <time>2022-09-22T09:12:19Z</time>
      </trkpt>
      <trkpt lat="44.06671" lon="0.4085">
        <ele>122.3</ele>
        <time>2022-09-22T09:12:23Z</time>
      </trkpt>
      <trkpt lat="44.06672" lon="0.40843">
        <ele>123.1</ele>
        <time>2022-09-22T09:12:27Z</time>
      </trkpt>
      <trkpt lat="44.06672" lon="0.40837">
        <ele>123.9</ele>
        <time>2022-09-22T09:12:31Z</time>
      </trkpt>
      <trkpt lat="44.06672" lon="0.40829">
        <ele>125.2</ele>
        <time>2022-09-22T09:12:35Z</time>
      </trkpt>
      <trkpt lat="44.06672" lon="0.40822">
        <ele>126.8</ele>
        <time>2022-09-22T09:12:40Z</time>
      </trkpt>
      <trkpt lat="44.06674" lon="0.40816">
        <ele>128</ele>
        <time>2022-09-22T09:12:46Z</time>
      </trkpt>
      <trkpt lat="44.06673" lon="0.40809">
        <ele>128</ele>
        <time>2022-09-22T09:12:51Z</time>
      </trkpt>
      <trkpt lat="44.06673" lon="0.40802">
        <ele>127.6</ele>
        <time>2022-09-22T09:12:55Z</time>
      </trkpt>
      <trkpt lat="44.06676" lon="0.40796">
        <ele>127.2</ele>
        <time>2022-09-22T09:12:59Z</time>
      </trkpt>
      <trkpt lat="44.06678" lon="0.4079">
        <ele>127.4</ele>
        <time>2022-09-22T09:13:04Z</time>
      </trkpt>
      <trkpt lat="44.06678" lon="0.40783">
        <ele>127.2</ele>
        <time>2022-09-22T09:13:10Z</time>
      </trkpt>
      <trkpt lat="44.0668" lon="0.40776">
        <ele>127.6</ele>
        <time>2022-09-22T09:13:15Z</time>
      </trkpt>
      <trkpt lat="44.06681" lon="0.40769">
        <ele>128.3</ele>
        <time>2022-09-22T09:13:19Z</time>
      </trkpt>
      <trkpt lat="44.06683" lon="0.40763">
        <ele>129.7</ele>
        <time>2022-09-22T09:13:24Z</time>
      </trkpt>
      <trkpt lat="44.06685" lon="0.40756">
        <ele>131.7</ele>
        <time>2022-09-22T09:13:30Z</time>
      </trkpt>
      <trkpt lat="44.06687" lon="0.40749">
        <ele>133.3</ele>
        <time>2022-09-22T09:13:35Z</time>
      </trkpt>
      <trkpt lat="44.06688" lon="0.40742">
        <ele>134.2</ele>
        <time>2022-09-22T09:13:39Z</time>
      </trkpt>
      <trkpt lat="44.06689" lon="0.40735">
        <ele>135</ele>
        <time>2022-09-22T09:13:44Z</time>
      </trkpt>
      <trkpt lat="44.06689" lon="0.40728">
        <ele>135.6</ele>
        <time>2022-09-22T09:13:49Z</time>
      </trkpt>
      <trkpt lat="44.06691" lon="0.4072">
        <ele>135.5</ele>
        <time>2022-09-22T09:13:54Z</time>
      </trkpt>
      <trkpt lat="44.06691" lon="0.40714">
        <ele>135.4</ele>
        <time>2022-09-22T09:13:58Z</time>
      </trkpt>
      <trkpt lat="44.06691" lon="0.40707">
        <ele>135.3</ele>
        <time>2022-09-22T09:14:04Z</time>
      </trkpt>
      <trkpt lat="44.06689" lon="0.407">
        <ele>135.7</ele>
        <time>2022-09-22T09:14:08Z</time>
      </trkpt>
      <trkpt lat="44.06688" lon="0.40693">
        <ele>136</ele>
        <time>2022-09-22T09:14:12Z</time>
      </trkpt>
      <trkpt lat="44.06686" lon="0.40687">
        <ele>136.7</ele>
        <time>2022-09-22T09:14:16Z</time>
      </trkpt>
      <trkpt lat="44.06685" lon="0.40681">
        <ele>137.9</ele>
        <time>2022-09-22T09:14:21Z</time>
      </trkpt>
      <trkpt lat="44.06683" lon="0.40676">
        <ele>138.7</ele>
        <time>2022-09-22T09:14:26Z</time>
      </trkpt>
      <trkpt lat="44.0668" lon="0.40671">
        <ele>139</ele>
        <time>2022-09-22T09:14:31Z</time>
      </trkpt>
      <trkpt lat="44.06678" lon="0.40665">
        <ele>138.4</ele>
        <time>2022-09-22T09:14:36Z</time>
      </trkpt>
      <trkpt lat="44.06674" lon="0.40659">
        <ele>138</ele>
        <time>2022-09-22T09:14:40Z</time>
      </trkpt>
      <trkpt lat="44.06671" lon="0.40653">
        <ele>137.8</ele>
        <time>2022-09-22T09:14:44Z</time>
      </trkpt>
      <trkpt lat="44.06669" lon="0.40646">
        <ele>138</ele>
        <time>2022-09-22T09:14:48Z</time>
      </trkpt>
      <trkpt lat="44.06667" lon="0.40639">
        <ele>138.3</ele>
        <time>2022-09-22T09:14:52Z</time>
      </trkpt>
      <trkpt lat="44.06665" lon="0.40633">
        <ele>138.3</ele>
        <time>2022-09-22T09:14:56Z</time>
      </trkpt>
      <trkpt lat="44.06663" lon="0.40628">
        <ele>137.8</ele>
        <time>2022-09-22T09:15:02Z</time>
      </trkpt>
      <trkpt lat="44.06661" lon="0.40621">
        <ele>137.5</ele>
        <time>2022-09-22T09:15:09Z</time>
      </trkpt>
      <trkpt lat="44.06659" lon="0.40614">
        <ele>138.4</ele>
        <time>2022-09-22T09:15:16Z</time>
      </trkpt>
      <trkpt lat="44.06658" lon="0.40608">
        <ele>139.2</ele>
        <time>2022-09-22T09:15:19Z</time>
      </trkpt>
      <trkpt lat="44.06656" lon="0.40602">
        <ele>140.1</ele>
        <time>2022-09-22T09:15:22Z</time>
      </trkpt>
      <trkpt lat="44.06654" lon="0.40596">
        <ele>141</ele>
        <time>2022-09-22T09:15:25Z</time>
      </trkpt>
      <trkpt lat="44.06653" lon="0.40589">
        <ele>142.3</ele>
        <time>2022-09-22T09:15:29Z</time>
      </trkpt>
      <trkpt lat="44.06651" lon="0.40583">
        <ele>143</ele>
        <time>2022-09-22T09:15:32Z</time>
      </trkpt>
      <trkpt lat="44.06649" lon="0.40577">
        <ele>143.4</ele>
        <time>2022-09-22T09:15:35Z</time>
      </trkpt>
      <trkpt lat="44.06648" lon="0.40571">
        <ele>144.6</ele>
        <time>2022-09-22T09:15:40Z</time>
      </trkpt>
      <trkpt lat="44.06644" lon="0.40566">
        <ele>144.4</ele>
        <time>2022-09-22T09:15:48Z</time>
      </trkpt>
      <trkpt lat="44.06641" lon="0.40562">
        <ele>144.2</ele>
        <time>2022-09-22T09:15:52Z</time>
      </trkpt>
      <trkpt lat="44.06637" lon="0.40558">
        <ele>144</ele>
        <time>2022-09-22T09:15:57Z</time>
      </trkpt>
      <trkpt lat="44.06632" lon="0.40554">
        <ele>144.2</ele>
        <time>2022-09-22T09:16:03Z</time>
      </trkpt>
      <trkpt lat="44.06629" lon="0.4055">
        <ele>144.2</ele>
        <time>2022-09-22T09:16:09Z</time>
      </trkpt>
      <trkpt lat="44.06627" lon="0.40543">
        <ele>143.9</ele>
        <time>2022-09-22T09:18:09Z</time>
      </trkpt>
      <trkpt lat="44.06625" lon="0.40538">
        <ele>141.9</ele>
        <time>2022-09-22T09:25:36Z</time>
      </trkpt>
      <trkpt lat="44.06624" lon="0.40531">
        <ele>142.5</ele>
        <time>2022-09-22T09:25:39Z</time>
      </trkpt>
      <trkpt lat="44.06624" lon="0.40523">
        <ele>142.7</ele>
        <time>2022-09-22T09:25:42Z</time>
      </trkpt>
      <trkpt lat="44.06622" lon="0.40517">
        <ele>143.1</ele>
        <time>2022-09-22T09:25:46Z</time>
      </trkpt>
      <trkpt lat="44.06622" lon="0.4051">
        <ele>143.8</ele>
        <time>2022-09-22T09:25:52Z</time>
      </trkpt>
      <trkpt lat="44.06623" lon="0.40502">
        <ele>144.3</ele>
        <time>2022-09-22T09:25:57Z</time>
      </trkpt>
      <trkpt lat="44.06623" lon="0.40496">
        <ele>144.5</ele>
        <time>2022-09-22T09:26:01Z</time>
      </trkpt>
      <trkpt lat="44.06623" lon="0.40489">
        <ele>144.8</ele>
        <time>2022-09-22T09:26:05Z</time>
      </trkpt>
      <trkpt lat="44.06624" lon="0.40483">
        <ele>145.2</ele>
        <time>2022-09-22T09:26:09Z</time>
      </trkpt>
      <trkpt lat="44.06624" lon="0.40476">
        <ele>146</ele>
        <time>2022-09-22T09:26:14Z</time>
      </trkpt>
      <trkpt lat="44.06625" lon="0.40469">
        <ele>146.6</ele>
        <time>2022-09-22T09:26:19Z</time>
      </trkpt>
      <trkpt lat="44.06625" lon="0.40461">
        <ele>146.8</ele>
        <time>2022-09-22T09:26:24Z</time>
      </trkpt>
      <trkpt lat="44.06627" lon="0.40455">
        <ele>146.5</ele>
        <time>2022-09-22T09:26:28Z</time>
      </trkpt>
      <trkpt lat="44.06627" lon="0.40448">
        <ele>146.5</ele>
        <time>2022-09-22T09:26:32Z</time>
      </trkpt>
      <trkpt lat="44.06628" lon="0.40442">
        <ele>147.4</ele>
        <time>2022-09-22T09:26:37Z</time>
      </trkpt>
      <trkpt lat="44.06629" lon="0.40435">
        <ele>148</ele>
        <time>2022-09-22T09:26:42Z</time>
      </trkpt>
      <trkpt lat="44.06631" lon="0.40429">
        <ele>148.3</ele>
        <time>2022-09-22T09:26:46Z</time>
      </trkpt>
      <trkpt lat="44.06631" lon="0.40422">
        <ele>148.2</ele>
        <time>2022-09-22T09:26:50Z</time>
      </trkpt>
      <trkpt lat="44.06631" lon="0.40416">
        <ele>148.6</ele>
        <time>2022-09-22T09:26:53Z</time>
      </trkpt>
      <trkpt lat="44.06632" lon="0.40409">
        <ele>150.4</ele>
        <time>2022-09-22T09:26:57Z</time>
      </trkpt>
      <trkpt lat="44.06632" lon="0.40402">
        <ele>151.7</ele>
        <time>2022-09-22T09:27:01Z</time>
      </trkpt>
      <trkpt lat="44.06633" lon="0.40396">
        <ele>152.6</ele>
        <time>2022-09-22T09:27:07Z</time>
      </trkpt>
      <trkpt lat="44.06633" lon="0.40389">
        <ele>152.3</ele>
        <time>2022-09-22T09:27:11Z</time>
      </trkpt>
      <trkpt lat="44.06633" lon="0.40383">
        <ele>151.5</ele>
        <time>2022-09-22T09:27:15Z</time>
      </trkpt>
      <trkpt lat="44.06634" lon="0.40376">
        <ele>150.4</ele>
        <time>2022-09-22T09:27:20Z</time>
      </trkpt>
      <trkpt lat="44.06635" lon="0.40369">
        <ele>149.9</ele>
        <time>2022-09-22T09:27:24Z</time>
      </trkpt>
      <trkpt lat="44.06636" lon="0.40362">
        <ele>149.5</ele>
        <time>2022-09-22T09:27:28Z</time>
      </trkpt>
      <trkpt lat="44.06636" lon="0.40355">
        <ele>149.5</ele>
        <time>2022-09-22T09:27:32Z</time>
      </trkpt>
      <trkpt lat="44.06637" lon="0.40349">
        <ele>150.1</ele>
        <time>2022-09-22T09:27:36Z</time>
      </trkpt>
      <trkpt lat="44.06638" lon="0.40342">
        <ele>151</ele>
        <time>2022-09-22T09:27:40Z</time>
      </trkpt>
      <trkpt lat="44.06638" lon="0.40336">
        <ele>151.7</ele>
        <time>2022-09-22T09:27:45Z</time>
      </trkpt>
      <trkpt lat="44.06639" lon="0.40328">
        <ele>152.1</ele>
        <time>2022-09-22T09:27:51Z</time>
      </trkpt>
      <trkpt lat="44.0664" lon="0.40322">
        <ele>151.7</ele>
        <time>2022-09-22T09:27:55Z</time>
      </trkpt>
      <trkpt lat="44.0664" lon="0.40316">
        <ele>151.2</ele>
        <time>2022-09-22T09:28:00Z</time>
      </trkpt>
      <trkpt lat="44.0664" lon="0.40309">
        <ele>150.5</ele>
        <time>2022-09-22T09:28:05Z</time>
      </trkpt>
      <trkpt lat="44.06639" lon="0.40303">
        <ele>150.1</ele>
        <time>2022-09-22T09:28:09Z</time>
      </trkpt>
      <trkpt lat="44.06638" lon="0.40296">
        <ele>149.9</ele>
        <time>2022-09-22T09:28:14Z</time>
      </trkpt>
      <trkpt lat="44.06639" lon="0.40289">
        <ele>149.8</ele>
        <time>2022-09-22T09:28:18Z</time>
      </trkpt>
      <trkpt lat="44.0664" lon="0.40282">
        <ele>149.8</ele>
        <time>2022-09-22T09:28:22Z</time>
      </trkpt>
      <trkpt lat="44.06639" lon="0.40275">
        <ele>149.8</ele>
        <time>2022-09-22T09:28:27Z</time>
      </trkpt>
      <trkpt lat="44.06638" lon="0.40268">
        <ele>150.2</ele>
        <time>2022-09-22T09:28:32Z</time>
      </trkpt>
      <trkpt lat="44.06639" lon="0.40261">
        <ele>150.5</ele>
        <time>2022-09-22T09:28:36Z</time>
      </trkpt>
      <trkpt lat="44.06639" lon="0.40255">
        <ele>150.6</ele>
        <time>2022-09-22T09:28:41Z</time>
      </trkpt>
      <trkpt lat="44.06639" lon="0.40247">
        <ele>150.3</ele>
        <time>2022-09-22T09:28:46Z</time>
      </trkpt>
      <trkpt lat="44.06639" lon="0.4024">
        <ele>149.9</ele>
        <time>2022-09-22T09:28:50Z</time>
      </trkpt>
      <trkpt lat="44.06638" lon="0.40234">
        <ele>150</ele>
        <time>2022-09-22T09:28:54Z</time>
      </trkpt>
      <trkpt lat="44.06638" lon="0.40227">
        <ele>150.1</ele>
        <time>2022-09-22T09:28:58Z</time>
      </trkpt>
      <trkpt lat="44.06638" lon="0.4022">
        <ele>150.5</ele>
        <time>2022-09-22T09:29:02Z</time>
      </trkpt>
      <trkpt lat="44.06638" lon="0.40213">
        <ele>151.1</ele>
        <time>2022-09-22T09:29:06Z</time>
      </trkpt>
      <trkpt lat="44.06638" lon="0.40206">
        <ele>151.3</ele>
        <time>2022-09-22T09:29:10Z</time>
      </trkpt>
      <trkpt lat="44.06638" lon="0.40199">
        <ele>150.5</ele>
        <time>2022-09-22T09:29:15Z</time>
      </trkpt>
      <trkpt lat="44.06638" lon="0.40193">
        <ele>150.2</ele>
        <time>2022-09-22T09:29:19Z</time>
      </trkpt>
      <trkpt lat="44.06638" lon="0.40186">
        <ele>150.5</ele>
        <time>2022-09-22T09:29:23Z</time>
      </trkpt>
      <trkpt lat="44.06638" lon="0.40179">
        <ele>151.4</ele>
        <time>2022-09-22T09:29:28Z</time>
      </trkpt>
      <trkpt lat="44.06639" lon="0.40172">
        <ele>151.7</ele>
        <time>2022-09-22T09:29:34Z</time>
      </trkpt>
      <trkpt lat="44.0664" lon="0.40164">
        <ele>151.9</ele>
        <time>2022-09-22T09:29:39Z</time>
      </trkpt>
      <trkpt lat="44.0664" lon="0.40157">
        <ele>152.5</ele>
        <time>2022-09-22T09:29:43Z</time>
      </trkpt>
      <trkpt lat="44.0664" lon="0.40148">
        <ele>153.4</ele>
        <time>2022-09-22T09:29:47Z</time>
      </trkpt>
      <trkpt lat="44.06641" lon="0.40142">
        <ele>154.3</ele>
        <time>2022-09-22T09:29:51Z</time>
      </trkpt>
      <trkpt lat="44.06642" lon="0.40135">
        <ele>155.1</ele>
        <time>2022-09-22T09:29:56Z</time>
      </trkpt>
      <trkpt lat="44.06643" lon="0.40127">
        <ele>155.7</ele>
        <time>2022-09-22T09:30:01Z</time>
      </trkpt>
      <trkpt lat="44.06642" lon="0.4012">
        <ele>156.1</ele>
        <time>2022-09-22T09:30:05Z</time>
      </trkpt>
      <trkpt lat="44.06642" lon="0.40113">
        <ele>156</ele>
        <time>2022-09-22T09:30:09Z</time>
      </trkpt>
      <trkpt lat="44.06643" lon="0.40106">
        <ele>155.2</ele>
        <time>2022-09-22T09:30:14Z</time>
      </trkpt>
      <trkpt lat="44.06643" lon="0.401">
        <ele>154.7</ele>
        <time>2022-09-22T09:30:18Z</time>
      </trkpt>
      <trkpt lat="44.06644" lon="0.40093">
        <ele>155</ele>
        <time>2022-09-22T09:30:27Z</time>
      </trkpt>
      <trkpt lat="44.06642" lon="0.40087">
        <ele>155.3</ele>
        <time>2022-09-22T09:30:32Z</time>
      </trkpt>
      <trkpt lat="44.06638" lon="0.4008">
        <ele>155.4</ele>
        <time>2022-09-22T09:30:37Z</time>
      </trkpt>
      <trkpt lat="44.06633" lon="0.40077">
        <ele>155.2</ele>
        <time>2022-09-22T09:30:41Z</time>
      </trkpt>
      <trkpt lat="44.0663" lon="0.40072">
        <ele>154.1</ele>
        <time>2022-09-22T09:30:45Z</time>
      </trkpt>
      <trkpt lat="44.06631" lon="0.40065">
        <ele>153.1</ele>
        <time>2022-09-22T09:30:49Z</time>
      </trkpt>
      <trkpt lat="44.06634" lon="0.40059">
        <ele>151.8</ele>
        <time>2022-09-22T09:30:53Z</time>
      </trkpt>
      <trkpt lat="44.06635" lon="0.40052">
        <ele>150.9</ele>
        <time>2022-09-22T09:30:57Z</time>
      </trkpt>
      <trkpt lat="44.06637" lon="0.40046">
        <ele>150.4</ele>
        <time>2022-09-22T09:31:01Z</time>
      </trkpt>
      <trkpt lat="44.06638" lon="0.4004">
        <ele>150.1</ele>
        <time>2022-09-22T09:31:07Z</time>
      </trkpt>
      <trkpt lat="44.0664" lon="0.40032">
        <ele>150.5</ele>
        <time>2022-09-22T09:31:13Z</time>
      </trkpt>
      <trkpt lat="44.06641" lon="0.40024">
        <ele>150.9</ele>
        <time>2022-09-22T09:31:17Z</time>
      </trkpt>
      <trkpt lat="44.06643" lon="0.40017">
        <ele>151</ele>
        <time>2022-09-22T09:31:21Z</time>
      </trkpt>
      <trkpt lat="44.06644" lon="0.4001">
        <ele>151</ele>
        <time>2022-09-22T09:31:25Z</time>
      </trkpt>
      <trkpt lat="44.06646" lon="0.40004">
        <ele>150.9</ele>
        <time>2022-09-22T09:31:30Z</time>
      </trkpt>
      <trkpt lat="44.06649" lon="0.39999">
        <ele>150.9</ele>
        <time>2022-09-22T09:31:33Z</time>
      </trkpt>
      <trkpt lat="44.06651" lon="0.39992">
        <ele>151.5</ele>
        <time>2022-09-22T09:31:37Z</time>
      </trkpt>
      <trkpt lat="44.06652" lon="0.39986">
        <ele>152.6</ele>
        <time>2022-09-22T09:31:41Z</time>
      </trkpt>
      <trkpt lat="44.06653" lon="0.3998">
        <ele>153.4</ele>
        <time>2022-09-22T09:31:45Z</time>
      </trkpt>
      <trkpt lat="44.06653" lon="0.39973">
        <ele>153.9</ele>
        <time>2022-09-22T09:31:50Z</time>
      </trkpt>
      <trkpt lat="44.06653" lon="0.39966">
        <ele>154.1</ele>
        <time>2022-09-22T09:31:56Z</time>
      </trkpt>
      <trkpt lat="44.06654" lon="0.3996">
        <ele>153.9</ele>
        <time>2022-09-22T09:32:01Z</time>
      </trkpt>
      <trkpt lat="44.06654" lon="0.39952">
        <ele>153.6</ele>
        <time>2022-09-22T09:32:06Z</time>
      </trkpt>
      <trkpt lat="44.06654" lon="0.39946">
        <ele>153.4</ele>
        <time>2022-09-22T09:32:10Z</time>
      </trkpt>
      <trkpt lat="44.06655" lon="0.39938">
        <ele>153.1</ele>
        <time>2022-09-22T09:32:14Z</time>
      </trkpt>
      <trkpt lat="44.06657" lon="0.39931">
        <ele>152.2</ele>
        <time>2022-09-22T09:32:19Z</time>
      </trkpt>
      <trkpt lat="44.06657" lon="0.39924">
        <ele>151.4</ele>
        <time>2022-09-22T09:32:23Z</time>
      </trkpt>
      <trkpt lat="44.06657" lon="0.39916">
        <ele>151</ele>
        <time>2022-09-22T09:32:28Z</time>
      </trkpt>
      <trkpt lat="44.06658" lon="0.3991">
        <ele>151.5</ele>
        <time>2022-09-22T09:32:32Z</time>
      </trkpt>
      <trkpt lat="44.0666" lon="0.39903">
        <ele>152.2</ele>
        <time>2022-09-22T09:32:37Z</time>
      </trkpt>
      <trkpt lat="44.06661" lon="0.39896">
        <ele>152.3</ele>
        <time>2022-09-22T09:32:41Z</time>
      </trkpt>
      <trkpt lat="44.06663" lon="0.39889">
        <ele>152.4</ele>
        <time>2022-09-22T09:32:47Z</time>
      </trkpt>
      <trkpt lat="44.06663" lon="0.39881">
        <ele>152</ele>
        <time>2022-09-22T09:32:53Z</time>
      </trkpt>
      <trkpt lat="44.06664" lon="0.39875">
        <ele>151.5</ele>
        <time>2022-09-22T09:32:57Z</time>
      </trkpt>
      <trkpt lat="44.06664" lon="0.39867">
        <ele>151</ele>
        <time>2022-09-22T09:33:01Z</time>
      </trkpt>
      <trkpt lat="44.06664" lon="0.39861">
        <ele>150.6</ele>
        <time>2022-09-22T09:33:05Z</time>
      </trkpt>
      <trkpt lat="44.06665" lon="0.39855">
        <ele>150.2</ele>
        <time>2022-09-22T09:33:09Z</time>
      </trkpt>
      <trkpt lat="44.06666" lon="0.39847">
        <ele>149.7</ele>
        <time>2022-09-22T09:33:13Z</time>
      </trkpt>
      <trkpt lat="44.06668" lon="0.39841">
        <ele>149.6</ele>
        <time>2022-09-22T09:33:16Z</time>
      </trkpt>
      <trkpt lat="44.06668" lon="0.39834">
        <ele>149.8</ele>
        <time>2022-09-22T09:33:19Z</time>
      </trkpt>
      <trkpt lat="44.06669" lon="0.39826">
        <ele>149.9</ele>
        <time>2022-09-22T09:33:23Z</time>
      </trkpt>
      <trkpt lat="44.0667" lon="0.39819">
        <ele>149.9</ele>
        <time>2022-09-22T09:33:27Z</time>
      </trkpt>
      <trkpt lat="44.06671" lon="0.39812">
        <ele>150</ele>
        <time>2022-09-22T09:33:31Z</time>
      </trkpt>
      <trkpt lat="44.06672" lon="0.39806">
        <ele>150.5</ele>
        <time>2022-09-22T09:33:35Z</time>
      </trkpt>
      <trkpt lat="44.06673" lon="0.39799">
        <ele>151</ele>
        <time>2022-09-22T09:33:39Z</time>
      </trkpt>
      <trkpt lat="44.06673" lon="0.39792">
        <ele>151.7</ele>
        <time>2022-09-22T09:33:44Z</time>
      </trkpt>
      <trkpt lat="44.06675" lon="0.39786">
        <ele>152.4</ele>
        <time>2022-09-22T09:33:49Z</time>
      </trkpt>
      <trkpt lat="44.06676" lon="0.39779">
        <ele>152.8</ele>
        <time>2022-09-22T09:33:53Z</time>
      </trkpt>
      <trkpt lat="44.06676" lon="0.39772">
        <ele>152.9</ele>
        <time>2022-09-22T09:33:57Z</time>
      </trkpt>
      <trkpt lat="44.06677" lon="0.39765">
        <ele>152.4</ele>
        <time>2022-09-22T09:34:02Z</time>
      </trkpt>
      <trkpt lat="44.06678" lon="0.39759">
        <ele>151.7</ele>
        <time>2022-09-22T09:34:06Z</time>
      </trkpt>
      <trkpt lat="44.06679" lon="0.39753">
        <ele>150.9</ele>
        <time>2022-09-22T09:34:10Z</time>
      </trkpt>
      <trkpt lat="44.0668" lon="0.39745">
        <ele>149.7</ele>
        <time>2022-09-22T09:34:15Z</time>
      </trkpt>
      <trkpt lat="44.0668" lon="0.39738">
        <ele>149.3</ele>
        <time>2022-09-22T09:34:20Z</time>
      </trkpt>
      <trkpt lat="44.06681" lon="0.3973">
        <ele>149.8</ele>
        <time>2022-09-22T09:34:25Z</time>
      </trkpt>
      <trkpt lat="44.0668" lon="0.39723">
        <ele>150.3</ele>
        <time>2022-09-22T09:34:29Z</time>
      </trkpt>
      <trkpt lat="44.0668" lon="0.39715">
        <ele>151.2</ele>
        <time>2022-09-22T09:34:34Z</time>
      </trkpt>
      <trkpt lat="44.0668" lon="0.39708">
        <ele>152.1</ele>
        <time>2022-09-22T09:34:39Z</time>
      </trkpt>
      <trkpt lat="44.06681" lon="0.39701">
        <ele>152.6</ele>
        <time>2022-09-22T09:34:43Z</time>
      </trkpt>
      <trkpt lat="44.06682" lon="0.39693">
        <ele>152.9</ele>
        <time>2022-09-22T09:34:47Z</time>
      </trkpt>
      <trkpt lat="44.06683" lon="0.39686">
        <ele>153</ele>
        <time>2022-09-22T09:34:51Z</time>
      </trkpt>
      <trkpt lat="44.06683" lon="0.39678">
        <ele>153</ele>
        <time>2022-09-22T09:34:55Z</time>
      </trkpt>
      <trkpt lat="44.06684" lon="0.3967">
        <ele>153</ele>
        <time>2022-09-22T09:34:59Z</time>
      </trkpt>
      <trkpt lat="44.06684" lon="0.39664">
        <ele>153.1</ele>
        <time>2022-09-22T09:35:03Z</time>
      </trkpt>
      <trkpt lat="44.06685" lon="0.39656">
        <ele>153.2</ele>
        <time>2022-09-22T09:35:08Z</time>
      </trkpt>
      <trkpt lat="44.06685" lon="0.39649">
        <ele>152.8</ele>
        <time>2022-09-22T09:35:12Z</time>
      </trkpt>
      <trkpt lat="44.06686" lon="0.39642">
        <ele>152.2</ele>
        <time>2022-09-22T09:35:16Z</time>
      </trkpt>
      <trkpt lat="44.06686" lon="0.39635">
        <ele>151.6</ele>
        <time>2022-09-22T09:35:20Z</time>
      </trkpt>
      <trkpt lat="44.06687" lon="0.39629">
        <ele>151.3</ele>
        <time>2022-09-22T09:35:24Z</time>
      </trkpt>
      <trkpt lat="44.06687" lon="0.39622">
        <ele>151.3</ele>
        <time>2022-09-22T09:35:29Z</time>
      </trkpt>
      <trkpt lat="44.06689" lon="0.39614">
        <ele>151</ele>
        <time>2022-09-22T09:35:34Z</time>
      </trkpt>
      <trkpt lat="44.0669" lon="0.39608">
        <ele>150</ele>
        <time>2022-09-22T09:35:39Z</time>
      </trkpt>
      <trkpt lat="44.0669" lon="0.39601">
        <ele>149</ele>
        <time>2022-09-22T09:35:44Z</time>
      </trkpt>
      <trkpt lat="44.06691" lon="0.39595">
        <ele>148.1</ele>
        <time>2022-09-22T09:35:48Z</time>
      </trkpt>
      <trkpt lat="44.06692" lon="0.39588">
        <ele>147.3</ele>
        <time>2022-09-22T09:35:54Z</time>
      </trkpt>
      <trkpt lat="44.06693" lon="0.39581">
        <ele>146.9</ele>
        <time>2022-09-22T09:35:59Z</time>
      </trkpt>
      <trkpt lat="44.06692" lon="0.39573">
        <ele>146.5</ele>
        <time>2022-09-22T09:36:03Z</time>
      </trkpt>
      <trkpt lat="44.06693" lon="0.39566">
        <ele>146.4</ele>
        <time>2022-09-22T09:36:07Z</time>
      </trkpt>
      <trkpt lat="44.06693" lon="0.39559">
        <ele>146</ele>
        <time>2022-09-22T09:36:11Z</time>
      </trkpt>
      <trkpt lat="44.06693" lon="0.39552">
        <ele>145.8</ele>
        <time>2022-09-22T09:36:16Z</time>
      </trkpt>
      <trkpt lat="44.06694" lon="0.39545">
        <ele>145.5</ele>
        <time>2022-09-22T09:36:20Z</time>
      </trkpt>
      <trkpt lat="44.06694" lon="0.39537">
        <ele>145.3</ele>
        <time>2022-09-22T09:36:24Z</time>
      </trkpt>
      <trkpt lat="44.06695" lon="0.39529">
        <ele>144.9</ele>
        <time>2022-09-22T09:36:28Z</time>
      </trkpt>
      <trkpt lat="44.06695" lon="0.39523">
        <ele>144.2</ele>
        <time>2022-09-22T09:36:32Z</time>
      </trkpt>
      <trkpt lat="44.06696" lon="0.39517">
        <ele>141.6</ele>
        <time>2022-09-22T09:36:43Z</time>
      </trkpt>
      <trkpt lat="44.06693" lon="0.39512">
        <ele>138.8</ele>
        <time>2022-09-22T09:37:26Z</time>
      </trkpt>
      <trkpt lat="44.06689" lon="0.39509">
        <ele>138.2</ele>
        <time>2022-09-22T09:37:30Z</time>
      </trkpt>
      <trkpt lat="44.06684" lon="0.39507">
        <ele>137.7</ele>
        <time>2022-09-22T09:37:35Z</time>
      </trkpt>
      <trkpt lat="44.0668" lon="0.39503">
        <ele>137.3</ele>
        <time>2022-09-22T09:37:40Z</time>
      </trkpt>
      <trkpt lat="44.06676" lon="0.39499">
        <ele>136.5</ele>
        <time>2022-09-22T09:37:46Z</time>
      </trkpt>
      <trkpt lat="44.06671" lon="0.39496">
        <ele>135.7</ele>
        <time>2022-09-22T09:37:51Z</time>
      </trkpt>
      <trkpt lat="44.06667" lon="0.39491">
        <ele>134.7</ele>
        <time>2022-09-22T09:37:56Z</time>
      </trkpt>
      <trkpt lat="44.06663" lon="0.39488">
        <ele>133.6</ele>
        <time>2022-09-22T09:38:02Z</time>
      </trkpt>
      <trkpt lat="44.06659" lon="0.39485">
        <ele>132.7</ele>
        <time>2022-09-22T09:38:06Z</time>
      </trkpt>
      <trkpt lat="44.06655" lon="0.39481">
        <ele>132.3</ele>
        <time>2022-09-22T09:38:10Z</time>
      </trkpt>
      <trkpt lat="44.06651" lon="0.39478">
        <ele>132</ele>
        <time>2022-09-22T09:38:14Z</time>
      </trkpt>
      <trkpt lat="44.06647" lon="0.39473">
        <ele>131.4</ele>
        <time>2022-09-22T09:38:19Z</time>
      </trkpt>
      <trkpt lat="44.06643" lon="0.3947">
        <ele>130.8</ele>
        <time>2022-09-22T09:38:24Z</time>
      </trkpt>
      <trkpt lat="44.06639" lon="0.39467">
        <ele>130.4</ele>
        <time>2022-09-22T09:38:29Z</time>
      </trkpt>
      <trkpt lat="44.06634" lon="0.39463">
        <ele>129.8</ele>
        <time>2022-09-22T09:38:34Z</time>
      </trkpt>
      <trkpt lat="44.06629" lon="0.39459">
        <ele>129.4</ele>
        <time>2022-09-22T09:38:38Z</time>
      </trkpt>
      <trkpt lat="44.06624" lon="0.39456">
        <ele>129.2</ele>
        <time>2022-09-22T09:38:42Z</time>
      </trkpt>
      <trkpt lat="44.06621" lon="0.39451">
        <ele>128.9</ele>
        <time>2022-09-22T09:38:47Z</time>
      </trkpt>
      <trkpt lat="44.06617" lon="0.39446">
        <ele>128.3</ele>
        <time>2022-09-22T09:38:53Z</time>
      </trkpt>
      <trkpt lat="44.06614" lon="0.39441">
        <ele>128.1</ele>
        <time>2022-09-22T09:38:58Z</time>
      </trkpt>
      <trkpt lat="44.06611" lon="0.39435">
        <ele>127.1</ele>
        <time>2022-09-22T09:39:04Z</time>
      </trkpt>
      <trkpt lat="44.06609" lon="0.39429">
        <ele>125.9</ele>
        <time>2022-09-22T09:39:09Z</time>
      </trkpt>
      <trkpt lat="44.06607" lon="0.39422">
        <ele>124.6</ele>
        <time>2022-09-22T09:39:14Z</time>
      </trkpt>
      <trkpt lat="44.06605" lon="0.39416">
        <ele>123.4</ele>
        <time>2022-09-22T09:39:19Z</time>
      </trkpt>
      <trkpt lat="44.06603" lon="0.39409">
        <ele>123.2</ele>
        <time>2022-09-22T09:39:23Z</time>
      </trkpt>
      <trkpt lat="44.06599" lon="0.39404">
        <ele>123.8</ele>
        <time>2022-09-22T09:39:27Z</time>
      </trkpt>
      <trkpt lat="44.06595" lon="0.394">
        <ele>124.4</ele>
        <time>2022-09-22T09:39:32Z</time>
      </trkpt>
      <trkpt lat="44.06592" lon="0.39393">
        <ele>124.2</ele>
        <time>2022-09-22T09:39:37Z</time>
      </trkpt>
      <trkpt lat="44.06589" lon="0.39387">
        <ele>123.2</ele>
        <time>2022-09-22T09:39:41Z</time>
      </trkpt>
      <trkpt lat="44.06587" lon="0.39381">
        <ele>121.7</ele>
        <time>2022-09-22T09:39:46Z</time>
      </trkpt>
      <trkpt lat="44.06584" lon="0.39376">
        <ele>121.1</ele>
        <time>2022-09-22T09:39:51Z</time>
      </trkpt>
      <trkpt lat="44.0658" lon="0.39371">
        <ele>120.5</ele>
        <time>2022-09-22T09:39:56Z</time>
      </trkpt>
      <trkpt lat="44.06576" lon="0.39367">
        <ele>120.2</ele>
        <time>2022-09-22T09:39:59Z</time>
      </trkpt>
      <trkpt lat="44.06572" lon="0.39361">
        <ele>119.6</ele>
        <time>2022-09-22T09:40:03Z</time>
      </trkpt>
      <trkpt lat="44.06568" lon="0.39357">
        <ele>119.3</ele>
        <time>2022-09-22T09:40:07Z</time>
      </trkpt>
      <trkpt lat="44.06563" lon="0.39353">
        <ele>119.8</ele>
        <time>2022-09-22T09:40:11Z</time>
      </trkpt>
      <trkpt lat="44.06559" lon="0.39348">
        <ele>120.5</ele>
        <time>2022-09-22T09:40:16Z</time>
      </trkpt>
      <trkpt lat="44.06555" lon="0.39343">
        <ele>121</ele>
        <time>2022-09-22T09:40:20Z</time>
      </trkpt>
      <trkpt lat="44.06551" lon="0.39338">
        <ele>121.5</ele>
        <time>2022-09-22T09:40:25Z</time>
      </trkpt>
      <trkpt lat="44.06547" lon="0.39333">
        <ele>121.9</ele>
        <time>2022-09-22T09:40:29Z</time>
      </trkpt>
      <trkpt lat="44.06543" lon="0.39328">
        <ele>123</ele>
        <time>2022-09-22T09:40:34Z</time>
      </trkpt>
      <trkpt lat="44.06539" lon="0.39324">
        <ele>123.8</ele>
        <time>2022-09-22T09:40:38Z</time>
      </trkpt>
      <trkpt lat="44.06535" lon="0.39321">
        <ele>123.6</ele>
        <time>2022-09-22T09:40:42Z</time>
      </trkpt>
      <trkpt lat="44.06531" lon="0.39317">
        <ele>122.9</ele>
        <time>2022-09-22T09:40:49Z</time>
      </trkpt>
      <trkpt lat="44.0653" lon="0.39311">
        <ele>123</ele>
        <time>2022-09-22T09:40:56Z</time>
      </trkpt>
      <trkpt lat="44.06528" lon="0.39302">
        <ele>122.2</ele>
        <time>2022-09-22T09:41:18Z</time>
      </trkpt>
      <trkpt lat="44.06528" lon="0.39296">
        <ele>120.7</ele>
        <time>2022-09-22T09:42:22Z</time>
      </trkpt>
      <trkpt lat="44.06529" lon="0.39302">
        <ele>121</ele>
        <time>2022-09-22T09:42:54Z</time>
      </trkpt>
      <trkpt lat="44.06524" lon="0.39303">
        <ele>123.2</ele>
        <time>2022-09-22T09:43:09Z</time>
      </trkpt>
      <trkpt lat="44.06519" lon="0.39302">
        <ele>123.2</ele>
        <time>2022-09-22T09:43:16Z</time>
      </trkpt>
    </trkseg>
  </trk>
</gpx>